<?xml version="1.0" encoding="UTF-8" standalone="no" ?>
<gpx xmlns="http://www.topografix.com/GPX/1/1" xmlns:xsi="http://www.w3.org/2001/XMLSchema-instance" xsi:schemaLocation="http://www.topografix.com/GPX/1/1 http://www.topografix.com/GPX/1/1/gpx.xsd" version="1.1" creator="VisuGPX - https://www.visugpx.com">
  <metadata>
    <name>10K Forêt de l'Hautil</name>
  </metadata>
  <trk>
    <name><![CDATA[10K Forêt de l'Hautil_1]]></name>
    <trkseg>
      <trkpt lat="49.00727" lon="2.01457">
        <ele>124.4</ele>
        <time>2022-09-12T16:13:37Z</time>
      </trkpt>
      <trkpt lat="49.00727" lon="2.01457">
        <ele>124.4</ele>
        <time>2022-09-12T16:13:42Z</time>
      </trkpt>
      <trkpt lat="49.00727" lon="2.01457">
        <ele>124.4</ele>
        <time>2022-09-12T16:13:48Z</time>
      </trkpt>
      <trkpt lat="49.00727" lon="2.01457">
        <ele>124.4</ele>
        <time>2022-09-12T16:13:54Z</time>
      </trkpt>
      <trkpt lat="49.00727" lon="2.01457">
        <ele>124.4</ele>
        <time>2022-09-12T16:13:59Z</time>
      </trkpt>
      <trkpt lat="49.00727" lon="2.01457">
        <ele>124.4</ele>
        <time>2022-09-12T16:14:05Z</time>
      </trkpt>
      <trkpt lat="49.00727" lon="2.01457">
        <ele>124.4</ele>
        <time>2022-09-12T16:14:10Z</time>
      </trkpt>
      <trkpt lat="49.00727" lon="2.01457">
        <ele>124.4</ele>
        <time>2022-09-12T16:14:16Z</time>
      </trkpt>
      <trkpt lat="49.00727" lon="2.01457">
        <ele>124.4</ele>
        <time>2022-09-12T16:14:21Z</time>
      </trkpt>
      <trkpt lat="49.00727" lon="2.01457">
        <ele>124.4</ele>
        <time>2022-09-12T16:14:26Z</time>
      </trkpt>
      <trkpt lat="49.00727" lon="2.01457">
        <ele>124.4</ele>
        <time>2022-09-12T16:14:32Z</time>
      </trkpt>
      <trkpt lat="49.00727" lon="2.01457">
        <ele>124.4</ele>
        <time>2022-09-12T16:14:38Z</time>
      </trkpt>
      <trkpt lat="49.00727" lon="2.01457">
        <ele>124.4</ele>
        <time>2022-09-12T16:14:44Z</time>
      </trkpt>
      <trkpt lat="49.00727" lon="2.01457">
        <ele>124.4</ele>
        <time>2022-09-12T16:14:50Z</time>
      </trkpt>
      <trkpt lat="49.00733" lon="2.01454">
        <ele>124.3</ele>
        <time>2022-09-12T16:14:55Z</time>
      </trkpt>
      <trkpt lat="49.00737" lon="2.01453">
        <ele>124.1</ele>
        <time>2022-09-12T16:15:00Z</time>
      </trkpt>
      <trkpt lat="49.00743" lon="2.01449">
        <ele>124.1</ele>
        <time>2022-09-12T16:15:05Z</time>
      </trkpt>
      <trkpt lat="49.00749" lon="2.01442">
        <ele>124.2</ele>
        <time>2022-09-12T16:15:11Z</time>
      </trkpt>
      <trkpt lat="49.00755" lon="2.01435">
        <ele>124.6</ele>
        <time>2022-09-12T16:15:17Z</time>
      </trkpt>
      <trkpt lat="49.0076" lon="2.0143">
        <ele>124.9</ele>
        <time>2022-09-12T16:15:22Z</time>
      </trkpt>
      <trkpt lat="49.00768" lon="2.01424">
        <ele>125</ele>
        <time>2022-09-12T16:15:28Z</time>
      </trkpt>
      <trkpt lat="49.00772" lon="2.01419">
        <ele>125.1</ele>
        <time>2022-09-12T16:15:33Z</time>
      </trkpt>
      <trkpt lat="49.00777" lon="2.01414">
        <ele>125.2</ele>
        <time>2022-09-12T16:15:39Z</time>
      </trkpt>
      <trkpt lat="49.00781" lon="2.01408">
        <ele>125.5</ele>
        <time>2022-09-12T16:15:45Z</time>
      </trkpt>
      <trkpt lat="49.00785" lon="2.01401">
        <ele>125.7</ele>
        <time>2022-09-12T16:15:50Z</time>
      </trkpt>
      <trkpt lat="49.00792" lon="2.01395">
        <ele>125.7</ele>
        <time>2022-09-12T16:15:56Z</time>
      </trkpt>
      <trkpt lat="49.00799" lon="2.01389">
        <ele>125.4</ele>
        <time>2022-09-12T16:16:02Z</time>
      </trkpt>
      <trkpt lat="49.00805" lon="2.01382">
        <ele>125.5</ele>
        <time>2022-09-12T16:16:08Z</time>
      </trkpt>
      <trkpt lat="49.0081" lon="2.01376">
        <ele>125.7</ele>
        <time>2022-09-12T16:16:13Z</time>
      </trkpt>
      <trkpt lat="49.00815" lon="2.0137">
        <ele>125.8</ele>
        <time>2022-09-12T16:16:19Z</time>
      </trkpt>
      <trkpt lat="49.00822" lon="2.01364">
        <ele>125.7</ele>
        <time>2022-09-12T16:16:25Z</time>
      </trkpt>
      <trkpt lat="49.00829" lon="2.01355">
        <ele>125.7</ele>
        <time>2022-09-12T16:16:31Z</time>
      </trkpt>
      <trkpt lat="49.00834" lon="2.0135">
        <ele>125.8</ele>
        <time>2022-09-12T16:16:36Z</time>
      </trkpt>
      <trkpt lat="49.00841" lon="2.01344">
        <ele>125.6</ele>
        <time>2022-09-12T16:16:41Z</time>
      </trkpt>
      <trkpt lat="49.00848" lon="2.01339">
        <ele>125.2</ele>
        <time>2022-09-12T16:16:47Z</time>
      </trkpt>
      <trkpt lat="49.00854" lon="2.0133">
        <ele>124.8</ele>
        <time>2022-09-12T16:16:53Z</time>
      </trkpt>
      <trkpt lat="49.0086" lon="2.01322">
        <ele>124.5</ele>
        <time>2022-09-12T16:16:59Z</time>
      </trkpt>
      <trkpt lat="49.00867" lon="2.01314">
        <ele>124.3</ele>
        <time>2022-09-12T16:17:05Z</time>
      </trkpt>
      <trkpt lat="49.00873" lon="2.01307">
        <ele>124.1</ele>
        <time>2022-09-12T16:17:10Z</time>
      </trkpt>
      <trkpt lat="49.00878" lon="2.013">
        <ele>123.9</ele>
        <time>2022-09-12T16:17:15Z</time>
      </trkpt>
      <trkpt lat="49.00887" lon="2.01293">
        <ele>123.6</ele>
        <time>2022-09-12T16:17:21Z</time>
      </trkpt>
      <trkpt lat="49.00894" lon="2.01289">
        <ele>123.3</ele>
        <time>2022-09-12T16:17:27Z</time>
      </trkpt>
      <trkpt lat="49.00902" lon="2.01288">
        <ele>122.9</ele>
        <time>2022-09-12T16:17:33Z</time>
      </trkpt>
      <trkpt lat="49.00907" lon="2.01285">
        <ele>122.6</ele>
        <time>2022-09-12T16:17:39Z</time>
      </trkpt>
      <trkpt lat="49.00913" lon="2.0128">
        <ele>122.3</ele>
        <time>2022-09-12T16:17:44Z</time>
      </trkpt>
      <trkpt lat="49.00918" lon="2.01279">
        <ele>122</ele>
        <time>2022-09-12T16:17:49Z</time>
      </trkpt>
      <trkpt lat="49.00924" lon="2.01277">
        <ele>122</ele>
        <time>2022-09-12T16:17:54Z</time>
      </trkpt>
      <trkpt lat="49.00932" lon="2.01272">
        <ele>122.2</ele>
        <time>2022-09-12T16:18:00Z</time>
      </trkpt>
      <trkpt lat="49.0094" lon="2.01263">
        <ele>122.5</ele>
        <time>2022-09-12T16:18:06Z</time>
      </trkpt>
      <trkpt lat="49.00944" lon="2.01254">
        <ele>122.8</ele>
        <time>2022-09-12T16:18:12Z</time>
      </trkpt>
      <trkpt lat="49.00951" lon="2.01247">
        <ele>123.1</ele>
        <time>2022-09-12T16:18:18Z</time>
      </trkpt>
      <trkpt lat="49.00958" lon="2.01241">
        <ele>123.3</ele>
        <time>2022-09-12T16:18:24Z</time>
      </trkpt>
      <trkpt lat="49.00961" lon="2.01232">
        <ele>123.6</ele>
        <time>2022-09-12T16:18:29Z</time>
      </trkpt>
      <trkpt lat="49.00964" lon="2.01227">
        <ele>123.8</ele>
        <time>2022-09-12T16:18:35Z</time>
      </trkpt>
      <trkpt lat="49.0097" lon="2.01224">
        <ele>123.9</ele>
        <time>2022-09-12T16:18:40Z</time>
      </trkpt>
      <trkpt lat="49.00978" lon="2.01219">
        <ele>124.6</ele>
        <time>2022-09-12T16:18:46Z</time>
      </trkpt>
      <trkpt lat="49.00986" lon="2.01214">
        <ele>125.4</ele>
        <time>2022-09-12T16:18:52Z</time>
      </trkpt>
      <trkpt lat="49.00993" lon="2.01214">
        <ele>125.9</ele>
        <time>2022-09-12T16:18:57Z</time>
      </trkpt>
      <trkpt lat="49.00997" lon="2.01211">
        <ele>126.2</ele>
        <time>2022-09-12T16:19:02Z</time>
      </trkpt>
      <trkpt lat="49.01005" lon="2.01206">
        <ele>126.8</ele>
        <time>2022-09-12T16:19:08Z</time>
      </trkpt>
      <trkpt lat="49.01005" lon="2.01196">
        <ele>127.1</ele>
        <time>2022-09-12T16:19:14Z</time>
      </trkpt>
      <trkpt lat="49.01001" lon="2.01186">
        <ele>127.6</ele>
        <time>2022-09-12T16:19:20Z</time>
      </trkpt>
      <trkpt lat="49.00998" lon="2.0118">
        <ele>127.9</ele>
        <time>2022-09-12T16:19:26Z</time>
      </trkpt>
      <trkpt lat="49.00995" lon="2.01166">
        <ele>128.6</ele>
        <time>2022-09-12T16:19:31Z</time>
      </trkpt>
      <trkpt lat="49.00991" lon="2.01153">
        <ele>128.9</ele>
        <time>2022-09-12T16:19:37Z</time>
      </trkpt>
      <trkpt lat="49.00989" lon="2.01143">
        <ele>129.1</ele>
        <time>2022-09-12T16:19:43Z</time>
      </trkpt>
      <trkpt lat="49.00989" lon="2.01133">
        <ele>129.6</ele>
        <time>2022-09-12T16:19:49Z</time>
      </trkpt>
      <trkpt lat="49.00983" lon="2.01121">
        <ele>130</ele>
        <time>2022-09-12T16:19:55Z</time>
      </trkpt>
      <trkpt lat="49.00982" lon="2.01114">
        <ele>130.5</ele>
        <time>2022-09-12T16:20:01Z</time>
      </trkpt>
      <trkpt lat="49.0098" lon="2.01103">
        <ele>130.8</ele>
        <time>2022-09-12T16:20:06Z</time>
      </trkpt>
      <trkpt lat="49.00977" lon="2.0109">
        <ele>131.1</ele>
        <time>2022-09-12T16:20:12Z</time>
      </trkpt>
      <trkpt lat="49.00973" lon="2.01082">
        <ele>131.2</ele>
        <time>2022-09-12T16:20:18Z</time>
      </trkpt>
      <trkpt lat="49.0097" lon="2.0107">
        <ele>131.9</ele>
        <time>2022-09-12T16:20:24Z</time>
      </trkpt>
      <trkpt lat="49.00966" lon="2.01061">
        <ele>132.4</ele>
        <time>2022-09-12T16:20:30Z</time>
      </trkpt>
      <trkpt lat="49.0096" lon="2.01054">
        <ele>132.7</ele>
        <time>2022-09-12T16:20:36Z</time>
      </trkpt>
      <trkpt lat="49.00957" lon="2.01045">
        <ele>133.2</ele>
        <time>2022-09-12T16:20:42Z</time>
      </trkpt>
      <trkpt lat="49.0096" lon="2.01036">
        <ele>133.9</ele>
        <time>2022-09-12T16:20:48Z</time>
      </trkpt>
      <trkpt lat="49.00966" lon="2.01033">
        <ele>134.4</ele>
        <time>2022-09-12T16:20:53Z</time>
      </trkpt>
      <trkpt lat="49.00972" lon="2.01027">
        <ele>135</ele>
        <time>2022-09-12T16:20:59Z</time>
      </trkpt>
      <trkpt lat="49.00977" lon="2.01023">
        <ele>135.5</ele>
        <time>2022-09-12T16:21:05Z</time>
      </trkpt>
      <trkpt lat="49.00983" lon="2.01022">
        <ele>136</ele>
        <time>2022-09-12T16:21:10Z</time>
      </trkpt>
      <trkpt lat="49.0099" lon="2.01019">
        <ele>136.6</ele>
        <time>2022-09-12T16:21:16Z</time>
      </trkpt>
      <trkpt lat="49.00997" lon="2.01014">
        <ele>137.3</ele>
        <time>2022-09-12T16:21:21Z</time>
      </trkpt>
      <trkpt lat="49.01" lon="2.01011">
        <ele>137.6</ele>
        <time>2022-09-12T16:21:26Z</time>
      </trkpt>
      <trkpt lat="49.01004" lon="2.01005">
        <ele>138</ele>
        <time>2022-09-12T16:21:31Z</time>
      </trkpt>
      <trkpt lat="49.01009" lon="2.00998">
        <ele>138.5</ele>
        <time>2022-09-12T16:21:37Z</time>
      </trkpt>
      <trkpt lat="49.01016" lon="2.00993">
        <ele>139.1</ele>
        <time>2022-09-12T16:21:42Z</time>
      </trkpt>
      <trkpt lat="49.01022" lon="2.00989">
        <ele>139.6</ele>
        <time>2022-09-12T16:21:48Z</time>
      </trkpt>
      <trkpt lat="49.01027" lon="2.00985">
        <ele>140.1</ele>
        <time>2022-09-12T16:21:54Z</time>
      </trkpt>
      <trkpt lat="49.01032" lon="2.0098">
        <ele>140.2</ele>
        <time>2022-09-12T16:21:59Z</time>
      </trkpt>
      <trkpt lat="49.01037" lon="2.00973">
        <ele>140.3</ele>
        <time>2022-09-12T16:22:04Z</time>
      </trkpt>
      <trkpt lat="49.01044" lon="2.0097">
        <ele>139.9</ele>
        <time>2022-09-12T16:22:10Z</time>
      </trkpt>
      <trkpt lat="49.01054" lon="2.00963">
        <ele>139.4</ele>
        <time>2022-09-12T16:22:16Z</time>
      </trkpt>
      <trkpt lat="49.01061" lon="2.00958">
        <ele>139.1</ele>
        <time>2022-09-12T16:22:22Z</time>
      </trkpt>
      <trkpt lat="49.0107" lon="2.00954">
        <ele>138.6</ele>
        <time>2022-09-12T16:22:28Z</time>
      </trkpt>
      <trkpt lat="49.01076" lon="2.00953">
        <ele>138.2</ele>
        <time>2022-09-12T16:22:34Z</time>
      </trkpt>
      <trkpt lat="49.01082" lon="2.00949">
        <ele>137.9</ele>
        <time>2022-09-12T16:22:39Z</time>
      </trkpt>
      <trkpt lat="49.01089" lon="2.0094">
        <ele>138.1</ele>
        <time>2022-09-12T16:22:45Z</time>
      </trkpt>
      <trkpt lat="49.01097" lon="2.00935">
        <ele>138.2</ele>
        <time>2022-09-12T16:22:50Z</time>
      </trkpt>
      <trkpt lat="49.01104" lon="2.00927">
        <ele>138.5</ele>
        <time>2022-09-12T16:22:56Z</time>
      </trkpt>
      <trkpt lat="49.01113" lon="2.00919">
        <ele>138.7</ele>
        <time>2022-09-12T16:23:02Z</time>
      </trkpt>
      <trkpt lat="49.01119" lon="2.00914">
        <ele>138.5</ele>
        <time>2022-09-12T16:23:07Z</time>
      </trkpt>
      <trkpt lat="49.01126" lon="2.00907">
        <ele>138.3</ele>
        <time>2022-09-12T16:23:13Z</time>
      </trkpt>
      <trkpt lat="49.01131" lon="2.00899">
        <ele>138.2</ele>
        <time>2022-09-12T16:23:18Z</time>
      </trkpt>
      <trkpt lat="49.01138" lon="2.0089">
        <ele>138</ele>
        <time>2022-09-12T16:23:24Z</time>
      </trkpt>
      <trkpt lat="49.01143" lon="2.00883">
        <ele>137.3</ele>
        <time>2022-09-12T16:23:29Z</time>
      </trkpt>
      <trkpt lat="49.01151" lon="2.00874">
        <ele>136.1</ele>
        <time>2022-09-12T16:23:35Z</time>
      </trkpt>
      <trkpt lat="49.01156" lon="2.00866">
        <ele>135.3</ele>
        <time>2022-09-12T16:23:40Z</time>
      </trkpt>
      <trkpt lat="49.01162" lon="2.00855">
        <ele>134.3</ele>
        <time>2022-09-12T16:23:46Z</time>
      </trkpt>
      <trkpt lat="49.01166" lon="2.00849">
        <ele>133.7</ele>
        <time>2022-09-12T16:23:51Z</time>
      </trkpt>
      <trkpt lat="49.01169" lon="2.00843">
        <ele>133.1</ele>
        <time>2022-09-12T16:23:56Z</time>
      </trkpt>
      <trkpt lat="49.01172" lon="2.00835">
        <ele>132.5</ele>
        <time>2022-09-12T16:24:02Z</time>
      </trkpt>
      <trkpt lat="49.01173" lon="2.00823">
        <ele>132</ele>
        <time>2022-09-12T16:24:07Z</time>
      </trkpt>
      <trkpt lat="49.01173" lon="2.00811">
        <ele>131.7</ele>
        <time>2022-09-12T16:24:13Z</time>
      </trkpt>
      <trkpt lat="49.01171" lon="2.00797">
        <ele>131.9</ele>
        <time>2022-09-12T16:24:19Z</time>
      </trkpt>
      <trkpt lat="49.0117" lon="2.00783">
        <ele>132.5</ele>
        <time>2022-09-12T16:24:24Z</time>
      </trkpt>
      <trkpt lat="49.01169" lon="2.00774">
        <ele>132.9</ele>
        <time>2022-09-12T16:24:29Z</time>
      </trkpt>
      <trkpt lat="49.01165" lon="2.00761">
        <ele>133.9</ele>
        <time>2022-09-12T16:24:35Z</time>
      </trkpt>
      <trkpt lat="49.01162" lon="2.00752">
        <ele>134.7</ele>
        <time>2022-09-12T16:24:41Z</time>
      </trkpt>
      <trkpt lat="49.01164" lon="2.00738">
        <ele>135.4</ele>
        <time>2022-09-12T16:24:47Z</time>
      </trkpt>
      <trkpt lat="49.01163" lon="2.00724">
        <ele>136.5</ele>
        <time>2022-09-12T16:24:53Z</time>
      </trkpt>
      <trkpt lat="49.01161" lon="2.00714">
        <ele>137.4</ele>
        <time>2022-09-12T16:24:58Z</time>
      </trkpt>
      <trkpt lat="49.01162" lon="2.00704">
        <ele>137.6</ele>
        <time>2022-09-12T16:25:04Z</time>
      </trkpt>
      <trkpt lat="49.01163" lon="2.00694">
        <ele>137.8</ele>
        <time>2022-09-12T16:25:09Z</time>
      </trkpt>
      <trkpt lat="49.01163" lon="2.00681">
        <ele>138.7</ele>
        <time>2022-09-12T16:25:15Z</time>
      </trkpt>
      <trkpt lat="49.01162" lon="2.00671">
        <ele>139.6</ele>
        <time>2022-09-12T16:25:20Z</time>
      </trkpt>
      <trkpt lat="49.0116" lon="2.0066">
        <ele>140.9</ele>
        <time>2022-09-12T16:25:26Z</time>
      </trkpt>
      <trkpt lat="49.01156" lon="2.00648">
        <ele>142.6</ele>
        <time>2022-09-12T16:25:32Z</time>
      </trkpt>
      <trkpt lat="49.01153" lon="2.00637">
        <ele>144.1</ele>
        <time>2022-09-12T16:25:38Z</time>
      </trkpt>
      <trkpt lat="49.01153" lon="2.00629">
        <ele>144.9</ele>
        <time>2022-09-12T16:25:44Z</time>
      </trkpt>
      <trkpt lat="49.01157" lon="2.0062">
        <ele>145.2</ele>
        <time>2022-09-12T16:25:49Z</time>
      </trkpt>
      <trkpt lat="49.01163" lon="2.00616">
        <ele>145</ele>
        <time>2022-09-12T16:25:54Z</time>
      </trkpt>
      <trkpt lat="49.01169" lon="2.00613">
        <ele>144.6</ele>
        <time>2022-09-12T16:26:00Z</time>
      </trkpt>
      <trkpt lat="49.01173" lon="2.00612">
        <ele>144.4</ele>
        <time>2022-09-12T16:26:05Z</time>
      </trkpt>
      <trkpt lat="49.01179" lon="2.0061">
        <ele>144.3</ele>
        <time>2022-09-12T16:26:11Z</time>
      </trkpt>
      <trkpt lat="49.01185" lon="2.00608">
        <ele>144.1</ele>
        <time>2022-09-12T16:26:17Z</time>
      </trkpt>
      <trkpt lat="49.01192" lon="2.00606">
        <ele>143.9</ele>
        <time>2022-09-12T16:26:23Z</time>
      </trkpt>
      <trkpt lat="49.01202" lon="2.00605">
        <ele>143.3</ele>
        <time>2022-09-12T16:26:29Z</time>
      </trkpt>
      <trkpt lat="49.01211" lon="2.00604">
        <ele>142.9</ele>
        <time>2022-09-12T16:26:34Z</time>
      </trkpt>
      <trkpt lat="49.01219" lon="2.00602">
        <ele>142.5</ele>
        <time>2022-09-12T16:26:39Z</time>
      </trkpt>
      <trkpt lat="49.01229" lon="2.006">
        <ele>142.5</ele>
        <time>2022-09-12T16:26:45Z</time>
      </trkpt>
      <trkpt lat="49.01235" lon="2.00597">
        <ele>142.8</ele>
        <time>2022-09-12T16:26:50Z</time>
      </trkpt>
      <trkpt lat="49.01243" lon="2.00593">
        <ele>143.1</ele>
        <time>2022-09-12T16:26:56Z</time>
      </trkpt>
      <trkpt lat="49.01254" lon="2.00589">
        <ele>143.6</ele>
        <time>2022-09-12T16:27:01Z</time>
      </trkpt>
      <trkpt lat="49.0126" lon="2.00584">
        <ele>144.3</ele>
        <time>2022-09-12T16:27:07Z</time>
      </trkpt>
      <trkpt lat="49.01266" lon="2.00581">
        <ele>144.8</ele>
        <time>2022-09-12T16:27:12Z</time>
      </trkpt>
      <trkpt lat="49.01274" lon="2.00577">
        <ele>145.5</ele>
        <time>2022-09-12T16:27:17Z</time>
      </trkpt>
      <trkpt lat="49.01282" lon="2.00576">
        <ele>146.2</ele>
        <time>2022-09-12T16:27:23Z</time>
      </trkpt>
      <trkpt lat="49.01288" lon="2.00571">
        <ele>147.2</ele>
        <time>2022-09-12T16:27:28Z</time>
      </trkpt>
      <trkpt lat="49.01296" lon="2.0057">
        <ele>148</ele>
        <time>2022-09-12T16:27:34Z</time>
      </trkpt>
      <trkpt lat="49.01304" lon="2.00572">
        <ele>148.5</ele>
        <time>2022-09-12T16:27:40Z</time>
      </trkpt>
      <trkpt lat="49.01309" lon="2.00574">
        <ele>148.5</ele>
        <time>2022-09-12T16:27:46Z</time>
      </trkpt>
      <trkpt lat="49.01314" lon="2.00573">
        <ele>148.7</ele>
        <time>2022-09-12T16:27:51Z</time>
      </trkpt>
      <trkpt lat="49.0132" lon="2.00572">
        <ele>149</ele>
        <time>2022-09-12T16:27:57Z</time>
      </trkpt>
      <trkpt lat="49.01325" lon="2.00568">
        <ele>149.6</ele>
        <time>2022-09-12T16:28:02Z</time>
      </trkpt>
      <trkpt lat="49.01332" lon="2.00562">
        <ele>150.3</ele>
        <time>2022-09-12T16:28:07Z</time>
      </trkpt>
      <trkpt lat="49.0134" lon="2.00558">
        <ele>150.2</ele>
        <time>2022-09-12T16:28:12Z</time>
      </trkpt>
      <trkpt lat="49.01345" lon="2.00555">
        <ele>150.3</ele>
        <time>2022-09-12T16:28:18Z</time>
      </trkpt>
      <trkpt lat="49.01349" lon="2.0055">
        <ele>150.9</ele>
        <time>2022-09-12T16:28:23Z</time>
      </trkpt>
      <trkpt lat="49.01358" lon="2.00541">
        <ele>151.4</ele>
        <time>2022-09-12T16:28:29Z</time>
      </trkpt>
      <trkpt lat="49.01363" lon="2.00532">
        <ele>152.1</ele>
        <time>2022-09-12T16:28:34Z</time>
      </trkpt>
      <trkpt lat="49.01367" lon="2.00523">
        <ele>152.2</ele>
        <time>2022-09-12T16:28:40Z</time>
      </trkpt>
      <trkpt lat="49.0137" lon="2.00509">
        <ele>152.7</ele>
        <time>2022-09-12T16:28:45Z</time>
      </trkpt>
      <trkpt lat="49.01374" lon="2.00499">
        <ele>152.8</ele>
        <time>2022-09-12T16:28:51Z</time>
      </trkpt>
      <trkpt lat="49.01377" lon="2.0049">
        <ele>152.9</ele>
        <time>2022-09-12T16:28:56Z</time>
      </trkpt>
      <trkpt lat="49.01381" lon="2.0048">
        <ele>153.1</ele>
        <time>2022-09-12T16:29:02Z</time>
      </trkpt>
      <trkpt lat="49.01382" lon="2.00468">
        <ele>153.8</ele>
        <time>2022-09-12T16:29:08Z</time>
      </trkpt>
      <trkpt lat="49.01385" lon="2.00459">
        <ele>154</ele>
        <time>2022-09-12T16:29:13Z</time>
      </trkpt>
      <trkpt lat="49.01388" lon="2.00444">
        <ele>154.2</ele>
        <time>2022-09-12T16:29:19Z</time>
      </trkpt>
      <trkpt lat="49.01392" lon="2.00433">
        <ele>154.2</ele>
        <time>2022-09-12T16:29:25Z</time>
      </trkpt>
      <trkpt lat="49.01394" lon="2.00423">
        <ele>154.4</ele>
        <time>2022-09-12T16:29:31Z</time>
      </trkpt>
      <trkpt lat="49.01396" lon="2.00414">
        <ele>154.1</ele>
        <time>2022-09-12T16:29:36Z</time>
      </trkpt>
      <trkpt lat="49.014" lon="2.00403">
        <ele>152.9</ele>
        <time>2022-09-12T16:29:42Z</time>
      </trkpt>
      <trkpt lat="49.01406" lon="2.00393">
        <ele>151.1</ele>
        <time>2022-09-12T16:29:48Z</time>
      </trkpt>
      <trkpt lat="49.01409" lon="2.00379">
        <ele>150.1</ele>
        <time>2022-09-12T16:29:54Z</time>
      </trkpt>
      <trkpt lat="49.01413" lon="2.00372">
        <ele>148.9</ele>
        <time>2022-09-12T16:30:00Z</time>
      </trkpt>
      <trkpt lat="49.01416" lon="2.00363">
        <ele>148.1</ele>
        <time>2022-09-12T16:30:05Z</time>
      </trkpt>
      <trkpt lat="49.01414" lon="2.00348">
        <ele>148.5</ele>
        <time>2022-09-12T16:30:11Z</time>
      </trkpt>
      <trkpt lat="49.01412" lon="2.00337">
        <ele>148.9</ele>
        <time>2022-09-12T16:30:16Z</time>
      </trkpt>
      <trkpt lat="49.01407" lon="2.00326">
        <ele>149.6</ele>
        <time>2022-09-12T16:30:22Z</time>
      </trkpt>
      <trkpt lat="49.01404" lon="2.00317">
        <ele>149.9</ele>
        <time>2022-09-12T16:30:28Z</time>
      </trkpt>
      <trkpt lat="49.01403" lon="2.00308">
        <ele>150</ele>
        <time>2022-09-12T16:30:33Z</time>
      </trkpt>
      <trkpt lat="49.014" lon="2.00297">
        <ele>151</ele>
        <time>2022-09-12T16:30:39Z</time>
      </trkpt>
      <trkpt lat="49.01396" lon="2.00287">
        <ele>152.3</ele>
        <time>2022-09-12T16:30:44Z</time>
      </trkpt>
      <trkpt lat="49.01392" lon="2.00276">
        <ele>153.8</ele>
        <time>2022-09-12T16:30:50Z</time>
      </trkpt>
      <trkpt lat="49.01388" lon="2.00273">
        <ele>155.2</ele>
        <time>2022-09-12T16:30:55Z</time>
      </trkpt>
      <trkpt lat="49.01383" lon="2.00267">
        <ele>157.6</ele>
        <time>2022-09-12T16:31:00Z</time>
      </trkpt>
      <trkpt lat="49.01379" lon="2.00264">
        <ele>159.2</ele>
        <time>2022-09-12T16:31:06Z</time>
      </trkpt>
      <trkpt lat="49.01372" lon="2.00259">
        <ele>161.6</ele>
        <time>2022-09-12T16:31:11Z</time>
      </trkpt>
      <trkpt lat="49.01372" lon="2.00253">
        <ele>162.2</ele>
        <time>2022-09-12T16:31:17Z</time>
      </trkpt>
      <trkpt lat="49.0137" lon="2.00246">
        <ele>163.9</ele>
        <time>2022-09-12T16:31:22Z</time>
      </trkpt>
      <trkpt lat="49.01364" lon="2.0024">
        <ele>166.3</ele>
        <time>2022-09-12T16:31:28Z</time>
      </trkpt>
      <trkpt lat="49.01363" lon="2.00236">
        <ele>167.2</ele>
        <time>2022-09-12T16:31:33Z</time>
      </trkpt>
      <trkpt lat="49.01362" lon="2.00232">
        <ele>168.1</ele>
        <time>2022-09-12T16:31:38Z</time>
      </trkpt>
      <trkpt lat="49.01361" lon="2.00229">
        <ele>168.9</ele>
        <time>2022-09-12T16:31:44Z</time>
      </trkpt>
      <trkpt lat="49.01359" lon="2.00224">
        <ele>170</ele>
        <time>2022-09-12T16:31:50Z</time>
      </trkpt>
      <trkpt lat="49.01356" lon="2.0022">
        <ele>171.3</ele>
        <time>2022-09-12T16:31:56Z</time>
      </trkpt>
      <trkpt lat="49.01354" lon="2.00216">
        <ele>172.5</ele>
        <time>2022-09-12T16:32:01Z</time>
      </trkpt>
      <trkpt lat="49.01349" lon="2.00213">
        <ele>173.8</ele>
        <time>2022-09-12T16:32:07Z</time>
      </trkpt>
      <trkpt lat="49.0134" lon="2.00214">
        <ele>174.9</ele>
        <time>2022-09-12T16:32:12Z</time>
      </trkpt>
      <trkpt lat="49.01335" lon="2.00219">
        <ele>175</ele>
        <time>2022-09-12T16:32:17Z</time>
      </trkpt>
      <trkpt lat="49.01332" lon="2.00226">
        <ele>175.1</ele>
        <time>2022-09-12T16:32:23Z</time>
      </trkpt>
      <trkpt lat="49.0133" lon="2.0023">
        <ele>175.4</ele>
        <time>2022-09-12T16:32:28Z</time>
      </trkpt>
      <trkpt lat="49.01326" lon="2.00233">
        <ele>176</ele>
        <time>2022-09-12T16:32:33Z</time>
      </trkpt>
      <trkpt lat="49.01322" lon="2.0024">
        <ele>176.7</ele>
        <time>2022-09-12T16:32:39Z</time>
      </trkpt>
      <trkpt lat="49.01321" lon="2.00248">
        <ele>176.6</ele>
        <time>2022-09-12T16:32:45Z</time>
      </trkpt>
      <trkpt lat="49.01321" lon="2.0026">
        <ele>176.7</ele>
        <time>2022-09-12T16:32:50Z</time>
      </trkpt>
      <trkpt lat="49.01318" lon="2.00273">
        <ele>177.3</ele>
        <time>2022-09-12T16:32:56Z</time>
      </trkpt>
      <trkpt lat="49.01316" lon="2.00286">
        <ele>177.6</ele>
        <time>2022-09-12T16:33:02Z</time>
      </trkpt>
      <trkpt lat="49.01315" lon="2.00295">
        <ele>177.3</ele>
        <time>2022-09-12T16:33:07Z</time>
      </trkpt>
      <trkpt lat="49.01315" lon="2.00306">
        <ele>177</ele>
        <time>2022-09-12T16:33:12Z</time>
      </trkpt>
      <trkpt lat="49.01316" lon="2.00319">
        <ele>176.7</ele>
        <time>2022-09-12T16:33:19Z</time>
      </trkpt>
      <trkpt lat="49.01318" lon="2.00334">
        <ele>176.4</ele>
        <time>2022-09-12T16:33:24Z</time>
      </trkpt>
      <trkpt lat="49.01318" lon="2.00345">
        <ele>176.5</ele>
        <time>2022-09-12T16:33:29Z</time>
      </trkpt>
      <trkpt lat="49.0132" lon="2.00355">
        <ele>176.2</ele>
        <time>2022-09-12T16:33:35Z</time>
      </trkpt>
      <trkpt lat="49.01324" lon="2.00361">
        <ele>175.7</ele>
        <time>2022-09-12T16:33:41Z</time>
      </trkpt>
      <trkpt lat="49.01322" lon="2.00374">
        <ele>175.8</ele>
        <time>2022-09-12T16:33:47Z</time>
      </trkpt>
      <trkpt lat="49.0132" lon="2.00385">
        <ele>176</ele>
        <time>2022-09-12T16:33:52Z</time>
      </trkpt>
      <trkpt lat="49.01317" lon="2.00395">
        <ele>176</ele>
        <time>2022-09-12T16:33:58Z</time>
      </trkpt>
      <trkpt lat="49.01315" lon="2.00404">
        <ele>175.9</ele>
        <time>2022-09-12T16:34:03Z</time>
      </trkpt>
      <trkpt lat="49.01314" lon="2.00418">
        <ele>175.3</ele>
        <time>2022-09-12T16:34:09Z</time>
      </trkpt>
      <trkpt lat="49.01316" lon="2.0043">
        <ele>173.7</ele>
        <time>2022-09-12T16:34:14Z</time>
      </trkpt>
      <trkpt lat="49.01314" lon="2.00444">
        <ele>172.6</ele>
        <time>2022-09-12T16:34:20Z</time>
      </trkpt>
      <trkpt lat="49.01312" lon="2.00448">
        <ele>172.5</ele>
        <time>2022-09-12T16:34:26Z</time>
      </trkpt>
      <trkpt lat="49.01308" lon="2.00456">
        <ele>172.2</ele>
        <time>2022-09-12T16:34:32Z</time>
      </trkpt>
      <trkpt lat="49.01301" lon="2.00462">
        <ele>172.1</ele>
        <time>2022-09-12T16:34:38Z</time>
      </trkpt>
      <trkpt lat="49.01292" lon="2.00464">
        <ele>171.7</ele>
        <time>2022-09-12T16:34:43Z</time>
      </trkpt>
      <trkpt lat="49.01288" lon="2.00458">
        <ele>172.5</ele>
        <time>2022-09-12T16:34:49Z</time>
      </trkpt>
      <trkpt lat="49.01284" lon="2.00449">
        <ele>173.9</ele>
        <time>2022-09-12T16:34:54Z</time>
      </trkpt>
      <trkpt lat="49.01271" lon="2.00456">
        <ele>173</ele>
        <time>2022-09-12T16:35:00Z</time>
      </trkpt>
      <trkpt lat="49.01266" lon="2.00454">
        <ele>173.6</ele>
        <time>2022-09-12T16:35:06Z</time>
      </trkpt>
      <trkpt lat="49.01258" lon="2.00457">
        <ele>173.2</ele>
        <time>2022-09-12T16:35:11Z</time>
      </trkpt>
      <trkpt lat="49.0125" lon="2.0046">
        <ele>172.7</ele>
        <time>2022-09-12T16:35:17Z</time>
      </trkpt>
      <trkpt lat="49.01244" lon="2.00461">
        <ele>173</ele>
        <time>2022-09-12T16:35:23Z</time>
      </trkpt>
      <trkpt lat="49.01237" lon="2.00461">
        <ele>173.7</ele>
        <time>2022-09-12T16:35:29Z</time>
      </trkpt>
      <trkpt lat="49.01232" lon="2.00457">
        <ele>174.8</ele>
        <time>2022-09-12T16:35:34Z</time>
      </trkpt>
      <trkpt lat="49.01225" lon="2.00452">
        <ele>176.5</ele>
        <time>2022-09-12T16:35:40Z</time>
      </trkpt>
      <trkpt lat="49.01221" lon="2.00453">
        <ele>176.5</ele>
        <time>2022-09-12T16:35:46Z</time>
      </trkpt>
      <trkpt lat="49.01222" lon="2.00455">
        <ele>176.2</ele>
        <time>2022-09-12T16:35:52Z</time>
      </trkpt>
      <trkpt lat="49.01221" lon="2.00453">
        <ele>176.5</ele>
        <time>2022-09-12T16:35:58Z</time>
      </trkpt>
      <trkpt lat="49.01221" lon="2.00453">
        <ele>176.4</ele>
        <time>2022-09-12T16:36:03Z</time>
      </trkpt>
      <trkpt lat="49.01222" lon="2.00451">
        <ele>176.8</ele>
        <time>2022-09-12T16:36:08Z</time>
      </trkpt>
      <trkpt lat="49.01222" lon="2.00451">
        <ele>176.8</ele>
        <time>2022-09-12T16:36:13Z</time>
      </trkpt>
      <trkpt lat="49.01223" lon="2.0045">
        <ele>177</ele>
        <time>2022-09-12T16:36:19Z</time>
      </trkpt>
      <trkpt lat="49.01224" lon="2.00449">
        <ele>177</ele>
        <time>2022-09-12T16:36:24Z</time>
      </trkpt>
      <trkpt lat="49.01224" lon="2.00449">
        <ele>177.1</ele>
        <time>2022-09-12T16:36:30Z</time>
      </trkpt>
      <trkpt lat="49.01224" lon="2.00449">
        <ele>177</ele>
        <time>2022-09-12T16:36:35Z</time>
      </trkpt>
      <trkpt lat="49.01224" lon="2.00449">
        <ele>177</ele>
        <time>2022-09-12T16:36:41Z</time>
      </trkpt>
      <trkpt lat="49.01224" lon="2.0045">
        <ele>176.9</ele>
        <time>2022-09-12T16:36:47Z</time>
      </trkpt>
      <trkpt lat="49.01223" lon="2.0045">
        <ele>176.9</ele>
        <time>2022-09-12T16:36:53Z</time>
      </trkpt>
      <trkpt lat="49.01223" lon="2.00451">
        <ele>176.8</ele>
        <time>2022-09-12T16:36:58Z</time>
      </trkpt>
      <trkpt lat="49.01222" lon="2.00452">
        <ele>176.6</ele>
        <time>2022-09-12T16:37:04Z</time>
      </trkpt>
      <trkpt lat="49.01221" lon="2.00453">
        <ele>176.4</ele>
        <time>2022-09-12T16:37:10Z</time>
      </trkpt>
      <trkpt lat="49.01221" lon="2.00454">
        <ele>176.3</ele>
        <time>2022-09-12T16:37:15Z</time>
      </trkpt>
      <trkpt lat="49.0122" lon="2.00454">
        <ele>176.2</ele>
        <time>2022-09-12T16:37:21Z</time>
      </trkpt>
      <trkpt lat="49.0122" lon="2.00454">
        <ele>176.2</ele>
        <time>2022-09-12T16:37:26Z</time>
      </trkpt>
      <trkpt lat="49.0122" lon="2.00454">
        <ele>176.2</ele>
        <time>2022-09-12T16:37:32Z</time>
      </trkpt>
      <trkpt lat="49.01219" lon="2.00455">
        <ele>176.1</ele>
        <time>2022-09-12T16:37:38Z</time>
      </trkpt>
      <trkpt lat="49.01219" lon="2.00455">
        <ele>176.1</ele>
        <time>2022-09-12T16:37:43Z</time>
      </trkpt>
      <trkpt lat="49.01219" lon="2.00455">
        <ele>176.1</ele>
        <time>2022-09-12T16:37:49Z</time>
      </trkpt>
      <trkpt lat="49.01218" lon="2.00456">
        <ele>176</ele>
        <time>2022-09-12T16:37:55Z</time>
      </trkpt>
      <trkpt lat="49.01218" lon="2.00456">
        <ele>175.9</ele>
        <time>2022-09-12T16:38:00Z</time>
      </trkpt>
      <trkpt lat="49.01217" lon="2.00457">
        <ele>175.8</ele>
        <time>2022-09-12T16:38:06Z</time>
      </trkpt>
      <trkpt lat="49.01217" lon="2.00458">
        <ele>175.7</ele>
        <time>2022-09-12T16:38:12Z</time>
      </trkpt>
      <trkpt lat="49.01217" lon="2.00458">
        <ele>175.6</ele>
        <time>2022-09-12T16:38:17Z</time>
      </trkpt>
      <trkpt lat="49.01217" lon="2.00458">
        <ele>175.6</ele>
        <time>2022-09-12T16:38:23Z</time>
      </trkpt>
      <trkpt lat="49.01217" lon="2.00459">
        <ele>175.5</ele>
        <time>2022-09-12T16:38:28Z</time>
      </trkpt>
      <trkpt lat="49.01213" lon="2.00454">
        <ele>176.5</ele>
        <time>2022-09-12T16:38:34Z</time>
      </trkpt>
      <trkpt lat="49.01208" lon="2.00444">
        <ele>178.1</ele>
        <time>2022-09-12T16:38:39Z</time>
      </trkpt>
      <trkpt lat="49.01201" lon="2.00433">
        <ele>178.8</ele>
        <time>2022-09-12T16:38:45Z</time>
      </trkpt>
      <trkpt lat="49.01195" lon="2.00426">
        <ele>179.3</ele>
        <time>2022-09-12T16:38:50Z</time>
      </trkpt>
      <trkpt lat="49.01188" lon="2.00418">
        <ele>179.7</ele>
        <time>2022-09-12T16:38:56Z</time>
      </trkpt>
      <trkpt lat="49.01183" lon="2.00412">
        <ele>179.7</ele>
        <time>2022-09-12T16:39:01Z</time>
      </trkpt>
      <trkpt lat="49.0118" lon="2.00403">
        <ele>179.7</ele>
        <time>2022-09-12T16:39:07Z</time>
      </trkpt>
      <trkpt lat="49.01175" lon="2.00395">
        <ele>179.9</ele>
        <time>2022-09-12T16:39:12Z</time>
      </trkpt>
      <trkpt lat="49.01169" lon="2.00386">
        <ele>180</ele>
        <time>2022-09-12T16:39:18Z</time>
      </trkpt>
      <trkpt lat="49.01161" lon="2.00375">
        <ele>179.9</ele>
        <time>2022-09-12T16:39:24Z</time>
      </trkpt>
      <trkpt lat="49.01159" lon="2.00365">
        <ele>180</ele>
        <time>2022-09-12T16:39:30Z</time>
      </trkpt>
      <trkpt lat="49.01156" lon="2.00355">
        <ele>180.1</ele>
        <time>2022-09-12T16:39:35Z</time>
      </trkpt>
      <trkpt lat="49.01151" lon="2.00349">
        <ele>180.2</ele>
        <time>2022-09-12T16:39:40Z</time>
      </trkpt>
      <trkpt lat="49.0114" lon="2.00345">
        <ele>180</ele>
        <time>2022-09-12T16:39:46Z</time>
      </trkpt>
      <trkpt lat="49.01131" lon="2.00345">
        <ele>180</ele>
        <time>2022-09-12T16:39:51Z</time>
      </trkpt>
      <trkpt lat="49.01123" lon="2.00339">
        <ele>180</ele>
        <time>2022-09-12T16:39:57Z</time>
      </trkpt>
      <trkpt lat="49.01117" lon="2.00344">
        <ele>180</ele>
        <time>2022-09-12T16:40:02Z</time>
      </trkpt>
      <trkpt lat="49.01111" lon="2.00353">
        <ele>180</ele>
        <time>2022-09-12T16:40:08Z</time>
      </trkpt>
      <trkpt lat="49.01105" lon="2.0036">
        <ele>180</ele>
        <time>2022-09-12T16:40:14Z</time>
      </trkpt>
      <trkpt lat="49.01097" lon="2.00366">
        <ele>179.8</ele>
        <time>2022-09-12T16:40:20Z</time>
      </trkpt>
      <trkpt lat="49.01092" lon="2.00371">
        <ele>179.6</ele>
        <time>2022-09-12T16:40:25Z</time>
      </trkpt>
      <trkpt lat="49.01085" lon="2.00377">
        <ele>179.4</ele>
        <time>2022-09-12T16:40:30Z</time>
      </trkpt>
      <trkpt lat="49.01077" lon="2.00384">
        <ele>179.1</ele>
        <time>2022-09-12T16:40:36Z</time>
      </trkpt>
      <trkpt lat="49.01072" lon="2.00391">
        <ele>178.9</ele>
        <time>2022-09-12T16:40:41Z</time>
      </trkpt>
      <trkpt lat="49.01066" lon="2.00397">
        <ele>178.6</ele>
        <time>2022-09-12T16:40:46Z</time>
      </trkpt>
      <trkpt lat="49.01058" lon="2.00405">
        <ele>178.4</ele>
        <time>2022-09-12T16:40:52Z</time>
      </trkpt>
      <trkpt lat="49.01051" lon="2.00413">
        <ele>178.3</ele>
        <time>2022-09-12T16:40:58Z</time>
      </trkpt>
      <trkpt lat="49.01045" lon="2.00418">
        <ele>178.3</ele>
        <time>2022-09-12T16:41:03Z</time>
      </trkpt>
      <trkpt lat="49.01039" lon="2.00425">
        <ele>178</ele>
        <time>2022-09-12T16:41:09Z</time>
      </trkpt>
      <trkpt lat="49.01033" lon="2.0043">
        <ele>178</ele>
        <time>2022-09-12T16:41:15Z</time>
      </trkpt>
      <trkpt lat="49.01029" lon="2.00429">
        <ele>178.5</ele>
        <time>2022-09-12T16:41:20Z</time>
      </trkpt>
      <trkpt lat="49.01027" lon="2.00422">
        <ele>178.8</ele>
        <time>2022-09-12T16:41:25Z</time>
      </trkpt>
      <trkpt lat="49.01028" lon="2.00412">
        <ele>179</ele>
        <time>2022-09-12T16:41:31Z</time>
      </trkpt>
      <trkpt lat="49.01031" lon="2.00408">
        <ele>178.9</ele>
        <time>2022-09-12T16:41:36Z</time>
      </trkpt>
      <trkpt lat="49.01032" lon="2.00404">
        <ele>178.9</ele>
        <time>2022-09-12T16:41:42Z</time>
      </trkpt>
      <trkpt lat="49.01032" lon="2.00402">
        <ele>178.9</ele>
        <time>2022-09-12T16:41:47Z</time>
      </trkpt>
      <trkpt lat="49.01032" lon="2.00401">
        <ele>178.9</ele>
        <time>2022-09-12T16:41:53Z</time>
      </trkpt>
      <trkpt lat="49.01035" lon="2.00398">
        <ele>178.9</ele>
        <time>2022-09-12T16:41:59Z</time>
      </trkpt>
      <trkpt lat="49.01039" lon="2.00391">
        <ele>179</ele>
        <time>2022-09-12T16:42:05Z</time>
      </trkpt>
      <trkpt lat="49.01039" lon="2.00388">
        <ele>179</ele>
        <time>2022-09-12T16:42:10Z</time>
      </trkpt>
      <trkpt lat="49.0104" lon="2.0038">
        <ele>178.8</ele>
        <time>2022-09-12T16:42:16Z</time>
      </trkpt>
      <trkpt lat="49.01044" lon="2.0037">
        <ele>178.7</ele>
        <time>2022-09-12T16:42:22Z</time>
      </trkpt>
      <trkpt lat="49.01048" lon="2.0036">
        <ele>178.7</ele>
        <time>2022-09-12T16:42:28Z</time>
      </trkpt>
      <trkpt lat="49.01052" lon="2.00349">
        <ele>178.9</ele>
        <time>2022-09-12T16:42:34Z</time>
      </trkpt>
      <trkpt lat="49.01057" lon="2.00337">
        <ele>179.1</ele>
        <time>2022-09-12T16:42:40Z</time>
      </trkpt>
      <trkpt lat="49.01058" lon="2.00326">
        <ele>179.1</ele>
        <time>2022-09-12T16:42:45Z</time>
      </trkpt>
      <trkpt lat="49.01061" lon="2.00317">
        <ele>179.2</ele>
        <time>2022-09-12T16:42:52Z</time>
      </trkpt>
      <trkpt lat="49.01064" lon="2.00307">
        <ele>179.3</ele>
        <time>2022-09-12T16:42:57Z</time>
      </trkpt>
      <trkpt lat="49.01067" lon="2.00293">
        <ele>179</ele>
        <time>2022-09-12T16:43:03Z</time>
      </trkpt>
      <trkpt lat="49.0107" lon="2.00284">
        <ele>178.7</ele>
        <time>2022-09-12T16:43:08Z</time>
      </trkpt>
      <trkpt lat="49.01074" lon="2.00274">
        <ele>178.7</ele>
        <time>2022-09-12T16:43:13Z</time>
      </trkpt>
      <trkpt lat="49.01078" lon="2.00261">
        <ele>178.8</ele>
        <time>2022-09-12T16:43:19Z</time>
      </trkpt>
      <trkpt lat="49.0108" lon="2.00251">
        <ele>178.9</ele>
        <time>2022-09-12T16:43:25Z</time>
      </trkpt>
      <trkpt lat="49.01082" lon="2.0024">
        <ele>178.6</ele>
        <time>2022-09-12T16:43:30Z</time>
      </trkpt>
      <trkpt lat="49.01085" lon="2.00227">
        <ele>178.2</ele>
        <time>2022-09-12T16:43:36Z</time>
      </trkpt>
      <trkpt lat="49.01088" lon="2.00214">
        <ele>178.2</ele>
        <time>2022-09-12T16:43:42Z</time>
      </trkpt>
      <trkpt lat="49.01092" lon="2.00205">
        <ele>178.3</ele>
        <time>2022-09-12T16:43:48Z</time>
      </trkpt>
      <trkpt lat="49.01097" lon="2.00195">
        <ele>178.5</ele>
        <time>2022-09-12T16:43:54Z</time>
      </trkpt>
      <trkpt lat="49.01102" lon="2.00183">
        <ele>178.4</ele>
        <time>2022-09-12T16:44:00Z</time>
      </trkpt>
      <trkpt lat="49.01104" lon="2.0017">
        <ele>178.1</ele>
        <time>2022-09-12T16:44:06Z</time>
      </trkpt>
      <trkpt lat="49.0111" lon="2.0016">
        <ele>178</ele>
        <time>2022-09-12T16:44:12Z</time>
      </trkpt>
      <trkpt lat="49.01111" lon="2.00147">
        <ele>178</ele>
        <time>2022-09-12T16:44:18Z</time>
      </trkpt>
      <trkpt lat="49.01115" lon="2.00133">
        <ele>177.8</ele>
        <time>2022-09-12T16:44:24Z</time>
      </trkpt>
      <trkpt lat="49.01117" lon="2.00126">
        <ele>177.5</ele>
        <time>2022-09-12T16:44:29Z</time>
      </trkpt>
      <trkpt lat="49.0112" lon="2.00116">
        <ele>177.2</ele>
        <time>2022-09-12T16:44:35Z</time>
      </trkpt>
      <trkpt lat="49.01122" lon="2.00107">
        <ele>176.9</ele>
        <time>2022-09-12T16:44:41Z</time>
      </trkpt>
      <trkpt lat="49.01127" lon="2.00094">
        <ele>176.7</ele>
        <time>2022-09-12T16:44:47Z</time>
      </trkpt>
      <trkpt lat="49.01129" lon="2.00089">
        <ele>176.7</ele>
        <time>2022-09-12T16:44:52Z</time>
      </trkpt>
      <trkpt lat="49.01136" lon="2.00079">
        <ele>176.7</ele>
        <time>2022-09-12T16:44:58Z</time>
      </trkpt>
      <trkpt lat="49.01142" lon="2.00067">
        <ele>176.6</ele>
        <time>2022-09-12T16:45:03Z</time>
      </trkpt>
      <trkpt lat="49.01147" lon="2.00056">
        <ele>176.6</ele>
        <time>2022-09-12T16:45:09Z</time>
      </trkpt>
      <trkpt lat="49.01147" lon="2.00048">
        <ele>176.6</ele>
        <time>2022-09-12T16:45:14Z</time>
      </trkpt>
      <trkpt lat="49.0115" lon="2.00034">
        <ele>176.8</ele>
        <time>2022-09-12T16:45:20Z</time>
      </trkpt>
      <trkpt lat="49.01155" lon="2.00024">
        <ele>177.1</ele>
        <time>2022-09-12T16:45:26Z</time>
      </trkpt>
      <trkpt lat="49.01157" lon="2.00014">
        <ele>177.3</ele>
        <time>2022-09-12T16:45:31Z</time>
      </trkpt>
      <trkpt lat="49.01158" lon="2.00002">
        <ele>177.4</ele>
        <time>2022-09-12T16:45:36Z</time>
      </trkpt>
      <trkpt lat="49.01161" lon="1.99992">
        <ele>177.6</ele>
        <time>2022-09-12T16:45:42Z</time>
      </trkpt>
      <trkpt lat="49.01164" lon="1.99983">
        <ele>177.8</ele>
        <time>2022-09-12T16:45:47Z</time>
      </trkpt>
      <trkpt lat="49.01168" lon="1.99973">
        <ele>178.1</ele>
        <time>2022-09-12T16:45:53Z</time>
      </trkpt>
      <trkpt lat="49.0117" lon="1.99963">
        <ele>178.7</ele>
        <time>2022-09-12T16:45:59Z</time>
      </trkpt>
      <trkpt lat="49.01175" lon="1.99953">
        <ele>179.4</ele>
        <time>2022-09-12T16:46:05Z</time>
      </trkpt>
      <trkpt lat="49.0118" lon="1.99943">
        <ele>180</ele>
        <time>2022-09-12T16:46:11Z</time>
      </trkpt>
      <trkpt lat="49.01183" lon="1.99932">
        <ele>180.4</ele>
        <time>2022-09-12T16:46:18Z</time>
      </trkpt>
      <trkpt lat="49.01185" lon="1.99919">
        <ele>180.6</ele>
        <time>2022-09-12T16:46:23Z</time>
      </trkpt>
      <trkpt lat="49.0119" lon="1.99907">
        <ele>180.8</ele>
        <time>2022-09-12T16:46:29Z</time>
      </trkpt>
      <trkpt lat="49.01197" lon="1.99892">
        <ele>181</ele>
        <time>2022-09-12T16:46:35Z</time>
      </trkpt>
      <trkpt lat="49.01201" lon="1.99881">
        <ele>181</ele>
        <time>2022-09-12T16:46:40Z</time>
      </trkpt>
      <trkpt lat="49.01203" lon="1.99871">
        <ele>181</ele>
        <time>2022-09-12T16:46:46Z</time>
      </trkpt>
      <trkpt lat="49.01208" lon="1.99859">
        <ele>180.9</ele>
        <time>2022-09-12T16:46:52Z</time>
      </trkpt>
      <trkpt lat="49.01214" lon="1.9985">
        <ele>180.6</ele>
        <time>2022-09-12T16:46:57Z</time>
      </trkpt>
      <trkpt lat="49.01218" lon="1.99838">
        <ele>180.2</ele>
        <time>2022-09-12T16:47:03Z</time>
      </trkpt>
      <trkpt lat="49.01222" lon="1.99829">
        <ele>180</ele>
        <time>2022-09-12T16:47:09Z</time>
      </trkpt>
      <trkpt lat="49.01225" lon="1.9982">
        <ele>180</ele>
        <time>2022-09-12T16:47:14Z</time>
      </trkpt>
      <trkpt lat="49.01229" lon="1.99809">
        <ele>180</ele>
        <time>2022-09-12T16:47:20Z</time>
      </trkpt>
      <trkpt lat="49.01233" lon="1.99799">
        <ele>179.8</ele>
        <time>2022-09-12T16:47:26Z</time>
      </trkpt>
      <trkpt lat="49.01235" lon="1.99787">
        <ele>179.6</ele>
        <time>2022-09-12T16:47:31Z</time>
      </trkpt>
      <trkpt lat="49.01238" lon="1.99775">
        <ele>179.6</ele>
        <time>2022-09-12T16:47:37Z</time>
      </trkpt>
      <trkpt lat="49.01241" lon="1.99762">
        <ele>179.7</ele>
        <time>2022-09-12T16:47:42Z</time>
      </trkpt>
      <trkpt lat="49.01244" lon="1.9975">
        <ele>179.8</ele>
        <time>2022-09-12T16:47:48Z</time>
      </trkpt>
      <trkpt lat="49.01247" lon="1.99741">
        <ele>179.6</ele>
        <time>2022-09-12T16:47:54Z</time>
      </trkpt>
      <trkpt lat="49.0125" lon="1.99731">
        <ele>179.3</ele>
        <time>2022-09-12T16:47:59Z</time>
      </trkpt>
      <trkpt lat="49.01254" lon="1.99718">
        <ele>179.2</ele>
        <time>2022-09-12T16:48:05Z</time>
      </trkpt>
      <trkpt lat="49.01259" lon="1.99706">
        <ele>179.3</ele>
        <time>2022-09-12T16:48:10Z</time>
      </trkpt>
      <trkpt lat="49.0126" lon="1.99695">
        <ele>179.4</ele>
        <time>2022-09-12T16:48:16Z</time>
      </trkpt>
      <trkpt lat="49.01261" lon="1.99682">
        <ele>178.9</ele>
        <time>2022-09-12T16:48:21Z</time>
      </trkpt>
      <trkpt lat="49.01263" lon="1.9967">
        <ele>178.6</ele>
        <time>2022-09-12T16:48:27Z</time>
      </trkpt>
      <trkpt lat="49.01263" lon="1.99659">
        <ele>178.2</ele>
        <time>2022-09-12T16:48:32Z</time>
      </trkpt>
      <trkpt lat="49.01263" lon="1.99646">
        <ele>177.7</ele>
        <time>2022-09-12T16:48:37Z</time>
      </trkpt>
      <trkpt lat="49.01266" lon="1.99629">
        <ele>177.6</ele>
        <time>2022-09-12T16:48:43Z</time>
      </trkpt>
      <trkpt lat="49.01268" lon="1.99619">
        <ele>177.7</ele>
        <time>2022-09-12T16:48:48Z</time>
      </trkpt>
      <trkpt lat="49.01269" lon="1.99606">
        <ele>177.5</ele>
        <time>2022-09-12T16:48:54Z</time>
      </trkpt>
      <trkpt lat="49.01271" lon="1.99593">
        <ele>177.1</ele>
        <time>2022-09-12T16:49:00Z</time>
      </trkpt>
      <trkpt lat="49.01274" lon="1.99584">
        <ele>176.9</ele>
        <time>2022-09-12T16:49:05Z</time>
      </trkpt>
      <trkpt lat="49.01276" lon="1.99572">
        <ele>176.9</ele>
        <time>2022-09-12T16:49:11Z</time>
      </trkpt>
      <trkpt lat="49.01278" lon="1.9956">
        <ele>177</ele>
        <time>2022-09-12T16:49:16Z</time>
      </trkpt>
      <trkpt lat="49.01278" lon="1.9955">
        <ele>176.8</ele>
        <time>2022-09-12T16:49:21Z</time>
      </trkpt>
      <trkpt lat="49.01281" lon="1.99538">
        <ele>176.4</ele>
        <time>2022-09-12T16:49:27Z</time>
      </trkpt>
      <trkpt lat="49.01286" lon="1.99526">
        <ele>176.3</ele>
        <time>2022-09-12T16:49:32Z</time>
      </trkpt>
      <trkpt lat="49.01288" lon="1.99515">
        <ele>176.4</ele>
        <time>2022-09-12T16:49:38Z</time>
      </trkpt>
      <trkpt lat="49.0129" lon="1.99505">
        <ele>176.5</ele>
        <time>2022-09-12T16:49:44Z</time>
      </trkpt>
      <trkpt lat="49.01296" lon="1.99493">
        <ele>176.5</ele>
        <time>2022-09-12T16:49:49Z</time>
      </trkpt>
      <trkpt lat="49.01298" lon="1.99484">
        <ele>176.3</ele>
        <time>2022-09-12T16:49:55Z</time>
      </trkpt>
      <trkpt lat="49.01301" lon="1.99471">
        <ele>176</ele>
        <time>2022-09-12T16:50:01Z</time>
      </trkpt>
      <trkpt lat="49.01305" lon="1.9946">
        <ele>176</ele>
        <time>2022-09-12T16:50:07Z</time>
      </trkpt>
      <trkpt lat="49.01309" lon="1.99451">
        <ele>176.1</ele>
        <time>2022-09-12T16:50:12Z</time>
      </trkpt>
      <trkpt lat="49.01311" lon="1.99439">
        <ele>176.2</ele>
        <time>2022-09-12T16:50:18Z</time>
      </trkpt>
      <trkpt lat="49.01313" lon="1.99429">
        <ele>176.3</ele>
        <time>2022-09-12T16:50:23Z</time>
      </trkpt>
      <trkpt lat="49.01319" lon="1.99416">
        <ele>176.5</ele>
        <time>2022-09-12T16:50:29Z</time>
      </trkpt>
      <trkpt lat="49.01325" lon="1.99404">
        <ele>176.4</ele>
        <time>2022-09-12T16:50:35Z</time>
      </trkpt>
      <trkpt lat="49.01327" lon="1.99395">
        <ele>176.2</ele>
        <time>2022-09-12T16:50:41Z</time>
      </trkpt>
      <trkpt lat="49.0133" lon="1.99384">
        <ele>176</ele>
        <time>2022-09-12T16:50:47Z</time>
      </trkpt>
      <trkpt lat="49.01334" lon="1.99374">
        <ele>176</ele>
        <time>2022-09-12T16:50:53Z</time>
      </trkpt>
      <trkpt lat="49.01341" lon="1.9936">
        <ele>176.3</ele>
        <time>2022-09-12T16:50:59Z</time>
      </trkpt>
      <trkpt lat="49.01344" lon="1.99349">
        <ele>176.4</ele>
        <time>2022-09-12T16:51:04Z</time>
      </trkpt>
      <trkpt lat="49.01346" lon="1.99338">
        <ele>176.4</ele>
        <time>2022-09-12T16:51:10Z</time>
      </trkpt>
      <trkpt lat="49.0135" lon="1.9933">
        <ele>176.5</ele>
        <time>2022-09-12T16:51:15Z</time>
      </trkpt>
      <trkpt lat="49.01356" lon="1.9932">
        <ele>176.4</ele>
        <time>2022-09-12T16:51:21Z</time>
      </trkpt>
      <trkpt lat="49.0136" lon="1.99313">
        <ele>176.3</ele>
        <time>2022-09-12T16:51:26Z</time>
      </trkpt>
      <trkpt lat="49.01367" lon="1.99303">
        <ele>176.2</ele>
        <time>2022-09-12T16:51:32Z</time>
      </trkpt>
      <trkpt lat="49.0137" lon="1.99295">
        <ele>176.3</ele>
        <time>2022-09-12T16:51:37Z</time>
      </trkpt>
      <trkpt lat="49.01374" lon="1.99284">
        <ele>176.5</ele>
        <time>2022-09-12T16:51:43Z</time>
      </trkpt>
      <trkpt lat="49.01377" lon="1.99275">
        <ele>176.6</ele>
        <time>2022-09-12T16:51:48Z</time>
      </trkpt>
      <trkpt lat="49.01381" lon="1.99267">
        <ele>176.7</ele>
        <time>2022-09-12T16:51:53Z</time>
      </trkpt>
      <trkpt lat="49.01384" lon="1.99255">
        <ele>176.8</ele>
        <time>2022-09-12T16:51:59Z</time>
      </trkpt>
      <trkpt lat="49.01391" lon="1.99242">
        <ele>176.7</ele>
        <time>2022-09-12T16:52:04Z</time>
      </trkpt>
      <trkpt lat="49.01396" lon="1.99234">
        <ele>176.6</ele>
        <time>2022-09-12T16:52:10Z</time>
      </trkpt>
      <trkpt lat="49.014" lon="1.99228">
        <ele>176.5</ele>
        <time>2022-09-12T16:52:15Z</time>
      </trkpt>
      <trkpt lat="49.01403" lon="1.99218">
        <ele>176.5</ele>
        <time>2022-09-12T16:52:21Z</time>
      </trkpt>
      <trkpt lat="49.01408" lon="1.99205">
        <ele>176.7</ele>
        <time>2022-09-12T16:52:26Z</time>
      </trkpt>
      <trkpt lat="49.01414" lon="1.99193">
        <ele>176.9</ele>
        <time>2022-09-12T16:52:32Z</time>
      </trkpt>
      <trkpt lat="49.01418" lon="1.99184">
        <ele>177</ele>
        <time>2022-09-12T16:52:38Z</time>
      </trkpt>
      <trkpt lat="49.01423" lon="1.99175">
        <ele>177.1</ele>
        <time>2022-09-12T16:52:43Z</time>
      </trkpt>
      <trkpt lat="49.01429" lon="1.99159">
        <ele>177</ele>
        <time>2022-09-12T16:52:49Z</time>
      </trkpt>
      <trkpt lat="49.01436" lon="1.99152">
        <ele>177</ele>
        <time>2022-09-12T16:52:55Z</time>
      </trkpt>
      <trkpt lat="49.01442" lon="1.99146">
        <ele>177</ele>
        <time>2022-09-12T16:53:01Z</time>
      </trkpt>
      <trkpt lat="49.01447" lon="1.99139">
        <ele>177.1</ele>
        <time>2022-09-12T16:53:06Z</time>
      </trkpt>
      <trkpt lat="49.01454" lon="1.99128">
        <ele>177.3</ele>
        <time>2022-09-12T16:53:12Z</time>
      </trkpt>
      <trkpt lat="49.01462" lon="1.99117">
        <ele>177.6</ele>
        <time>2022-09-12T16:53:18Z</time>
      </trkpt>
      <trkpt lat="49.01469" lon="1.99106">
        <ele>177.7</ele>
        <time>2022-09-12T16:53:24Z</time>
      </trkpt>
      <trkpt lat="49.01472" lon="1.99096">
        <ele>177.5</ele>
        <time>2022-09-12T16:53:30Z</time>
      </trkpt>
      <trkpt lat="49.01475" lon="1.9909">
        <ele>177.3</ele>
        <time>2022-09-12T16:53:35Z</time>
      </trkpt>
      <trkpt lat="49.01481" lon="1.9908">
        <ele>177.3</ele>
        <time>2022-09-12T16:53:41Z</time>
      </trkpt>
      <trkpt lat="49.01485" lon="1.99069">
        <ele>177.5</ele>
        <time>2022-09-12T16:53:47Z</time>
      </trkpt>
      <trkpt lat="49.01491" lon="1.99056">
        <ele>177.7</ele>
        <time>2022-09-12T16:53:53Z</time>
      </trkpt>
      <trkpt lat="49.01497" lon="1.99042">
        <ele>177.9</ele>
        <time>2022-09-12T16:53:59Z</time>
      </trkpt>
      <trkpt lat="49.01503" lon="1.99029">
        <ele>178</ele>
        <time>2022-09-12T16:54:05Z</time>
      </trkpt>
      <trkpt lat="49.01508" lon="1.99019">
        <ele>177.8</ele>
        <time>2022-09-12T16:54:10Z</time>
      </trkpt>
      <trkpt lat="49.01512" lon="1.99007">
        <ele>177.6</ele>
        <time>2022-09-12T16:54:16Z</time>
      </trkpt>
      <trkpt lat="49.01516" lon="1.98993">
        <ele>177.4</ele>
        <time>2022-09-12T16:54:22Z</time>
      </trkpt>
      <trkpt lat="49.01521" lon="1.98984">
        <ele>177.3</ele>
        <time>2022-09-12T16:54:28Z</time>
      </trkpt>
      <trkpt lat="49.01526" lon="1.98975">
        <ele>177.1</ele>
        <time>2022-09-12T16:54:33Z</time>
      </trkpt>
      <trkpt lat="49.0153" lon="1.98965">
        <ele>177.1</ele>
        <time>2022-09-12T16:54:39Z</time>
      </trkpt>
      <trkpt lat="49.01535" lon="1.98957">
        <ele>177.1</ele>
        <time>2022-09-12T16:54:45Z</time>
      </trkpt>
      <trkpt lat="49.01538" lon="1.98944">
        <ele>177</ele>
        <time>2022-09-12T16:54:51Z</time>
      </trkpt>
      <trkpt lat="49.01542" lon="1.98934">
        <ele>176.8</ele>
        <time>2022-09-12T16:54:56Z</time>
      </trkpt>
      <trkpt lat="49.01547" lon="1.98924">
        <ele>176.8</ele>
        <time>2022-09-12T16:55:02Z</time>
      </trkpt>
      <trkpt lat="49.01552" lon="1.98915">
        <ele>176.9</ele>
        <time>2022-09-12T16:55:08Z</time>
      </trkpt>
      <trkpt lat="49.01555" lon="1.98907">
        <ele>177</ele>
        <time>2022-09-12T16:55:13Z</time>
      </trkpt>
      <trkpt lat="49.01559" lon="1.98897">
        <ele>177</ele>
        <time>2022-09-12T16:55:19Z</time>
      </trkpt>
      <trkpt lat="49.01561" lon="1.98886">
        <ele>176.9</ele>
        <time>2022-09-12T16:55:24Z</time>
      </trkpt>
      <trkpt lat="49.01565" lon="1.98874">
        <ele>176.6</ele>
        <time>2022-09-12T16:55:30Z</time>
      </trkpt>
      <trkpt lat="49.01568" lon="1.98865">
        <ele>176.5</ele>
        <time>2022-09-12T16:55:35Z</time>
      </trkpt>
      <trkpt lat="49.01572" lon="1.98854">
        <ele>176.6</ele>
        <time>2022-09-12T16:55:41Z</time>
      </trkpt>
      <trkpt lat="49.01575" lon="1.98846">
        <ele>176.7</ele>
        <time>2022-09-12T16:55:46Z</time>
      </trkpt>
      <trkpt lat="49.01578" lon="1.98839">
        <ele>176.8</ele>
        <time>2022-09-12T16:55:51Z</time>
      </trkpt>
      <trkpt lat="49.01582" lon="1.98829">
        <ele>176.8</ele>
        <time>2022-09-12T16:55:57Z</time>
      </trkpt>
      <trkpt lat="49.01585" lon="1.98819">
        <ele>176.5</ele>
        <time>2022-09-12T16:56:02Z</time>
      </trkpt>
      <trkpt lat="49.01588" lon="1.98804">
        <ele>176.2</ele>
        <time>2022-09-12T16:56:08Z</time>
      </trkpt>
      <trkpt lat="49.01591" lon="1.98793">
        <ele>176.2</ele>
        <time>2022-09-12T16:56:14Z</time>
      </trkpt>
      <trkpt lat="49.01596" lon="1.98781">
        <ele>176.1</ele>
        <time>2022-09-12T16:56:19Z</time>
      </trkpt>
      <trkpt lat="49.01599" lon="1.98768">
        <ele>175.8</ele>
        <time>2022-09-12T16:56:24Z</time>
      </trkpt>
      <trkpt lat="49.01601" lon="1.98757">
        <ele>175.7</ele>
        <time>2022-09-12T16:56:29Z</time>
      </trkpt>
      <trkpt lat="49.01603" lon="1.98747">
        <ele>175.6</ele>
        <time>2022-09-12T16:56:35Z</time>
      </trkpt>
      <trkpt lat="49.01607" lon="1.98737">
        <ele>175.5</ele>
        <time>2022-09-12T16:56:40Z</time>
      </trkpt>
      <trkpt lat="49.01612" lon="1.98728">
        <ele>175.2</ele>
        <time>2022-09-12T16:56:46Z</time>
      </trkpt>
      <trkpt lat="49.01619" lon="1.9872">
        <ele>175.3</ele>
        <time>2022-09-12T16:56:52Z</time>
      </trkpt>
      <trkpt lat="49.01623" lon="1.98712">
        <ele>175.4</ele>
        <time>2022-09-12T16:56:57Z</time>
      </trkpt>
      <trkpt lat="49.01627" lon="1.98705">
        <ele>175.6</ele>
        <time>2022-09-12T16:57:02Z</time>
      </trkpt>
      <trkpt lat="49.01631" lon="1.98695">
        <ele>175.7</ele>
        <time>2022-09-12T16:57:08Z</time>
      </trkpt>
      <trkpt lat="49.01634" lon="1.98686">
        <ele>175.5</ele>
        <time>2022-09-12T16:57:14Z</time>
      </trkpt>
      <trkpt lat="49.01638" lon="1.98677">
        <ele>175.3</ele>
        <time>2022-09-12T16:57:19Z</time>
      </trkpt>
      <trkpt lat="49.01641" lon="1.98672">
        <ele>175.2</ele>
        <time>2022-09-12T16:57:24Z</time>
      </trkpt>
      <trkpt lat="49.01645" lon="1.98663">
        <ele>175.2</ele>
        <time>2022-09-12T16:57:30Z</time>
      </trkpt>
      <trkpt lat="49.0165" lon="1.98652">
        <ele>175.4</ele>
        <time>2022-09-12T16:57:35Z</time>
      </trkpt>
      <trkpt lat="49.01654" lon="1.98638">
        <ele>175.5</ele>
        <time>2022-09-12T16:57:41Z</time>
      </trkpt>
      <trkpt lat="49.01657" lon="1.98623">
        <ele>175.1</ele>
        <time>2022-09-12T16:57:47Z</time>
      </trkpt>
      <trkpt lat="49.01663" lon="1.98612">
        <ele>174.9</ele>
        <time>2022-09-12T16:57:53Z</time>
      </trkpt>
      <trkpt lat="49.01666" lon="1.98601">
        <ele>175</ele>
        <time>2022-09-12T16:57:58Z</time>
      </trkpt>
      <trkpt lat="49.0167" lon="1.98588">
        <ele>175.1</ele>
        <time>2022-09-12T16:58:04Z</time>
      </trkpt>
      <trkpt lat="49.01674" lon="1.98577">
        <ele>175.2</ele>
        <time>2022-09-12T16:58:10Z</time>
      </trkpt>
      <trkpt lat="49.01676" lon="1.98566">
        <ele>175.1</ele>
        <time>2022-09-12T16:58:16Z</time>
      </trkpt>
      <trkpt lat="49.01678" lon="1.98556">
        <ele>175</ele>
        <time>2022-09-12T16:58:21Z</time>
      </trkpt>
      <trkpt lat="49.01683" lon="1.98541">
        <ele>174.8</ele>
        <time>2022-09-12T16:58:27Z</time>
      </trkpt>
      <trkpt lat="49.01685" lon="1.98532">
        <ele>174.7</ele>
        <time>2022-09-12T16:58:32Z</time>
      </trkpt>
      <trkpt lat="49.01687" lon="1.98523">
        <ele>174.6</ele>
        <time>2022-09-12T16:58:37Z</time>
      </trkpt>
      <trkpt lat="49.01688" lon="1.98514">
        <ele>174.4</ele>
        <time>2022-09-12T16:58:43Z</time>
      </trkpt>
      <trkpt lat="49.01691" lon="1.98504">
        <ele>174.1</ele>
        <time>2022-09-12T16:58:49Z</time>
      </trkpt>
      <trkpt lat="49.01696" lon="1.98492">
        <ele>174.1</ele>
        <time>2022-09-12T16:58:55Z</time>
      </trkpt>
      <trkpt lat="49.01701" lon="1.98482">
        <ele>174.2</ele>
        <time>2022-09-12T16:59:01Z</time>
      </trkpt>
      <trkpt lat="49.01704" lon="1.98471">
        <ele>174.3</ele>
        <time>2022-09-12T16:59:07Z</time>
      </trkpt>
      <trkpt lat="49.01707" lon="1.98462">
        <ele>174.3</ele>
        <time>2022-09-12T16:59:12Z</time>
      </trkpt>
      <trkpt lat="49.01711" lon="1.98449">
        <ele>174.1</ele>
        <time>2022-09-12T16:59:18Z</time>
      </trkpt>
      <trkpt lat="49.01711" lon="1.98443">
        <ele>174</ele>
        <time>2022-09-12T16:59:24Z</time>
      </trkpt>
      <trkpt lat="49.0171" lon="1.98443">
        <ele>174</ele>
        <time>2022-09-12T16:59:30Z</time>
      </trkpt>
      <trkpt lat="49.01708" lon="1.98441">
        <ele>173.9</ele>
        <time>2022-09-12T16:59:36Z</time>
      </trkpt>
      <trkpt lat="49.01707" lon="1.9844">
        <ele>173.9</ele>
        <time>2022-09-12T16:59:41Z</time>
      </trkpt>
      <trkpt lat="49.01706" lon="1.9844">
        <ele>173.9</ele>
        <time>2022-09-12T16:59:46Z</time>
      </trkpt>
      <trkpt lat="49.01707" lon="1.9844">
        <ele>173.9</ele>
        <time>2022-09-12T16:59:52Z</time>
      </trkpt>
      <trkpt lat="49.01709" lon="1.9844">
        <ele>173.9</ele>
        <time>2022-09-12T16:59:58Z</time>
      </trkpt>
      <trkpt lat="49.0171" lon="1.98439">
        <ele>173.9</ele>
        <time>2022-09-12T17:00:04Z</time>
      </trkpt>
      <trkpt lat="49.017" lon="1.98441">
        <ele>173.9</ele>
        <time>2022-09-12T17:00:10Z</time>
      </trkpt>
      <trkpt lat="49.01691" lon="1.98443">
        <ele>173.8</ele>
        <time>2022-09-12T17:00:16Z</time>
      </trkpt>
      <trkpt lat="49.01683" lon="1.98445">
        <ele>173.6</ele>
        <time>2022-09-12T17:00:21Z</time>
      </trkpt>
      <trkpt lat="49.01672" lon="1.98447">
        <ele>173.3</ele>
        <time>2022-09-12T17:00:27Z</time>
      </trkpt>
      <trkpt lat="49.01667" lon="1.98448">
        <ele>173.1</ele>
        <time>2022-09-12T17:00:32Z</time>
      </trkpt>
      <trkpt lat="49.01661" lon="1.98449">
        <ele>172.9</ele>
        <time>2022-09-12T17:00:38Z</time>
      </trkpt>
      <trkpt lat="49.01651" lon="1.98448">
        <ele>172.6</ele>
        <time>2022-09-12T17:00:44Z</time>
      </trkpt>
      <trkpt lat="49.01644" lon="1.98448">
        <ele>172.3</ele>
        <time>2022-09-12T17:00:49Z</time>
      </trkpt>
      <trkpt lat="49.01638" lon="1.98448">
        <ele>172.1</ele>
        <time>2022-09-12T17:00:54Z</time>
      </trkpt>
      <trkpt lat="49.0163" lon="1.98449">
        <ele>171.8</ele>
        <time>2022-09-12T17:01:00Z</time>
      </trkpt>
      <trkpt lat="49.01621" lon="1.98447">
        <ele>171.5</ele>
        <time>2022-09-12T17:01:06Z</time>
      </trkpt>
      <trkpt lat="49.01613" lon="1.98447">
        <ele>171.1</ele>
        <time>2022-09-12T17:01:12Z</time>
      </trkpt>
      <trkpt lat="49.01608" lon="1.98448">
        <ele>171</ele>
        <time>2022-09-12T17:01:17Z</time>
      </trkpt>
      <trkpt lat="49.0161" lon="1.9845">
        <ele>171.2</ele>
        <time>2022-09-12T17:01:23Z</time>
      </trkpt>
      <trkpt lat="49.01612" lon="1.98448">
        <ele>171.1</ele>
        <time>2022-09-12T17:01:29Z</time>
      </trkpt>
      <trkpt lat="49.0161" lon="1.98443">
        <ele>170.8</ele>
        <time>2022-09-12T17:01:34Z</time>
      </trkpt>
      <trkpt lat="49.01608" lon="1.98437">
        <ele>170.1</ele>
        <time>2022-09-12T17:01:40Z</time>
      </trkpt>
      <trkpt lat="49.016" lon="1.98429">
        <ele>169.2</ele>
        <time>2022-09-12T17:01:46Z</time>
      </trkpt>
      <trkpt lat="49.01593" lon="1.98424">
        <ele>168.7</ele>
        <time>2022-09-12T17:01:52Z</time>
      </trkpt>
      <trkpt lat="49.01588" lon="1.98422">
        <ele>168.4</ele>
        <time>2022-09-12T17:01:58Z</time>
      </trkpt>
      <trkpt lat="49.01582" lon="1.98419">
        <ele>168.2</ele>
        <time>2022-09-12T17:02:03Z</time>
      </trkpt>
      <trkpt lat="49.01577" lon="1.98413">
        <ele>167.9</ele>
        <time>2022-09-12T17:02:08Z</time>
      </trkpt>
      <trkpt lat="49.01573" lon="1.98403">
        <ele>167.5</ele>
        <time>2022-09-12T17:02:14Z</time>
      </trkpt>
      <trkpt lat="49.01568" lon="1.98391">
        <ele>167.3</ele>
        <time>2022-09-12T17:02:20Z</time>
      </trkpt>
      <trkpt lat="49.01565" lon="1.98384">
        <ele>167.4</ele>
        <time>2022-09-12T17:02:25Z</time>
      </trkpt>
      <trkpt lat="49.01565" lon="1.98378">
        <ele>167.1</ele>
        <time>2022-09-12T17:02:30Z</time>
      </trkpt>
      <trkpt lat="49.01568" lon="1.98373">
        <ele>166.4</ele>
        <time>2022-09-12T17:02:36Z</time>
      </trkpt>
      <trkpt lat="49.01569" lon="1.98366">
        <ele>165.8</ele>
        <time>2022-09-12T17:02:42Z</time>
      </trkpt>
      <trkpt lat="49.01569" lon="1.98358">
        <ele>165.6</ele>
        <time>2022-09-12T17:02:47Z</time>
      </trkpt>
      <trkpt lat="49.01568" lon="1.98349">
        <ele>165.4</ele>
        <time>2022-09-12T17:02:52Z</time>
      </trkpt>
      <trkpt lat="49.01566" lon="1.98336">
        <ele>165.1</ele>
        <time>2022-09-12T17:02:58Z</time>
      </trkpt>
      <trkpt lat="49.01568" lon="1.98324">
        <ele>164.3</ele>
        <time>2022-09-12T17:03:03Z</time>
      </trkpt>
      <trkpt lat="49.01567" lon="1.98312">
        <ele>163.9</ele>
        <time>2022-09-12T17:03:09Z</time>
      </trkpt>
      <trkpt lat="49.01564" lon="1.98298">
        <ele>163.4</ele>
        <time>2022-09-12T17:03:15Z</time>
      </trkpt>
      <trkpt lat="49.01564" lon="1.98288">
        <ele>162.7</ele>
        <time>2022-09-12T17:03:20Z</time>
      </trkpt>
      <trkpt lat="49.01561" lon="1.98275">
        <ele>162.4</ele>
        <time>2022-09-12T17:03:26Z</time>
      </trkpt>
      <trkpt lat="49.01558" lon="1.98265">
        <ele>162</ele>
        <time>2022-09-12T17:03:31Z</time>
      </trkpt>
      <trkpt lat="49.01552" lon="1.98259">
        <ele>162.3</ele>
        <time>2022-09-12T17:03:36Z</time>
      </trkpt>
      <trkpt lat="49.01543" lon="1.98259">
        <ele>163.2</ele>
        <time>2022-09-12T17:03:42Z</time>
      </trkpt>
      <trkpt lat="49.01534" lon="1.98263">
        <ele>164.3</ele>
        <time>2022-09-12T17:03:48Z</time>
      </trkpt>
      <trkpt lat="49.01529" lon="1.98267">
        <ele>165.1</ele>
        <time>2022-09-12T17:03:53Z</time>
      </trkpt>
      <trkpt lat="49.01523" lon="1.98274">
        <ele>165.7</ele>
        <time>2022-09-12T17:03:58Z</time>
      </trkpt>
      <trkpt lat="49.01517" lon="1.98277">
        <ele>166</ele>
        <time>2022-09-12T17:04:04Z</time>
      </trkpt>
      <trkpt lat="49.01513" lon="1.98278">
        <ele>166</ele>
        <time>2022-09-12T17:04:09Z</time>
      </trkpt>
      <trkpt lat="49.01508" lon="1.9828">
        <ele>166.1</ele>
        <time>2022-09-12T17:04:15Z</time>
      </trkpt>
      <trkpt lat="49.015" lon="1.98283">
        <ele>166.2</ele>
        <time>2022-09-12T17:04:21Z</time>
      </trkpt>
      <trkpt lat="49.01493" lon="1.98286">
        <ele>165.9</ele>
        <time>2022-09-12T17:04:26Z</time>
      </trkpt>
      <trkpt lat="49.01485" lon="1.98292">
        <ele>165.7</ele>
        <time>2022-09-12T17:04:32Z</time>
      </trkpt>
      <trkpt lat="49.01477" lon="1.983">
        <ele>165.8</ele>
        <time>2022-09-12T17:04:38Z</time>
      </trkpt>
      <trkpt lat="49.01471" lon="1.98304">
        <ele>165.8</ele>
        <time>2022-09-12T17:04:43Z</time>
      </trkpt>
      <trkpt lat="49.01466" lon="1.98307">
        <ele>165.7</ele>
        <time>2022-09-12T17:04:49Z</time>
      </trkpt>
      <trkpt lat="49.0146" lon="1.98311">
        <ele>165.5</ele>
        <time>2022-09-12T17:04:54Z</time>
      </trkpt>
      <trkpt lat="49.01453" lon="1.98315">
        <ele>165.3</ele>
        <time>2022-09-12T17:04:59Z</time>
      </trkpt>
      <trkpt lat="49.01445" lon="1.98321">
        <ele>165.2</ele>
        <time>2022-09-12T17:05:05Z</time>
      </trkpt>
      <trkpt lat="49.01438" lon="1.98327">
        <ele>165</ele>
        <time>2022-09-12T17:05:11Z</time>
      </trkpt>
      <trkpt lat="49.01432" lon="1.98331">
        <ele>164.8</ele>
        <time>2022-09-12T17:05:16Z</time>
      </trkpt>
      <trkpt lat="49.01425" lon="1.98333">
        <ele>164.6</ele>
        <time>2022-09-12T17:05:22Z</time>
      </trkpt>
      <trkpt lat="49.0142" lon="1.98338">
        <ele>164.7</ele>
        <time>2022-09-12T17:05:27Z</time>
      </trkpt>
      <trkpt lat="49.01412" lon="1.98345">
        <ele>164.6</ele>
        <time>2022-09-12T17:05:33Z</time>
      </trkpt>
      <trkpt lat="49.01406" lon="1.98351">
        <ele>164.6</ele>
        <time>2022-09-12T17:05:39Z</time>
      </trkpt>
      <trkpt lat="49.01403" lon="1.98354">
        <ele>164.7</ele>
        <time>2022-09-12T17:05:44Z</time>
      </trkpt>
      <trkpt lat="49.01396" lon="1.98363">
        <ele>165</ele>
        <time>2022-09-12T17:05:50Z</time>
      </trkpt>
      <trkpt lat="49.01391" lon="1.98371">
        <ele>165.7</ele>
        <time>2022-09-12T17:05:56Z</time>
      </trkpt>
      <trkpt lat="49.01384" lon="1.98381">
        <ele>166.5</ele>
        <time>2022-09-12T17:06:02Z</time>
      </trkpt>
      <trkpt lat="49.01378" lon="1.98388">
        <ele>167.1</ele>
        <time>2022-09-12T17:06:08Z</time>
      </trkpt>
      <trkpt lat="49.01372" lon="1.98392">
        <ele>167.1</ele>
        <time>2022-09-12T17:06:14Z</time>
      </trkpt>
      <trkpt lat="49.01367" lon="1.98399">
        <ele>167.3</ele>
        <time>2022-09-12T17:06:19Z</time>
      </trkpt>
      <trkpt lat="49.01359" lon="1.98405">
        <ele>167.6</ele>
        <time>2022-09-12T17:06:25Z</time>
      </trkpt>
      <trkpt lat="49.01355" lon="1.98409">
        <ele>167.9</ele>
        <time>2022-09-12T17:06:30Z</time>
      </trkpt>
      <trkpt lat="49.0135" lon="1.98414">
        <ele>168.2</ele>
        <time>2022-09-12T17:06:36Z</time>
      </trkpt>
      <trkpt lat="49.01345" lon="1.98418">
        <ele>168.5</ele>
        <time>2022-09-12T17:06:42Z</time>
      </trkpt>
      <trkpt lat="49.0134" lon="1.98423">
        <ele>168.9</ele>
        <time>2022-09-12T17:06:47Z</time>
      </trkpt>
      <trkpt lat="49.01336" lon="1.98427">
        <ele>169.2</ele>
        <time>2022-09-12T17:06:52Z</time>
      </trkpt>
      <trkpt lat="49.0133" lon="1.98431">
        <ele>169.4</ele>
        <time>2022-09-12T17:06:58Z</time>
      </trkpt>
      <trkpt lat="49.01324" lon="1.98435">
        <ele>169.4</ele>
        <time>2022-09-12T17:07:04Z</time>
      </trkpt>
      <trkpt lat="49.01317" lon="1.98441">
        <ele>169.9</ele>
        <time>2022-09-12T17:07:09Z</time>
      </trkpt>
      <trkpt lat="49.01311" lon="1.98448">
        <ele>170.4</ele>
        <time>2022-09-12T17:07:14Z</time>
      </trkpt>
      <trkpt lat="49.01304" lon="1.98451">
        <ele>170.4</ele>
        <time>2022-09-12T17:07:20Z</time>
      </trkpt>
      <trkpt lat="49.01297" lon="1.9845">
        <ele>169.8</ele>
        <time>2022-09-12T17:07:25Z</time>
      </trkpt>
      <trkpt lat="49.01288" lon="1.9845">
        <ele>169.3</ele>
        <time>2022-09-12T17:07:30Z</time>
      </trkpt>
      <trkpt lat="49.0128" lon="1.98455">
        <ele>169.3</ele>
        <time>2022-09-12T17:07:36Z</time>
      </trkpt>
      <trkpt lat="49.01273" lon="1.9846">
        <ele>169.2</ele>
        <time>2022-09-12T17:07:42Z</time>
      </trkpt>
      <trkpt lat="49.01266" lon="1.98465">
        <ele>169.2</ele>
        <time>2022-09-12T17:07:48Z</time>
      </trkpt>
      <trkpt lat="49.0126" lon="1.98471">
        <ele>169.6</ele>
        <time>2022-09-12T17:07:54Z</time>
      </trkpt>
      <trkpt lat="49.01256" lon="1.98471">
        <ele>169.2</ele>
        <time>2022-09-12T17:07:59Z</time>
      </trkpt>
      <trkpt lat="49.0125" lon="1.9847">
        <ele>168.7</ele>
        <time>2022-09-12T17:08:04Z</time>
      </trkpt>
      <trkpt lat="49.01243" lon="1.98472">
        <ele>168.5</ele>
        <time>2022-09-12T17:08:09Z</time>
      </trkpt>
      <trkpt lat="49.01236" lon="1.98474">
        <ele>168.2</ele>
        <time>2022-09-12T17:08:15Z</time>
      </trkpt>
      <trkpt lat="49.01233" lon="1.98476">
        <ele>168.2</ele>
        <time>2022-09-12T17:08:20Z</time>
      </trkpt>
      <trkpt lat="49.01229" lon="1.9848">
        <ele>168.3</ele>
        <time>2022-09-12T17:08:25Z</time>
      </trkpt>
      <trkpt lat="49.01223" lon="1.98484">
        <ele>168.4</ele>
        <time>2022-09-12T17:08:31Z</time>
      </trkpt>
      <trkpt lat="49.0122" lon="1.98488">
        <ele>168.6</ele>
        <time>2022-09-12T17:08:36Z</time>
      </trkpt>
      <trkpt lat="49.01215" lon="1.98493">
        <ele>169</ele>
        <time>2022-09-12T17:08:42Z</time>
      </trkpt>
      <trkpt lat="49.01209" lon="1.98493">
        <ele>168.9</ele>
        <time>2022-09-12T17:08:47Z</time>
      </trkpt>
      <trkpt lat="49.01201" lon="1.98491">
        <ele>168.4</ele>
        <time>2022-09-12T17:08:53Z</time>
      </trkpt>
      <trkpt lat="49.01193" lon="1.98491">
        <ele>168</ele>
        <time>2022-09-12T17:08:58Z</time>
      </trkpt>
      <trkpt lat="49.01185" lon="1.98492">
        <ele>167.6</ele>
        <time>2022-09-12T17:09:04Z</time>
      </trkpt>
      <trkpt lat="49.01176" lon="1.98495">
        <ele>167.8</ele>
        <time>2022-09-12T17:09:10Z</time>
      </trkpt>
      <trkpt lat="49.01168" lon="1.985">
        <ele>168.1</ele>
        <time>2022-09-12T17:09:15Z</time>
      </trkpt>
      <trkpt lat="49.01161" lon="1.98503">
        <ele>167.9</ele>
        <time>2022-09-12T17:09:20Z</time>
      </trkpt>
      <trkpt lat="49.0116" lon="1.98502">
        <ele>167.8</ele>
        <time>2022-09-12T17:09:26Z</time>
      </trkpt>
      <trkpt lat="49.01157" lon="1.98498">
        <ele>167</ele>
        <time>2022-09-12T17:09:31Z</time>
      </trkpt>
      <trkpt lat="49.01152" lon="1.98497">
        <ele>166.4</ele>
        <time>2022-09-12T17:09:36Z</time>
      </trkpt>
      <trkpt lat="49.01146" lon="1.98499">
        <ele>166.3</ele>
        <time>2022-09-12T17:09:41Z</time>
      </trkpt>
      <trkpt lat="49.01139" lon="1.98504">
        <ele>166.5</ele>
        <time>2022-09-12T17:09:46Z</time>
      </trkpt>
      <trkpt lat="49.01135" lon="1.98513">
        <ele>166.9</ele>
        <time>2022-09-12T17:09:52Z</time>
      </trkpt>
      <trkpt lat="49.01131" lon="1.9852">
        <ele>167.1</ele>
        <time>2022-09-12T17:09:57Z</time>
      </trkpt>
      <trkpt lat="49.01124" lon="1.98525">
        <ele>166.6</ele>
        <time>2022-09-12T17:10:03Z</time>
      </trkpt>
      <trkpt lat="49.01122" lon="1.98535">
        <ele>167.2</ele>
        <time>2022-09-12T17:10:08Z</time>
      </trkpt>
      <trkpt lat="49.01118" lon="1.98548">
        <ele>168</ele>
        <time>2022-09-12T17:10:14Z</time>
      </trkpt>
      <trkpt lat="49.01116" lon="1.98556">
        <ele>168.5</ele>
        <time>2022-09-12T17:10:19Z</time>
      </trkpt>
      <trkpt lat="49.01114" lon="1.98562">
        <ele>168.5</ele>
        <time>2022-09-12T17:10:24Z</time>
      </trkpt>
      <trkpt lat="49.01112" lon="1.98573">
        <ele>168.7</ele>
        <time>2022-09-12T17:10:29Z</time>
      </trkpt>
      <trkpt lat="49.0111" lon="1.98582">
        <ele>168.7</ele>
        <time>2022-09-12T17:10:34Z</time>
      </trkpt>
      <trkpt lat="49.01107" lon="1.98592">
        <ele>168.4</ele>
        <time>2022-09-12T17:10:40Z</time>
      </trkpt>
      <trkpt lat="49.01106" lon="1.98602">
        <ele>168.5</ele>
        <time>2022-09-12T17:10:46Z</time>
      </trkpt>
      <trkpt lat="49.01108" lon="1.98615">
        <ele>169.3</ele>
        <time>2022-09-12T17:10:52Z</time>
      </trkpt>
      <trkpt lat="49.01111" lon="1.98626">
        <ele>169.4</ele>
        <time>2022-09-12T17:10:58Z</time>
      </trkpt>
      <trkpt lat="49.01111" lon="1.98635">
        <ele>169.1</ele>
        <time>2022-09-12T17:11:04Z</time>
      </trkpt>
      <trkpt lat="49.01109" lon="1.98644">
        <ele>168.9</ele>
        <time>2022-09-12T17:11:10Z</time>
      </trkpt>
      <trkpt lat="49.01112" lon="1.98652">
        <ele>169.5</ele>
        <time>2022-09-12T17:11:15Z</time>
      </trkpt>
      <trkpt lat="49.01113" lon="1.98663">
        <ele>169.9</ele>
        <time>2022-09-12T17:11:21Z</time>
      </trkpt>
      <trkpt lat="49.01112" lon="1.98674">
        <ele>170</ele>
        <time>2022-09-12T17:11:27Z</time>
      </trkpt>
      <trkpt lat="49.01112" lon="1.98683">
        <ele>170</ele>
        <time>2022-09-12T17:11:32Z</time>
      </trkpt>
      <trkpt lat="49.01109" lon="1.98699">
        <ele>169.6</ele>
        <time>2022-09-12T17:11:38Z</time>
      </trkpt>
      <trkpt lat="49.01107" lon="1.98711">
        <ele>169.1</ele>
        <time>2022-09-12T17:11:43Z</time>
      </trkpt>
      <trkpt lat="49.01108" lon="1.98724">
        <ele>169.3</ele>
        <time>2022-09-12T17:11:49Z</time>
      </trkpt>
      <trkpt lat="49.01112" lon="1.98731">
        <ele>169.7</ele>
        <time>2022-09-12T17:11:54Z</time>
      </trkpt>
      <trkpt lat="49.01117" lon="1.9874">
        <ele>169.9</ele>
        <time>2022-09-12T17:12:00Z</time>
      </trkpt>
      <trkpt lat="49.01125" lon="1.98746">
        <ele>170.6</ele>
        <time>2022-09-12T17:12:06Z</time>
      </trkpt>
      <trkpt lat="49.0113" lon="1.98752">
        <ele>171</ele>
        <time>2022-09-12T17:12:12Z</time>
      </trkpt>
      <trkpt lat="49.01131" lon="1.98764">
        <ele>171.1</ele>
        <time>2022-09-12T17:12:18Z</time>
      </trkpt>
      <trkpt lat="49.01132" lon="1.98775">
        <ele>171.2</ele>
        <time>2022-09-12T17:12:23Z</time>
      </trkpt>
      <trkpt lat="49.01131" lon="1.98786">
        <ele>171.1</ele>
        <time>2022-09-12T17:12:29Z</time>
      </trkpt>
      <trkpt lat="49.01132" lon="1.98798">
        <ele>171.1</ele>
        <time>2022-09-12T17:12:34Z</time>
      </trkpt>
      <trkpt lat="49.01137" lon="1.9881">
        <ele>171.4</ele>
        <time>2022-09-12T17:12:40Z</time>
      </trkpt>
      <trkpt lat="49.01139" lon="1.98821">
        <ele>171</ele>
        <time>2022-09-12T17:12:45Z</time>
      </trkpt>
      <trkpt lat="49.01144" lon="1.9883">
        <ele>170.6</ele>
        <time>2022-09-12T17:12:51Z</time>
      </trkpt>
      <trkpt lat="49.01147" lon="1.98836">
        <ele>170.5</ele>
        <time>2022-09-12T17:12:56Z</time>
      </trkpt>
      <trkpt lat="49.01148" lon="1.98846">
        <ele>170.3</ele>
        <time>2022-09-12T17:13:02Z</time>
      </trkpt>
      <trkpt lat="49.01146" lon="1.98853">
        <ele>170</ele>
        <time>2022-09-12T17:13:08Z</time>
      </trkpt>
      <trkpt lat="49.01144" lon="1.98867">
        <ele>169.3</ele>
        <time>2022-09-12T17:13:14Z</time>
      </trkpt>
      <trkpt lat="49.01147" lon="1.98882">
        <ele>168.8</ele>
        <time>2022-09-12T17:13:20Z</time>
      </trkpt>
      <trkpt lat="49.01151" lon="1.98893">
        <ele>169.1</ele>
        <time>2022-09-12T17:13:25Z</time>
      </trkpt>
      <trkpt lat="49.01156" lon="1.98902">
        <ele>169.7</ele>
        <time>2022-09-12T17:13:30Z</time>
      </trkpt>
      <trkpt lat="49.01163" lon="1.9891">
        <ele>170.6</ele>
        <time>2022-09-12T17:13:36Z</time>
      </trkpt>
      <trkpt lat="49.01169" lon="1.98918">
        <ele>171</ele>
        <time>2022-09-12T17:13:42Z</time>
      </trkpt>
      <trkpt lat="49.01173" lon="1.98929">
        <ele>170.9</ele>
        <time>2022-09-12T17:13:48Z</time>
      </trkpt>
      <trkpt lat="49.01176" lon="1.98937">
        <ele>170.8</ele>
        <time>2022-09-12T17:13:53Z</time>
      </trkpt>
      <trkpt lat="49.0118" lon="1.98944">
        <ele>170.9</ele>
        <time>2022-09-12T17:13:58Z</time>
      </trkpt>
      <trkpt lat="49.01185" lon="1.98954">
        <ele>171.3</ele>
        <time>2022-09-12T17:14:04Z</time>
      </trkpt>
      <trkpt lat="49.0119" lon="1.98962">
        <ele>171.6</ele>
        <time>2022-09-12T17:14:09Z</time>
      </trkpt>
      <trkpt lat="49.01196" lon="1.9897">
        <ele>172.1</ele>
        <time>2022-09-12T17:14:14Z</time>
      </trkpt>
      <trkpt lat="49.01202" lon="1.98976">
        <ele>172.3</ele>
        <time>2022-09-12T17:14:19Z</time>
      </trkpt>
      <trkpt lat="49.01211" lon="1.98982">
        <ele>172.6</ele>
        <time>2022-09-12T17:14:25Z</time>
      </trkpt>
      <trkpt lat="49.01217" lon="1.98986">
        <ele>172.8</ele>
        <time>2022-09-12T17:14:30Z</time>
      </trkpt>
      <trkpt lat="49.01223" lon="1.98992">
        <ele>173</ele>
        <time>2022-09-12T17:14:36Z</time>
      </trkpt>
      <trkpt lat="49.01229" lon="1.98998">
        <ele>173</ele>
        <time>2022-09-12T17:14:42Z</time>
      </trkpt>
      <trkpt lat="49.01236" lon="1.99004">
        <ele>172.9</ele>
        <time>2022-09-12T17:14:47Z</time>
      </trkpt>
      <trkpt lat="49.01241" lon="1.99009">
        <ele>172.9</ele>
        <time>2022-09-12T17:14:53Z</time>
      </trkpt>
      <trkpt lat="49.01246" lon="1.99014">
        <ele>172.9</ele>
        <time>2022-09-12T17:14:58Z</time>
      </trkpt>
      <trkpt lat="49.01254" lon="1.9902">
        <ele>173</ele>
        <time>2022-09-12T17:15:04Z</time>
      </trkpt>
      <trkpt lat="49.01262" lon="1.99025">
        <ele>173</ele>
        <time>2022-09-12T17:15:10Z</time>
      </trkpt>
      <trkpt lat="49.01264" lon="1.99028">
        <ele>173</ele>
        <time>2022-09-12T17:15:16Z</time>
      </trkpt>
      <trkpt lat="49.01263" lon="1.99028">
        <ele>173</ele>
        <time>2022-09-12T17:15:22Z</time>
      </trkpt>
      <trkpt lat="49.01263" lon="1.99028">
        <ele>173</ele>
        <time>2022-09-12T17:15:27Z</time>
      </trkpt>
      <trkpt lat="49.01263" lon="1.99028">
        <ele>173</ele>
        <time>2022-09-12T17:15:33Z</time>
      </trkpt>
      <trkpt lat="49.01263" lon="1.99028">
        <ele>173</ele>
        <time>2022-09-12T17:15:39Z</time>
      </trkpt>
      <trkpt lat="49.01262" lon="1.99028">
        <ele>173</ele>
        <time>2022-09-12T17:15:44Z</time>
      </trkpt>
      <trkpt lat="49.01262" lon="1.99026">
        <ele>173</ele>
        <time>2022-09-12T17:15:50Z</time>
      </trkpt>
      <trkpt lat="49.01259" lon="1.99029">
        <ele>173</ele>
        <time>2022-09-12T17:15:55Z</time>
      </trkpt>
      <trkpt lat="49.01254" lon="1.99039">
        <ele>173.1</ele>
        <time>2022-09-12T17:16:01Z</time>
      </trkpt>
      <trkpt lat="49.01251" lon="1.99048">
        <ele>173</ele>
        <time>2022-09-12T17:16:07Z</time>
      </trkpt>
      <trkpt lat="49.01249" lon="1.99056">
        <ele>173</ele>
        <time>2022-09-12T17:16:13Z</time>
      </trkpt>
      <trkpt lat="49.01246" lon="1.99062">
        <ele>173</ele>
        <time>2022-09-12T17:16:18Z</time>
      </trkpt>
      <trkpt lat="49.01243" lon="1.99071">
        <ele>173</ele>
        <time>2022-09-12T17:16:24Z</time>
      </trkpt>
      <trkpt lat="49.01237" lon="1.99081">
        <ele>173</ele>
        <time>2022-09-12T17:16:29Z</time>
      </trkpt>
      <trkpt lat="49.01231" lon="1.99092">
        <ele>173</ele>
        <time>2022-09-12T17:16:35Z</time>
      </trkpt>
      <trkpt lat="49.01227" lon="1.99104">
        <ele>173</ele>
        <time>2022-09-12T17:16:41Z</time>
      </trkpt>
      <trkpt lat="49.01223" lon="1.99112">
        <ele>173</ele>
        <time>2022-09-12T17:16:46Z</time>
      </trkpt>
      <trkpt lat="49.0122" lon="1.99121">
        <ele>173</ele>
        <time>2022-09-12T17:16:51Z</time>
      </trkpt>
      <trkpt lat="49.01216" lon="1.9913">
        <ele>172.9</ele>
        <time>2022-09-12T17:16:57Z</time>
      </trkpt>
      <trkpt lat="49.01212" lon="1.99139">
        <ele>172.6</ele>
        <time>2022-09-12T17:17:02Z</time>
      </trkpt>
      <trkpt lat="49.01208" lon="1.99149">
        <ele>172.5</ele>
        <time>2022-09-12T17:17:08Z</time>
      </trkpt>
      <trkpt lat="49.01203" lon="1.99158">
        <ele>172.3</ele>
        <time>2022-09-12T17:17:14Z</time>
      </trkpt>
      <trkpt lat="49.01199" lon="1.99164">
        <ele>172.2</ele>
        <time>2022-09-12T17:17:20Z</time>
      </trkpt>
      <trkpt lat="49.01193" lon="1.99172">
        <ele>172</ele>
        <time>2022-09-12T17:17:26Z</time>
      </trkpt>
      <trkpt lat="49.01187" lon="1.99182">
        <ele>171.9</ele>
        <time>2022-09-12T17:17:32Z</time>
      </trkpt>
      <trkpt lat="49.01184" lon="1.99192">
        <ele>171.7</ele>
        <time>2022-09-12T17:17:37Z</time>
      </trkpt>
      <trkpt lat="49.01179" lon="1.99203">
        <ele>171.4</ele>
        <time>2022-09-12T17:17:43Z</time>
      </trkpt>
      <trkpt lat="49.01173" lon="1.9921">
        <ele>171.2</ele>
        <time>2022-09-12T17:17:49Z</time>
      </trkpt>
      <trkpt lat="49.01166" lon="1.99218">
        <ele>171</ele>
        <time>2022-09-12T17:17:54Z</time>
      </trkpt>
      <trkpt lat="49.01161" lon="1.99222">
        <ele>170.8</ele>
        <time>2022-09-12T17:17:59Z</time>
      </trkpt>
      <trkpt lat="49.01154" lon="1.99225">
        <ele>170.5</ele>
        <time>2022-09-12T17:18:05Z</time>
      </trkpt>
      <trkpt lat="49.01153" lon="1.99227">
        <ele>170.4</ele>
        <time>2022-09-12T17:18:10Z</time>
      </trkpt>
      <trkpt lat="49.01148" lon="1.99227">
        <ele>170.2</ele>
        <time>2022-09-12T17:18:16Z</time>
      </trkpt>
      <trkpt lat="49.01141" lon="1.9923">
        <ele>169.8</ele>
        <time>2022-09-12T17:18:22Z</time>
      </trkpt>
      <trkpt lat="49.01137" lon="1.99234">
        <ele>169.4</ele>
        <time>2022-09-12T17:18:27Z</time>
      </trkpt>
      <trkpt lat="49.01133" lon="1.99238">
        <ele>168.9</ele>
        <time>2022-09-12T17:18:32Z</time>
      </trkpt>
      <trkpt lat="49.01128" lon="1.99243">
        <ele>168.1</ele>
        <time>2022-09-12T17:18:38Z</time>
      </trkpt>
      <trkpt lat="49.01123" lon="1.99247">
        <ele>167.5</ele>
        <time>2022-09-12T17:18:43Z</time>
      </trkpt>
      <trkpt lat="49.01117" lon="1.99247">
        <ele>166.8</ele>
        <time>2022-09-12T17:18:49Z</time>
      </trkpt>
      <trkpt lat="49.01113" lon="1.99249">
        <ele>166.3</ele>
        <time>2022-09-12T17:18:54Z</time>
      </trkpt>
      <trkpt lat="49.01107" lon="1.99255">
        <ele>165.7</ele>
        <time>2022-09-12T17:19:00Z</time>
      </trkpt>
      <trkpt lat="49.01101" lon="1.99258">
        <ele>165.2</ele>
        <time>2022-09-12T17:19:06Z</time>
      </trkpt>
      <trkpt lat="49.01093" lon="1.9926">
        <ele>164.5</ele>
        <time>2022-09-12T17:19:12Z</time>
      </trkpt>
      <trkpt lat="49.01086" lon="1.9926">
        <ele>163.9</ele>
        <time>2022-09-12T17:19:17Z</time>
      </trkpt>
      <trkpt lat="49.01077" lon="1.99258">
        <ele>162.9</ele>
        <time>2022-09-12T17:19:23Z</time>
      </trkpt>
      <trkpt lat="49.01071" lon="1.99255">
        <ele>162</ele>
        <time>2022-09-12T17:19:28Z</time>
      </trkpt>
      <trkpt lat="49.01065" lon="1.9925">
        <ele>161.3</ele>
        <time>2022-09-12T17:19:34Z</time>
      </trkpt>
      <trkpt lat="49.01058" lon="1.99246">
        <ele>160.9</ele>
        <time>2022-09-12T17:19:39Z</time>
      </trkpt>
      <trkpt lat="49.0105" lon="1.99241">
        <ele>160.4</ele>
        <time>2022-09-12T17:19:45Z</time>
      </trkpt>
      <trkpt lat="49.01044" lon="1.99238">
        <ele>159.7</ele>
        <time>2022-09-12T17:19:50Z</time>
      </trkpt>
      <trkpt lat="49.01038" lon="1.99237">
        <ele>158.8</ele>
        <time>2022-09-12T17:19:55Z</time>
      </trkpt>
      <trkpt lat="49.01031" lon="1.99236">
        <ele>157.7</ele>
        <time>2022-09-12T17:20:01Z</time>
      </trkpt>
      <trkpt lat="49.01028" lon="1.99236">
        <ele>157</ele>
        <time>2022-09-12T17:20:07Z</time>
      </trkpt>
      <trkpt lat="49.01028" lon="1.99237">
        <ele>157</ele>
        <time>2022-09-12T17:20:12Z</time>
      </trkpt>
      <trkpt lat="49.01032" lon="1.99239">
        <ele>157.4</ele>
        <time>2022-09-12T17:20:18Z</time>
      </trkpt>
      <trkpt lat="49.01036" lon="1.99242">
        <ele>157.9</ele>
        <time>2022-09-12T17:20:23Z</time>
      </trkpt>
      <trkpt lat="49.01038" lon="1.99244">
        <ele>158.1</ele>
        <time>2022-09-12T17:20:29Z</time>
      </trkpt>
      <trkpt lat="49.01041" lon="1.99245">
        <ele>158.5</ele>
        <time>2022-09-12T17:20:35Z</time>
      </trkpt>
      <trkpt lat="49.01048" lon="1.99247">
        <ele>159.3</ele>
        <time>2022-09-12T17:20:41Z</time>
      </trkpt>
      <trkpt lat="49.01054" lon="1.99247">
        <ele>160.1</ele>
        <time>2022-09-12T17:20:46Z</time>
      </trkpt>
      <trkpt lat="49.01061" lon="1.99251">
        <ele>160.7</ele>
        <time>2022-09-12T17:20:52Z</time>
      </trkpt>
      <trkpt lat="49.01066" lon="1.99254">
        <ele>161.4</ele>
        <time>2022-09-12T17:20:57Z</time>
      </trkpt>
      <trkpt lat="49.01072" lon="1.99258">
        <ele>162.1</ele>
        <time>2022-09-12T17:21:02Z</time>
      </trkpt>
      <trkpt lat="49.01078" lon="1.9926">
        <ele>162.9</ele>
        <time>2022-09-12T17:21:08Z</time>
      </trkpt>
      <trkpt lat="49.01084" lon="1.9926">
        <ele>163.7</ele>
        <time>2022-09-12T17:21:13Z</time>
      </trkpt>
      <trkpt lat="49.01092" lon="1.99259">
        <ele>164.4</ele>
        <time>2022-09-12T17:21:19Z</time>
      </trkpt>
      <trkpt lat="49.01102" lon="1.99257">
        <ele>165.2</ele>
        <time>2022-09-12T17:21:25Z</time>
      </trkpt>
      <trkpt lat="49.01109" lon="1.99255">
        <ele>165.8</ele>
        <time>2022-09-12T17:21:31Z</time>
      </trkpt>
      <trkpt lat="49.01115" lon="1.99254">
        <ele>166.4</ele>
        <time>2022-09-12T17:21:36Z</time>
      </trkpt>
      <trkpt lat="49.01119" lon="1.99252">
        <ele>166.9</ele>
        <time>2022-09-12T17:21:41Z</time>
      </trkpt>
      <trkpt lat="49.01125" lon="1.9925">
        <ele>167.5</ele>
        <time>2022-09-12T17:21:47Z</time>
      </trkpt>
      <trkpt lat="49.01129" lon="1.99245">
        <ele>168.2</ele>
        <time>2022-09-12T17:21:53Z</time>
      </trkpt>
      <trkpt lat="49.01135" lon="1.99238">
        <ele>169</ele>
        <time>2022-09-12T17:21:59Z</time>
      </trkpt>
      <trkpt lat="49.01139" lon="1.99233">
        <ele>169.6</ele>
        <time>2022-09-12T17:22:04Z</time>
      </trkpt>
      <trkpt lat="49.01143" lon="1.99229">
        <ele>170</ele>
        <time>2022-09-12T17:22:10Z</time>
      </trkpt>
      <trkpt lat="49.01146" lon="1.99228">
        <ele>170.1</ele>
        <time>2022-09-12T17:22:15Z</time>
      </trkpt>
      <trkpt lat="49.01148" lon="1.99232">
        <ele>170.1</ele>
        <time>2022-09-12T17:22:21Z</time>
      </trkpt>
      <trkpt lat="49.01149" lon="1.99237">
        <ele>170</ele>
        <time>2022-09-12T17:22:26Z</time>
      </trkpt>
      <trkpt lat="49.01149" lon="1.99242">
        <ele>169.9</ele>
        <time>2022-09-12T17:22:31Z</time>
      </trkpt>
      <trkpt lat="49.01149" lon="1.99245">
        <ele>169.9</ele>
        <time>2022-09-12T17:22:37Z</time>
      </trkpt>
      <trkpt lat="49.01149" lon="1.99249">
        <ele>169.7</ele>
        <time>2022-09-12T17:22:43Z</time>
      </trkpt>
      <trkpt lat="49.01149" lon="1.99251">
        <ele>169.7</ele>
        <time>2022-09-12T17:22:48Z</time>
      </trkpt>
      <trkpt lat="49.01149" lon="1.99254">
        <ele>169.6</ele>
        <time>2022-09-12T17:22:53Z</time>
      </trkpt>
      <trkpt lat="49.01148" lon="1.99259">
        <ele>169.3</ele>
        <time>2022-09-12T17:22:58Z</time>
      </trkpt>
      <trkpt lat="49.01145" lon="1.99267">
        <ele>168.8</ele>
        <time>2022-09-12T17:23:04Z</time>
      </trkpt>
      <trkpt lat="49.01142" lon="1.99278">
        <ele>168.2</ele>
        <time>2022-09-12T17:23:10Z</time>
      </trkpt>
      <trkpt lat="49.0114" lon="1.99289">
        <ele>168.5</ele>
        <time>2022-09-12T17:23:16Z</time>
      </trkpt>
      <trkpt lat="49.01138" lon="1.99297">
        <ele>168.6</ele>
        <time>2022-09-12T17:23:21Z</time>
      </trkpt>
      <trkpt lat="49.01133" lon="1.99305">
        <ele>168.8</ele>
        <time>2022-09-12T17:23:27Z</time>
      </trkpt>
      <trkpt lat="49.01129" lon="1.99312">
        <ele>169</ele>
        <time>2022-09-12T17:23:32Z</time>
      </trkpt>
      <trkpt lat="49.01126" lon="1.99322">
        <ele>169.4</ele>
        <time>2022-09-12T17:23:38Z</time>
      </trkpt>
      <trkpt lat="49.01122" lon="1.99327">
        <ele>169.6</ele>
        <time>2022-09-12T17:23:44Z</time>
      </trkpt>
      <trkpt lat="49.0112" lon="1.99331">
        <ele>169.8</ele>
        <time>2022-09-12T17:23:49Z</time>
      </trkpt>
      <trkpt lat="49.01118" lon="1.99335">
        <ele>170</ele>
        <time>2022-09-12T17:23:55Z</time>
      </trkpt>
      <trkpt lat="49.01115" lon="1.99339">
        <ele>170.2</ele>
        <time>2022-09-12T17:24:01Z</time>
      </trkpt>
      <trkpt lat="49.01112" lon="1.99342">
        <ele>170.3</ele>
        <time>2022-09-12T17:24:06Z</time>
      </trkpt>
      <trkpt lat="49.01108" lon="1.99345">
        <ele>170.1</ele>
        <time>2022-09-12T17:24:11Z</time>
      </trkpt>
      <trkpt lat="49.01102" lon="1.99351">
        <ele>169.8</ele>
        <time>2022-09-12T17:24:17Z</time>
      </trkpt>
      <trkpt lat="49.01097" lon="1.99357">
        <ele>169.7</ele>
        <time>2022-09-12T17:24:22Z</time>
      </trkpt>
      <trkpt lat="49.01091" lon="1.99362">
        <ele>169.6</ele>
        <time>2022-09-12T17:24:28Z</time>
      </trkpt>
      <trkpt lat="49.01086" lon="1.99366">
        <ele>169.5</ele>
        <time>2022-09-12T17:24:33Z</time>
      </trkpt>
      <trkpt lat="49.0108" lon="1.99371">
        <ele>169.3</ele>
        <time>2022-09-12T17:24:39Z</time>
      </trkpt>
      <trkpt lat="49.01074" lon="1.99377">
        <ele>169</ele>
        <time>2022-09-12T17:24:45Z</time>
      </trkpt>
      <trkpt lat="49.01068" lon="1.99383">
        <ele>168.8</ele>
        <time>2022-09-12T17:24:51Z</time>
      </trkpt>
      <trkpt lat="49.01063" lon="1.99389">
        <ele>168.7</ele>
        <time>2022-09-12T17:24:56Z</time>
      </trkpt>
      <trkpt lat="49.01056" lon="1.99396">
        <ele>168.6</ele>
        <time>2022-09-12T17:25:02Z</time>
      </trkpt>
      <trkpt lat="49.01051" lon="1.99406">
        <ele>169</ele>
        <time>2022-09-12T17:25:08Z</time>
      </trkpt>
      <trkpt lat="49.01048" lon="1.99414">
        <ele>169.5</ele>
        <time>2022-09-12T17:25:13Z</time>
      </trkpt>
      <trkpt lat="49.01045" lon="1.99423">
        <ele>169.9</ele>
        <time>2022-09-12T17:25:18Z</time>
      </trkpt>
      <trkpt lat="49.01042" lon="1.99429">
        <ele>170.2</ele>
        <time>2022-09-12T17:25:24Z</time>
      </trkpt>
      <trkpt lat="49.01039" lon="1.99437">
        <ele>170.6</ele>
        <time>2022-09-12T17:25:29Z</time>
      </trkpt>
      <trkpt lat="49.01034" lon="1.99446">
        <ele>171.1</ele>
        <time>2022-09-12T17:25:35Z</time>
      </trkpt>
      <trkpt lat="49.0103" lon="1.99453">
        <ele>171.3</ele>
        <time>2022-09-12T17:25:40Z</time>
      </trkpt>
      <trkpt lat="49.01028" lon="1.99463">
        <ele>171.7</ele>
        <time>2022-09-12T17:25:46Z</time>
      </trkpt>
      <trkpt lat="49.01024" lon="1.9947">
        <ele>172.1</ele>
        <time>2022-09-12T17:25:51Z</time>
      </trkpt>
      <trkpt lat="49.01019" lon="1.99478">
        <ele>172.5</ele>
        <time>2022-09-12T17:25:57Z</time>
      </trkpt>
      <trkpt lat="49.01015" lon="1.99485">
        <ele>172.7</ele>
        <time>2022-09-12T17:26:02Z</time>
      </trkpt>
      <trkpt lat="49.01009" lon="1.99491">
        <ele>172.9</ele>
        <time>2022-09-12T17:26:08Z</time>
      </trkpt>
      <trkpt lat="49.01003" lon="1.99498">
        <ele>173</ele>
        <time>2022-09-12T17:26:14Z</time>
      </trkpt>
      <trkpt lat="49.00998" lon="1.99506">
        <ele>173.1</ele>
        <time>2022-09-12T17:26:19Z</time>
      </trkpt>
      <trkpt lat="49.00991" lon="1.99514">
        <ele>173.2</ele>
        <time>2022-09-12T17:26:25Z</time>
      </trkpt>
      <trkpt lat="49.00985" lon="1.99521">
        <ele>173.1</ele>
        <time>2022-09-12T17:26:31Z</time>
      </trkpt>
      <trkpt lat="49.00981" lon="1.99528">
        <ele>173</ele>
        <time>2022-09-12T17:26:36Z</time>
      </trkpt>
      <trkpt lat="49.00976" lon="1.99537">
        <ele>173</ele>
        <time>2022-09-12T17:26:42Z</time>
      </trkpt>
      <trkpt lat="49.00971" lon="1.99547">
        <ele>173</ele>
        <time>2022-09-12T17:26:47Z</time>
      </trkpt>
      <trkpt lat="49.00966" lon="1.99555">
        <ele>173</ele>
        <time>2022-09-12T17:26:52Z</time>
      </trkpt>
      <trkpt lat="49.00962" lon="1.99561">
        <ele>172.9</ele>
        <time>2022-09-12T17:26:58Z</time>
      </trkpt>
      <trkpt lat="49.00959" lon="1.9957">
        <ele>172.8</ele>
        <time>2022-09-12T17:27:03Z</time>
      </trkpt>
      <trkpt lat="49.00957" lon="1.99579">
        <ele>172.5</ele>
        <time>2022-09-12T17:27:08Z</time>
      </trkpt>
      <trkpt lat="49.00955" lon="1.9959">
        <ele>172.4</ele>
        <time>2022-09-12T17:27:14Z</time>
      </trkpt>
      <trkpt lat="49.00952" lon="1.99596">
        <ele>172.3</ele>
        <time>2022-09-12T17:27:20Z</time>
      </trkpt>
      <trkpt lat="49.00946" lon="1.99602">
        <ele>172.1</ele>
        <time>2022-09-12T17:27:26Z</time>
      </trkpt>
      <trkpt lat="49.00938" lon="1.99608">
        <ele>171.8</ele>
        <time>2022-09-12T17:27:32Z</time>
      </trkpt>
      <trkpt lat="49.00933" lon="1.99614">
        <ele>171.6</ele>
        <time>2022-09-12T17:27:37Z</time>
      </trkpt>
      <trkpt lat="49.00929" lon="1.9962">
        <ele>171.4</ele>
        <time>2022-09-12T17:27:42Z</time>
      </trkpt>
      <trkpt lat="49.00924" lon="1.99628">
        <ele>171.2</ele>
        <time>2022-09-12T17:27:48Z</time>
      </trkpt>
      <trkpt lat="49.00919" lon="1.99636">
        <ele>171.1</ele>
        <time>2022-09-12T17:27:54Z</time>
      </trkpt>
      <trkpt lat="49.00917" lon="1.99642">
        <ele>171</ele>
        <time>2022-09-12T17:27:59Z</time>
      </trkpt>
      <trkpt lat="49.00913" lon="1.99647">
        <ele>170.8</ele>
        <time>2022-09-12T17:28:04Z</time>
      </trkpt>
      <trkpt lat="49.00906" lon="1.99653">
        <ele>170.4</ele>
        <time>2022-09-12T17:28:10Z</time>
      </trkpt>
      <trkpt lat="49.00897" lon="1.99661">
        <ele>170.2</ele>
        <time>2022-09-12T17:28:16Z</time>
      </trkpt>
      <trkpt lat="49.00889" lon="1.99667">
        <ele>170</ele>
        <time>2022-09-12T17:28:22Z</time>
      </trkpt>
      <trkpt lat="49.00883" lon="1.99673">
        <ele>170.1</ele>
        <time>2022-09-12T17:28:28Z</time>
      </trkpt>
      <trkpt lat="49.0088" lon="1.99677">
        <ele>170.2</ele>
        <time>2022-09-12T17:28:34Z</time>
      </trkpt>
      <trkpt lat="49.0088" lon="1.99676">
        <ele>170.1</ele>
        <time>2022-09-12T17:28:39Z</time>
      </trkpt>
      <trkpt lat="49.0088" lon="1.99676">
        <ele>170.1</ele>
        <time>2022-09-12T17:28:45Z</time>
      </trkpt>
      <trkpt lat="49.00878" lon="1.99683">
        <ele>170.4</ele>
        <time>2022-09-12T17:28:51Z</time>
      </trkpt>
      <trkpt lat="49.00876" lon="1.99694">
        <ele>171</ele>
        <time>2022-09-12T17:28:57Z</time>
      </trkpt>
      <trkpt lat="49.00873" lon="1.99703">
        <ele>171.2</ele>
        <time>2022-09-12T17:29:03Z</time>
      </trkpt>
      <trkpt lat="49.00868" lon="1.99708">
        <ele>171.4</ele>
        <time>2022-09-12T17:29:08Z</time>
      </trkpt>
      <trkpt lat="49.00861" lon="1.99712">
        <ele>171.7</ele>
        <time>2022-09-12T17:29:14Z</time>
      </trkpt>
      <trkpt lat="49.00854" lon="1.99714">
        <ele>171.9</ele>
        <time>2022-09-12T17:29:19Z</time>
      </trkpt>
      <trkpt lat="49.00845" lon="1.99716">
        <ele>172.2</ele>
        <time>2022-09-12T17:29:25Z</time>
      </trkpt>
      <trkpt lat="49.00839" lon="1.99717">
        <ele>172.4</ele>
        <time>2022-09-12T17:29:30Z</time>
      </trkpt>
      <trkpt lat="49.00833" lon="1.99716">
        <ele>172.6</ele>
        <time>2022-09-12T17:29:36Z</time>
      </trkpt>
      <trkpt lat="49.00826" lon="1.99715">
        <ele>172.5</ele>
        <time>2022-09-12T17:29:42Z</time>
      </trkpt>
      <trkpt lat="49.00818" lon="1.99715">
        <ele>172.6</ele>
        <time>2022-09-12T17:29:48Z</time>
      </trkpt>
      <trkpt lat="49.00809" lon="1.99715">
        <ele>172.7</ele>
        <time>2022-09-12T17:29:54Z</time>
      </trkpt>
      <trkpt lat="49.00802" lon="1.99718">
        <ele>172.9</ele>
        <time>2022-09-12T17:29:59Z</time>
      </trkpt>
      <trkpt lat="49.00796" lon="1.9972">
        <ele>172.9</ele>
        <time>2022-09-12T17:30:04Z</time>
      </trkpt>
      <trkpt lat="49.00789" lon="1.9972">
        <ele>173</ele>
        <time>2022-09-12T17:30:10Z</time>
      </trkpt>
      <trkpt lat="49.00789" lon="1.99724">
        <ele>173</ele>
        <time>2022-09-12T17:30:16Z</time>
      </trkpt>
      <trkpt lat="49.0079" lon="1.99734">
        <ele>173</ele>
        <time>2022-09-12T17:30:22Z</time>
      </trkpt>
      <trkpt lat="49.00792" lon="1.99746">
        <ele>173</ele>
        <time>2022-09-12T17:30:28Z</time>
      </trkpt>
      <trkpt lat="49.00792" lon="1.99756">
        <ele>173.1</ele>
        <time>2022-09-12T17:30:33Z</time>
      </trkpt>
      <trkpt lat="49.00792" lon="1.99766">
        <ele>173.3</ele>
        <time>2022-09-12T17:30:39Z</time>
      </trkpt>
      <trkpt lat="49.00792" lon="1.99774">
        <ele>173.4</ele>
        <time>2022-09-12T17:30:44Z</time>
      </trkpt>
      <trkpt lat="49.00791" lon="1.99781">
        <ele>173.5</ele>
        <time>2022-09-12T17:30:50Z</time>
      </trkpt>
      <trkpt lat="49.0079" lon="1.99787">
        <ele>173.5</ele>
        <time>2022-09-12T17:30:56Z</time>
      </trkpt>
      <trkpt lat="49.00792" lon="1.99789">
        <ele>173.5</ele>
        <time>2022-09-12T17:31:01Z</time>
      </trkpt>
      <trkpt lat="49.00796" lon="1.99795">
        <ele>173.7</ele>
        <time>2022-09-12T17:31:07Z</time>
      </trkpt>
      <trkpt lat="49.008" lon="1.99802">
        <ele>173.8</ele>
        <time>2022-09-12T17:31:12Z</time>
      </trkpt>
      <trkpt lat="49.00803" lon="1.99812">
        <ele>173.9</ele>
        <time>2022-09-12T17:31:17Z</time>
      </trkpt>
      <trkpt lat="49.00806" lon="1.99825">
        <ele>174</ele>
        <time>2022-09-12T17:31:23Z</time>
      </trkpt>
      <trkpt lat="49.0081" lon="1.99838">
        <ele>174</ele>
        <time>2022-09-12T17:31:29Z</time>
      </trkpt>
      <trkpt lat="49.00813" lon="1.99848">
        <ele>174</ele>
        <time>2022-09-12T17:31:35Z</time>
      </trkpt>
      <trkpt lat="49.00814" lon="1.99855">
        <ele>174</ele>
        <time>2022-09-12T17:31:41Z</time>
      </trkpt>
      <trkpt lat="49.00815" lon="1.99861">
        <ele>174</ele>
        <time>2022-09-12T17:31:46Z</time>
      </trkpt>
      <trkpt lat="49.00815" lon="1.99869">
        <ele>174</ele>
        <time>2022-09-12T17:31:52Z</time>
      </trkpt>
      <trkpt lat="49.00816" lon="1.99876">
        <ele>174</ele>
        <time>2022-09-12T17:31:58Z</time>
      </trkpt>
      <trkpt lat="49.00817" lon="1.99882">
        <ele>174</ele>
        <time>2022-09-12T17:32:03Z</time>
      </trkpt>
      <trkpt lat="49.0082" lon="1.99892">
        <ele>174</ele>
        <time>2022-09-12T17:32:09Z</time>
      </trkpt>
      <trkpt lat="49.0082" lon="1.99901">
        <ele>174</ele>
        <time>2022-09-12T17:32:14Z</time>
      </trkpt>
      <trkpt lat="49.00821" lon="1.99911">
        <ele>174</ele>
        <time>2022-09-12T17:32:20Z</time>
      </trkpt>
      <trkpt lat="49.00825" lon="1.99923">
        <ele>174</ele>
        <time>2022-09-12T17:32:26Z</time>
      </trkpt>
      <trkpt lat="49.00828" lon="1.99934">
        <ele>174</ele>
        <time>2022-09-12T17:32:31Z</time>
      </trkpt>
      <trkpt lat="49.0083" lon="1.99948">
        <ele>174</ele>
        <time>2022-09-12T17:32:37Z</time>
      </trkpt>
      <trkpt lat="49.00831" lon="1.99959">
        <ele>174</ele>
        <time>2022-09-12T17:32:42Z</time>
      </trkpt>
      <trkpt lat="49.00832" lon="1.99971">
        <ele>174</ele>
        <time>2022-09-12T17:32:48Z</time>
      </trkpt>
      <trkpt lat="49.00833" lon="1.99984">
        <ele>174</ele>
        <time>2022-09-12T17:32:54Z</time>
      </trkpt>
      <trkpt lat="49.00832" lon="1.99994">
        <ele>174</ele>
        <time>2022-09-12T17:33:00Z</time>
      </trkpt>
      <trkpt lat="49.0083" lon="2.00003">
        <ele>174.1</ele>
        <time>2022-09-12T17:33:06Z</time>
      </trkpt>
      <trkpt lat="49.00828" lon="2.00008">
        <ele>174.2</ele>
        <time>2022-09-12T17:33:11Z</time>
      </trkpt>
      <trkpt lat="49.00827" lon="2.00012">
        <ele>174.3</ele>
        <time>2022-09-12T17:33:16Z</time>
      </trkpt>
      <trkpt lat="49.00825" lon="2.00019">
        <ele>174.5</ele>
        <time>2022-09-12T17:33:22Z</time>
      </trkpt>
      <trkpt lat="49.00822" lon="2.0003">
        <ele>174.6</ele>
        <time>2022-09-12T17:33:28Z</time>
      </trkpt>
      <trkpt lat="49.00819" lon="2.00039">
        <ele>174.5</ele>
        <time>2022-09-12T17:33:34Z</time>
      </trkpt>
      <trkpt lat="49.00816" lon="2.00047">
        <ele>174.4</ele>
        <time>2022-09-12T17:33:40Z</time>
      </trkpt>
      <trkpt lat="49.00813" lon="2.00053">
        <ele>174.3</ele>
        <time>2022-09-12T17:33:46Z</time>
      </trkpt>
      <trkpt lat="49.00811" lon="2.00058">
        <ele>174.3</ele>
        <time>2022-09-12T17:33:51Z</time>
      </trkpt>
      <trkpt lat="49.00809" lon="2.00067">
        <ele>174.5</ele>
        <time>2022-09-12T17:33:56Z</time>
      </trkpt>
      <trkpt lat="49.00806" lon="2.00077">
        <ele>174.8</ele>
        <time>2022-09-12T17:34:02Z</time>
      </trkpt>
      <trkpt lat="49.00804" lon="2.00086">
        <ele>174.9</ele>
        <time>2022-09-12T17:34:07Z</time>
      </trkpt>
      <trkpt lat="49.008" lon="2.00096">
        <ele>174.9</ele>
        <time>2022-09-12T17:34:12Z</time>
      </trkpt>
      <trkpt lat="49.00795" lon="2.00108">
        <ele>175</ele>
        <time>2022-09-12T17:34:18Z</time>
      </trkpt>
      <trkpt lat="49.0079" lon="2.00117">
        <ele>175</ele>
        <time>2022-09-12T17:34:24Z</time>
      </trkpt>
      <trkpt lat="49.00787" lon="2.00122">
        <ele>175</ele>
        <time>2022-09-12T17:34:30Z</time>
      </trkpt>
      <trkpt lat="49.00787" lon="2.00121">
        <ele>175</ele>
        <time>2022-09-12T17:34:36Z</time>
      </trkpt>
      <trkpt lat="49.00786" lon="2.00119">
        <ele>175</ele>
        <time>2022-09-12T17:34:42Z</time>
      </trkpt>
      <trkpt lat="49.00783" lon="2.00121">
        <ele>175</ele>
        <time>2022-09-12T17:34:47Z</time>
      </trkpt>
      <trkpt lat="49.00779" lon="2.00129">
        <ele>175</ele>
        <time>2022-09-12T17:34:53Z</time>
      </trkpt>
      <trkpt lat="49.00776" lon="2.00136">
        <ele>175</ele>
        <time>2022-09-12T17:34:58Z</time>
      </trkpt>
      <trkpt lat="49.00774" lon="2.00141">
        <ele>175.1</ele>
        <time>2022-09-12T17:35:04Z</time>
      </trkpt>
      <trkpt lat="49.00773" lon="2.00141">
        <ele>175.1</ele>
        <time>2022-09-12T17:35:09Z</time>
      </trkpt>
      <trkpt lat="49.00773" lon="2.0014">
        <ele>175.1</ele>
        <time>2022-09-12T17:35:15Z</time>
      </trkpt>
      <trkpt lat="49.00773" lon="2.00139">
        <ele>175</ele>
        <time>2022-09-12T17:35:20Z</time>
      </trkpt>
      <trkpt lat="49.00772" lon="2.00139">
        <ele>175</ele>
        <time>2022-09-12T17:35:26Z</time>
      </trkpt>
      <trkpt lat="49.00768" lon="2.00146">
        <ele>175.2</ele>
        <time>2022-09-12T17:35:31Z</time>
      </trkpt>
      <trkpt lat="49.00764" lon="2.00156">
        <ele>175.6</ele>
        <time>2022-09-12T17:35:37Z</time>
      </trkpt>
      <trkpt lat="49.00759" lon="2.00165">
        <ele>176</ele>
        <time>2022-09-12T17:35:43Z</time>
      </trkpt>
      <trkpt lat="49.00754" lon="2.00172">
        <ele>176</ele>
        <time>2022-09-12T17:35:49Z</time>
      </trkpt>
      <trkpt lat="49.00749" lon="2.00174">
        <ele>176</ele>
        <time>2022-09-12T17:35:54Z</time>
      </trkpt>
      <trkpt lat="49.00744" lon="2.00175">
        <ele>176</ele>
        <time>2022-09-12T17:36:00Z</time>
      </trkpt>
      <trkpt lat="49.00738" lon="2.00176">
        <ele>176</ele>
        <time>2022-09-12T17:36:05Z</time>
      </trkpt>
      <trkpt lat="49.00731" lon="2.00176">
        <ele>176</ele>
        <time>2022-09-12T17:36:11Z</time>
      </trkpt>
      <trkpt lat="49.00724" lon="2.00176">
        <ele>176</ele>
        <time>2022-09-12T17:36:16Z</time>
      </trkpt>
      <trkpt lat="49.00716" lon="2.00175">
        <ele>175.8</ele>
        <time>2022-09-12T17:36:22Z</time>
      </trkpt>
      <trkpt lat="49.00708" lon="2.00176">
        <ele>175.5</ele>
        <time>2022-09-12T17:36:28Z</time>
      </trkpt>
      <trkpt lat="49.00703" lon="2.00178">
        <ele>175.3</ele>
        <time>2022-09-12T17:36:33Z</time>
      </trkpt>
      <trkpt lat="49.00697" lon="2.0018">
        <ele>175.1</ele>
        <time>2022-09-12T17:36:38Z</time>
      </trkpt>
      <trkpt lat="49.00691" lon="2.00182">
        <ele>175</ele>
        <time>2022-09-12T17:36:43Z</time>
      </trkpt>
      <trkpt lat="49.00684" lon="2.00183">
        <ele>175</ele>
        <time>2022-09-12T17:36:49Z</time>
      </trkpt>
      <trkpt lat="49.00679" lon="2.00183">
        <ele>175</ele>
        <time>2022-09-12T17:36:54Z</time>
      </trkpt>
      <trkpt lat="49.00672" lon="2.00182">
        <ele>175</ele>
        <time>2022-09-12T17:37:00Z</time>
      </trkpt>
      <trkpt lat="49.00665" lon="2.0018">
        <ele>175</ele>
        <time>2022-09-12T17:37:05Z</time>
      </trkpt>
      <trkpt lat="49.00659" lon="2.00178">
        <ele>175</ele>
        <time>2022-09-12T17:37:10Z</time>
      </trkpt>
      <trkpt lat="49.00656" lon="2.00178">
        <ele>175</ele>
        <time>2022-09-12T17:37:16Z</time>
      </trkpt>
      <trkpt lat="49.00655" lon="2.0018">
        <ele>175</ele>
        <time>2022-09-12T17:37:22Z</time>
      </trkpt>
      <trkpt lat="49.00656" lon="2.00183">
        <ele>175</ele>
        <time>2022-09-12T17:37:27Z</time>
      </trkpt>
      <trkpt lat="49.00654" lon="2.00185">
        <ele>175</ele>
        <time>2022-09-12T17:37:33Z</time>
      </trkpt>
      <trkpt lat="49.00648" lon="2.00187">
        <ele>175</ele>
        <time>2022-09-12T17:37:39Z</time>
      </trkpt>
      <trkpt lat="49.00644" lon="2.00187">
        <ele>175</ele>
        <time>2022-09-12T17:37:45Z</time>
      </trkpt>
      <trkpt lat="49.0064" lon="2.00187">
        <ele>175</ele>
        <time>2022-09-12T17:37:51Z</time>
      </trkpt>
      <trkpt lat="49.00634" lon="2.00189">
        <ele>175</ele>
        <time>2022-09-12T17:37:56Z</time>
      </trkpt>
      <trkpt lat="49.00628" lon="2.00193">
        <ele>175</ele>
        <time>2022-09-12T17:38:01Z</time>
      </trkpt>
      <trkpt lat="49.0062" lon="2.00196">
        <ele>175</ele>
        <time>2022-09-12T17:38:07Z</time>
      </trkpt>
      <trkpt lat="49.00615" lon="2.00199">
        <ele>175</ele>
        <time>2022-09-12T17:38:12Z</time>
      </trkpt>
      <trkpt lat="49.00607" lon="2.00202">
        <ele>174.9</ele>
        <time>2022-09-12T17:38:18Z</time>
      </trkpt>
      <trkpt lat="49.00601" lon="2.00207">
        <ele>174.8</ele>
        <time>2022-09-12T17:38:24Z</time>
      </trkpt>
      <trkpt lat="49.00601" lon="2.00215">
        <ele>174.9</ele>
        <time>2022-09-12T17:38:30Z</time>
      </trkpt>
      <trkpt lat="49.00603" lon="2.00223">
        <ele>175</ele>
        <time>2022-09-12T17:38:35Z</time>
      </trkpt>
      <trkpt lat="49.00607" lon="2.00236">
        <ele>175</ele>
        <time>2022-09-12T17:38:41Z</time>
      </trkpt>
      <trkpt lat="49.00612" lon="2.00248">
        <ele>175</ele>
        <time>2022-09-12T17:38:47Z</time>
      </trkpt>
      <trkpt lat="49.00615" lon="2.00257">
        <ele>175</ele>
        <time>2022-09-12T17:38:52Z</time>
      </trkpt>
      <trkpt lat="49.00617" lon="2.00265">
        <ele>175</ele>
        <time>2022-09-12T17:38:57Z</time>
      </trkpt>
      <trkpt lat="49.00619" lon="2.00276">
        <ele>175</ele>
        <time>2022-09-12T17:39:03Z</time>
      </trkpt>
      <trkpt lat="49.0062" lon="2.00287">
        <ele>175</ele>
        <time>2022-09-12T17:39:09Z</time>
      </trkpt>
      <trkpt lat="49.00621" lon="2.00297">
        <ele>175</ele>
        <time>2022-09-12T17:39:15Z</time>
      </trkpt>
      <trkpt lat="49.00621" lon="2.00308">
        <ele>175</ele>
        <time>2022-09-12T17:39:21Z</time>
      </trkpt>
      <trkpt lat="49.00622" lon="2.00318">
        <ele>175</ele>
        <time>2022-09-12T17:39:27Z</time>
      </trkpt>
      <trkpt lat="49.00624" lon="2.00327">
        <ele>175</ele>
        <time>2022-09-12T17:39:33Z</time>
      </trkpt>
      <trkpt lat="49.00627" lon="2.00336">
        <ele>175</ele>
        <time>2022-09-12T17:39:38Z</time>
      </trkpt>
      <trkpt lat="49.0063" lon="2.00344">
        <ele>175</ele>
        <time>2022-09-12T17:39:43Z</time>
      </trkpt>
      <trkpt lat="49.00634" lon="2.00354">
        <ele>175</ele>
        <time>2022-09-12T17:39:49Z</time>
      </trkpt>
      <trkpt lat="49.00637" lon="2.00361">
        <ele>175</ele>
        <time>2022-09-12T17:39:54Z</time>
      </trkpt>
      <trkpt lat="49.00639" lon="2.00372">
        <ele>175</ele>
        <time>2022-09-12T17:40:00Z</time>
      </trkpt>
      <trkpt lat="49.00641" lon="2.00383">
        <ele>175</ele>
        <time>2022-09-12T17:40:06Z</time>
      </trkpt>
      <trkpt lat="49.00641" lon="2.00392">
        <ele>175</ele>
        <time>2022-09-12T17:40:11Z</time>
      </trkpt>
      <trkpt lat="49.00641" lon="2.00403">
        <ele>175</ele>
        <time>2022-09-12T17:40:17Z</time>
      </trkpt>
      <trkpt lat="49.00641" lon="2.00414">
        <ele>175</ele>
        <time>2022-09-12T17:40:23Z</time>
      </trkpt>
      <trkpt lat="49.00642" lon="2.00426">
        <ele>175</ele>
        <time>2022-09-12T17:40:29Z</time>
      </trkpt>
      <trkpt lat="49.00642" lon="2.00434">
        <ele>175.1</ele>
        <time>2022-09-12T17:40:34Z</time>
      </trkpt>
      <trkpt lat="49.00644" lon="2.00443">
        <ele>175.2</ele>
        <time>2022-09-12T17:40:40Z</time>
      </trkpt>
      <trkpt lat="49.00649" lon="2.00451">
        <ele>175.5</ele>
        <time>2022-09-12T17:40:46Z</time>
      </trkpt>
      <trkpt lat="49.00654" lon="2.00457">
        <ele>175.7</ele>
        <time>2022-09-12T17:40:52Z</time>
      </trkpt>
      <trkpt lat="49.00659" lon="2.0046">
        <ele>175.9</ele>
        <time>2022-09-12T17:40:57Z</time>
      </trkpt>
      <trkpt lat="49.00664" lon="2.00463">
        <ele>176</ele>
        <time>2022-09-12T17:41:03Z</time>
      </trkpt>
      <trkpt lat="49.0067" lon="2.00467">
        <ele>176</ele>
        <time>2022-09-12T17:41:09Z</time>
      </trkpt>
      <trkpt lat="49.00677" lon="2.00468">
        <ele>176</ele>
        <time>2022-09-12T17:41:15Z</time>
      </trkpt>
      <trkpt lat="49.00683" lon="2.0047">
        <ele>176</ele>
        <time>2022-09-12T17:41:20Z</time>
      </trkpt>
      <trkpt lat="49.0069" lon="2.00474">
        <ele>176</ele>
        <time>2022-09-12T17:41:26Z</time>
      </trkpt>
      <trkpt lat="49.00696" lon="2.00477">
        <ele>176</ele>
        <time>2022-09-12T17:41:31Z</time>
      </trkpt>
      <trkpt lat="49.00703" lon="2.00481">
        <ele>176.1</ele>
        <time>2022-09-12T17:41:37Z</time>
      </trkpt>
      <trkpt lat="49.00708" lon="2.00485">
        <ele>176.2</ele>
        <time>2022-09-12T17:41:43Z</time>
      </trkpt>
      <trkpt lat="49.00714" lon="2.00488">
        <ele>176.4</ele>
        <time>2022-09-12T17:41:48Z</time>
      </trkpt>
      <trkpt lat="49.00719" lon="2.00493">
        <ele>176.6</ele>
        <time>2022-09-12T17:41:53Z</time>
      </trkpt>
      <trkpt lat="49.00725" lon="2.00496">
        <ele>176.9</ele>
        <time>2022-09-12T17:41:58Z</time>
      </trkpt>
      <trkpt lat="49.00731" lon="2.00498">
        <ele>176.9</ele>
        <time>2022-09-12T17:42:04Z</time>
      </trkpt>
      <trkpt lat="49.00735" lon="2.00499">
        <ele>177</ele>
        <time>2022-09-12T17:42:09Z</time>
      </trkpt>
      <trkpt lat="49.00738" lon="2.00499">
        <ele>177</ele>
        <time>2022-09-12T17:42:14Z</time>
      </trkpt>
      <trkpt lat="49.00742" lon="2.00503">
        <ele>177</ele>
        <time>2022-09-12T17:42:20Z</time>
      </trkpt>
      <trkpt lat="49.00746" lon="2.00504">
        <ele>177</ele>
        <time>2022-09-12T17:42:26Z</time>
      </trkpt>
      <trkpt lat="49.00747" lon="2.00507">
        <ele>177</ele>
        <time>2022-09-12T17:42:31Z</time>
      </trkpt>
      <trkpt lat="49.00749" lon="2.00507">
        <ele>177</ele>
        <time>2022-09-12T17:42:37Z</time>
      </trkpt>
      <trkpt lat="49.00749" lon="2.00507">
        <ele>177</ele>
        <time>2022-09-12T17:42:43Z</time>
      </trkpt>
      <trkpt lat="49.0075" lon="2.00505">
        <ele>177</ele>
        <time>2022-09-12T17:42:49Z</time>
      </trkpt>
      <trkpt lat="49.00752" lon="2.00498">
        <ele>177</ele>
        <time>2022-09-12T17:42:54Z</time>
      </trkpt>
      <trkpt lat="49.00755" lon="2.00488">
        <ele>177</ele>
        <time>2022-09-12T17:42:59Z</time>
      </trkpt>
      <trkpt lat="49.00758" lon="2.0048">
        <ele>177</ele>
        <time>2022-09-12T17:43:05Z</time>
      </trkpt>
      <trkpt lat="49.00762" lon="2.00472">
        <ele>177</ele>
        <time>2022-09-12T17:43:11Z</time>
      </trkpt>
      <trkpt lat="49.00766" lon="2.00464">
        <ele>176.9</ele>
        <time>2022-09-12T17:43:17Z</time>
      </trkpt>
      <trkpt lat="49.00768" lon="2.00458">
        <ele>176.8</ele>
        <time>2022-09-12T17:43:22Z</time>
      </trkpt>
      <trkpt lat="49.00772" lon="2.00455">
        <ele>176.9</ele>
        <time>2022-09-12T17:43:27Z</time>
      </trkpt>
      <trkpt lat="49.00779" lon="2.00452">
        <ele>177</ele>
        <time>2022-09-12T17:43:33Z</time>
      </trkpt>
      <trkpt lat="49.00786" lon="2.00448">
        <ele>177</ele>
        <time>2022-09-12T17:43:38Z</time>
      </trkpt>
      <trkpt lat="49.00794" lon="2.00447">
        <ele>177</ele>
        <time>2022-09-12T17:43:44Z</time>
      </trkpt>
      <trkpt lat="49.008" lon="2.00447">
        <ele>177</ele>
        <time>2022-09-12T17:43:49Z</time>
      </trkpt>
      <trkpt lat="49.00807" lon="2.00448">
        <ele>177</ele>
        <time>2022-09-12T17:43:55Z</time>
      </trkpt>
      <trkpt lat="49.00813" lon="2.00449">
        <ele>177</ele>
        <time>2022-09-12T17:44:01Z</time>
      </trkpt>
      <trkpt lat="49.00818" lon="2.00451">
        <ele>177</ele>
        <time>2022-09-12T17:44:06Z</time>
      </trkpt>
      <trkpt lat="49.00823" lon="2.00452">
        <ele>177</ele>
        <time>2022-09-12T17:44:12Z</time>
      </trkpt>
      <trkpt lat="49.0083" lon="2.00455">
        <ele>177</ele>
        <time>2022-09-12T17:44:17Z</time>
      </trkpt>
      <trkpt lat="49.00836" lon="2.00461">
        <ele>177</ele>
        <time>2022-09-12T17:44:22Z</time>
      </trkpt>
      <trkpt lat="49.00839" lon="2.00467">
        <ele>177</ele>
        <time>2022-09-12T17:44:29Z</time>
      </trkpt>
      <trkpt lat="49.00839" lon="2.00474">
        <ele>177</ele>
        <time>2022-09-12T17:44:34Z</time>
      </trkpt>
      <trkpt lat="49.00838" lon="2.00477">
        <ele>177</ele>
        <time>2022-09-12T17:44:40Z</time>
      </trkpt>
      <trkpt lat="49.00836" lon="2.0048">
        <ele>177</ele>
        <time>2022-09-12T17:44:45Z</time>
      </trkpt>
      <trkpt lat="49.00836" lon="2.00478">
        <ele>177</ele>
        <time>2022-09-12T17:44:50Z</time>
      </trkpt>
      <trkpt lat="49.00836" lon="2.00476">
        <ele>177</ele>
        <time>2022-09-12T17:44:56Z</time>
      </trkpt>
      <trkpt lat="49.00837" lon="2.00475">
        <ele>177</ele>
        <time>2022-09-12T17:45:02Z</time>
      </trkpt>
      <trkpt lat="49.00837" lon="2.00474">
        <ele>177</ele>
        <time>2022-09-12T17:45:07Z</time>
      </trkpt>
      <trkpt lat="49.00837" lon="2.00474">
        <ele>177</ele>
        <time>2022-09-12T17:45:12Z</time>
      </trkpt>
      <trkpt lat="49.00837" lon="2.00474">
        <ele>177</ele>
        <time>2022-09-12T17:45:17Z</time>
      </trkpt>
      <trkpt lat="49.00837" lon="2.00474">
        <ele>177</ele>
        <time>2022-09-12T17:45:23Z</time>
      </trkpt>
      <trkpt lat="49.00842" lon="2.00473">
        <ele>177</ele>
        <time>2022-09-12T17:45:29Z</time>
      </trkpt>
      <trkpt lat="49.00849" lon="2.00474">
        <ele>177</ele>
        <time>2022-09-12T17:45:35Z</time>
      </trkpt>
      <trkpt lat="49.00854" lon="2.00479">
        <ele>177</ele>
        <time>2022-09-12T17:45:41Z</time>
      </trkpt>
      <trkpt lat="49.00857" lon="2.00487">
        <ele>177</ele>
        <time>2022-09-12T17:45:46Z</time>
      </trkpt>
      <trkpt lat="49.0086" lon="2.00498">
        <ele>177</ele>
        <time>2022-09-12T17:45:52Z</time>
      </trkpt>
      <trkpt lat="49.00862" lon="2.0051">
        <ele>177</ele>
        <time>2022-09-12T17:45:58Z</time>
      </trkpt>
      <trkpt lat="49.00863" lon="2.00522">
        <ele>177</ele>
        <time>2022-09-12T17:46:04Z</time>
      </trkpt>
      <trkpt lat="49.00864" lon="2.00533">
        <ele>177.2</ele>
        <time>2022-09-12T17:46:09Z</time>
      </trkpt>
      <trkpt lat="49.00864" lon="2.00543">
        <ele>177.6</ele>
        <time>2022-09-12T17:46:15Z</time>
      </trkpt>
      <trkpt lat="49.00863" lon="2.00554">
        <ele>178</ele>
        <time>2022-09-12T17:46:21Z</time>
      </trkpt>
      <trkpt lat="49.00861" lon="2.00563">
        <ele>178</ele>
        <time>2022-09-12T17:46:26Z</time>
      </trkpt>
      <trkpt lat="49.00857" lon="2.00573">
        <ele>177.9</ele>
        <time>2022-09-12T17:46:32Z</time>
      </trkpt>
      <trkpt lat="49.00853" lon="2.00579">
        <ele>178</ele>
        <time>2022-09-12T17:46:37Z</time>
      </trkpt>
      <trkpt lat="49.00847" lon="2.00586">
        <ele>178</ele>
        <time>2022-09-12T17:46:43Z</time>
      </trkpt>
      <trkpt lat="49.00839" lon="2.00593">
        <ele>178.1</ele>
        <time>2022-09-12T17:46:49Z</time>
      </trkpt>
      <trkpt lat="49.00832" lon="2.00598">
        <ele>178</ele>
        <time>2022-09-12T17:46:55Z</time>
      </trkpt>
      <trkpt lat="49.00825" lon="2.00604">
        <ele>177.9</ele>
        <time>2022-09-12T17:47:01Z</time>
      </trkpt>
      <trkpt lat="49.0082" lon="2.00609">
        <ele>178</ele>
        <time>2022-09-12T17:47:06Z</time>
      </trkpt>
      <trkpt lat="49.00816" lon="2.0061">
        <ele>178</ele>
        <time>2022-09-12T17:47:11Z</time>
      </trkpt>
      <trkpt lat="49.00808" lon="2.00612">
        <ele>178</ele>
        <time>2022-09-12T17:47:17Z</time>
      </trkpt>
      <trkpt lat="49.00801" lon="2.00613">
        <ele>177.8</ele>
        <time>2022-09-12T17:47:22Z</time>
      </trkpt>
      <trkpt lat="49.00794" lon="2.00614">
        <ele>177.6</ele>
        <time>2022-09-12T17:47:28Z</time>
      </trkpt>
      <trkpt lat="49.00789" lon="2.00615">
        <ele>177.4</ele>
        <time>2022-09-12T17:47:33Z</time>
      </trkpt>
      <trkpt lat="49.00785" lon="2.00619">
        <ele>177.3</ele>
        <time>2022-09-12T17:47:39Z</time>
      </trkpt>
      <trkpt lat="49.00784" lon="2.00628">
        <ele>177.2</ele>
        <time>2022-09-12T17:47:44Z</time>
      </trkpt>
      <trkpt lat="49.00781" lon="2.00639">
        <ele>177.1</ele>
        <time>2022-09-12T17:47:49Z</time>
      </trkpt>
      <trkpt lat="49.00778" lon="2.00647">
        <ele>177</ele>
        <time>2022-09-12T17:47:54Z</time>
      </trkpt>
      <trkpt lat="49.00772" lon="2.00654">
        <ele>177</ele>
        <time>2022-09-12T17:48:00Z</time>
      </trkpt>
      <trkpt lat="49.00765" lon="2.00658">
        <ele>177</ele>
        <time>2022-09-12T17:48:06Z</time>
      </trkpt>
      <trkpt lat="49.0076" lon="2.00662">
        <ele>177</ele>
        <time>2022-09-12T17:48:11Z</time>
      </trkpt>
      <trkpt lat="49.00752" lon="2.00667">
        <ele>177</ele>
        <time>2022-09-12T17:48:17Z</time>
      </trkpt>
      <trkpt lat="49.00746" lon="2.00672">
        <ele>177</ele>
        <time>2022-09-12T17:48:22Z</time>
      </trkpt>
      <trkpt lat="49.00737" lon="2.00676">
        <ele>177</ele>
        <time>2022-09-12T17:48:28Z</time>
      </trkpt>
      <trkpt lat="49.00731" lon="2.00678">
        <ele>177</ele>
        <time>2022-09-12T17:48:33Z</time>
      </trkpt>
      <trkpt lat="49.00721" lon="2.00678">
        <ele>177</ele>
        <time>2022-09-12T17:48:39Z</time>
      </trkpt>
      <trkpt lat="49.00715" lon="2.00679">
        <ele>177</ele>
        <time>2022-09-12T17:48:44Z</time>
      </trkpt>
      <trkpt lat="49.00708" lon="2.00681">
        <ele>177</ele>
        <time>2022-09-12T17:48:50Z</time>
      </trkpt>
      <trkpt lat="49.00699" lon="2.00684">
        <ele>177</ele>
        <time>2022-09-12T17:48:56Z</time>
      </trkpt>
      <trkpt lat="49.00692" lon="2.00686">
        <ele>177</ele>
        <time>2022-09-12T17:49:01Z</time>
      </trkpt>
      <trkpt lat="49.00684" lon="2.00689">
        <ele>177</ele>
        <time>2022-09-12T17:49:07Z</time>
      </trkpt>
      <trkpt lat="49.00676" lon="2.00689">
        <ele>177</ele>
        <time>2022-09-12T17:49:13Z</time>
      </trkpt>
      <trkpt lat="49.00669" lon="2.00692">
        <ele>177</ele>
        <time>2022-09-12T17:49:19Z</time>
      </trkpt>
      <trkpt lat="49.00662" lon="2.00695">
        <ele>177.1</ele>
        <time>2022-09-12T17:49:24Z</time>
      </trkpt>
      <trkpt lat="49.00653" lon="2.00697">
        <ele>177.5</ele>
        <time>2022-09-12T17:49:30Z</time>
      </trkpt>
      <trkpt lat="49.00646" lon="2.007">
        <ele>177.6</ele>
        <time>2022-09-12T17:49:35Z</time>
      </trkpt>
      <trkpt lat="49.00637" lon="2.00704">
        <ele>177.7</ele>
        <time>2022-09-12T17:49:41Z</time>
      </trkpt>
      <trkpt lat="49.0063" lon="2.00707">
        <ele>177.7</ele>
        <time>2022-09-12T17:49:46Z</time>
      </trkpt>
      <trkpt lat="49.00621" lon="2.00711">
        <ele>177.8</ele>
        <time>2022-09-12T17:49:51Z</time>
      </trkpt>
      <trkpt lat="49.00614" lon="2.00713">
        <ele>177.9</ele>
        <time>2022-09-12T17:49:56Z</time>
      </trkpt>
      <trkpt lat="49.00607" lon="2.00715">
        <ele>178</ele>
        <time>2022-09-12T17:50:02Z</time>
      </trkpt>
      <trkpt lat="49.00601" lon="2.00719">
        <ele>178</ele>
        <time>2022-09-12T17:50:07Z</time>
      </trkpt>
      <trkpt lat="49.00592" lon="2.00719">
        <ele>178</ele>
        <time>2022-09-12T17:50:13Z</time>
      </trkpt>
      <trkpt lat="49.00586" lon="2.00719">
        <ele>178</ele>
        <time>2022-09-12T17:50:18Z</time>
      </trkpt>
      <trkpt lat="49.00581" lon="2.00719">
        <ele>178</ele>
        <time>2022-09-12T17:50:23Z</time>
      </trkpt>
      <trkpt lat="49.00574" lon="2.0072">
        <ele>178</ele>
        <time>2022-09-12T17:50:29Z</time>
      </trkpt>
      <trkpt lat="49.00567" lon="2.00724">
        <ele>178</ele>
        <time>2022-09-12T17:50:34Z</time>
      </trkpt>
      <trkpt lat="49.0056" lon="2.00726">
        <ele>178</ele>
        <time>2022-09-12T17:50:39Z</time>
      </trkpt>
      <trkpt lat="49.00552" lon="2.00728">
        <ele>178</ele>
        <time>2022-09-12T17:50:45Z</time>
      </trkpt>
      <trkpt lat="49.00544" lon="2.0073">
        <ele>178</ele>
        <time>2022-09-12T17:50:50Z</time>
      </trkpt>
      <trkpt lat="49.00534" lon="2.00732">
        <ele>178</ele>
        <time>2022-09-12T17:50:56Z</time>
      </trkpt>
      <trkpt lat="49.00526" lon="2.00734">
        <ele>178</ele>
        <time>2022-09-12T17:51:02Z</time>
      </trkpt>
      <trkpt lat="49.00517" lon="2.00738">
        <ele>178</ele>
        <time>2022-09-12T17:51:08Z</time>
      </trkpt>
      <trkpt lat="49.0051" lon="2.0074">
        <ele>178</ele>
        <time>2022-09-12T17:51:13Z</time>
      </trkpt>
      <trkpt lat="49.00504" lon="2.00743">
        <ele>178</ele>
        <time>2022-09-12T17:51:19Z</time>
      </trkpt>
      <trkpt lat="49.00497" lon="2.00747">
        <ele>178</ele>
        <time>2022-09-12T17:51:24Z</time>
      </trkpt>
      <trkpt lat="49.00491" lon="2.0075">
        <ele>178</ele>
        <time>2022-09-12T17:51:29Z</time>
      </trkpt>
      <trkpt lat="49.00485" lon="2.00752">
        <ele>178</ele>
        <time>2022-09-12T17:51:35Z</time>
      </trkpt>
      <trkpt lat="49.0048" lon="2.00751">
        <ele>178</ele>
        <time>2022-09-12T17:51:41Z</time>
      </trkpt>
      <trkpt lat="49.00471" lon="2.00751">
        <ele>178</ele>
        <time>2022-09-12T17:51:46Z</time>
      </trkpt>
      <trkpt lat="49.00462" lon="2.00754">
        <ele>178</ele>
        <time>2022-09-12T17:51:52Z</time>
      </trkpt>
      <trkpt lat="49.00454" lon="2.00756">
        <ele>178</ele>
        <time>2022-09-12T17:51:57Z</time>
      </trkpt>
      <trkpt lat="49.00445" lon="2.0076">
        <ele>178</ele>
        <time>2022-09-12T17:52:02Z</time>
      </trkpt>
      <trkpt lat="49.00437" lon="2.00761">
        <ele>178.2</ele>
        <time>2022-09-12T17:52:08Z</time>
      </trkpt>
      <trkpt lat="49.00429" lon="2.00762">
        <ele>178.3</ele>
        <time>2022-09-12T17:52:14Z</time>
      </trkpt>
      <trkpt lat="49.00422" lon="2.00765">
        <ele>178.4</ele>
        <time>2022-09-12T17:52:19Z</time>
      </trkpt>
      <trkpt lat="49.00414" lon="2.00768">
        <ele>178.4</ele>
        <time>2022-09-12T17:52:25Z</time>
      </trkpt>
      <trkpt lat="49.00404" lon="2.0077">
        <ele>178.3</ele>
        <time>2022-09-12T17:52:31Z</time>
      </trkpt>
      <trkpt lat="49.00395" lon="2.00773">
        <ele>178.2</ele>
        <time>2022-09-12T17:52:37Z</time>
      </trkpt>
      <trkpt lat="49.00385" lon="2.00777">
        <ele>178</ele>
        <time>2022-09-12T17:52:43Z</time>
      </trkpt>
      <trkpt lat="49.00378" lon="2.00779">
        <ele>178</ele>
        <time>2022-09-12T17:52:48Z</time>
      </trkpt>
      <trkpt lat="49.00371" lon="2.00781">
        <ele>178</ele>
        <time>2022-09-12T17:52:54Z</time>
      </trkpt>
      <trkpt lat="49.00362" lon="2.00783">
        <ele>178</ele>
        <time>2022-09-12T17:53:00Z</time>
      </trkpt>
      <trkpt lat="49.00355" lon="2.00785">
        <ele>178</ele>
        <time>2022-09-12T17:53:06Z</time>
      </trkpt>
      <trkpt lat="49.00346" lon="2.00788">
        <ele>178</ele>
        <time>2022-09-12T17:53:11Z</time>
      </trkpt>
      <trkpt lat="49.00337" lon="2.00793">
        <ele>178</ele>
        <time>2022-09-12T17:53:17Z</time>
      </trkpt>
      <trkpt lat="49.00329" lon="2.00798">
        <ele>178</ele>
        <time>2022-09-12T17:53:23Z</time>
      </trkpt>
      <trkpt lat="49.00321" lon="2.00799">
        <ele>178</ele>
        <time>2022-09-12T17:53:29Z</time>
      </trkpt>
      <trkpt lat="49.00314" lon="2.00801">
        <ele>178</ele>
        <time>2022-09-12T17:53:34Z</time>
      </trkpt>
      <trkpt lat="49.00307" lon="2.00804">
        <ele>178</ele>
        <time>2022-09-12T17:53:39Z</time>
      </trkpt>
      <trkpt lat="49.00302" lon="2.00805">
        <ele>177.9</ele>
        <time>2022-09-12T17:53:44Z</time>
      </trkpt>
      <trkpt lat="49.00294" lon="2.00806">
        <ele>177.6</ele>
        <time>2022-09-12T17:53:50Z</time>
      </trkpt>
      <trkpt lat="49.00286" lon="2.00811">
        <ele>177.4</ele>
        <time>2022-09-12T17:53:56Z</time>
      </trkpt>
      <trkpt lat="49.0028" lon="2.0082">
        <ele>177.6</ele>
        <time>2022-09-12T17:54:02Z</time>
      </trkpt>
      <trkpt lat="49.00276" lon="2.00832">
        <ele>177.9</ele>
        <time>2022-09-12T17:54:07Z</time>
      </trkpt>
      <trkpt lat="49.00271" lon="2.00847">
        <ele>177.9</ele>
        <time>2022-09-12T17:54:13Z</time>
      </trkpt>
      <trkpt lat="49.00267" lon="2.0086">
        <ele>178</ele>
        <time>2022-09-12T17:54:19Z</time>
      </trkpt>
      <trkpt lat="49.00267" lon="2.00872">
        <ele>178</ele>
        <time>2022-09-12T17:54:24Z</time>
      </trkpt>
      <trkpt lat="49.00264" lon="2.00885">
        <ele>178</ele>
        <time>2022-09-12T17:54:30Z</time>
      </trkpt>
      <trkpt lat="49.00262" lon="2.00898">
        <ele>178</ele>
        <time>2022-09-12T17:54:36Z</time>
      </trkpt>
      <trkpt lat="49.00259" lon="2.00912">
        <ele>178</ele>
        <time>2022-09-12T17:54:42Z</time>
      </trkpt>
      <trkpt lat="49.00257" lon="2.00922">
        <ele>178</ele>
        <time>2022-09-12T17:54:47Z</time>
      </trkpt>
      <trkpt lat="49.00253" lon="2.00933">
        <ele>178</ele>
        <time>2022-09-12T17:54:52Z</time>
      </trkpt>
      <trkpt lat="49.00249" lon="2.00945">
        <ele>178</ele>
        <time>2022-09-12T17:54:58Z</time>
      </trkpt>
      <trkpt lat="49.00247" lon="2.00958">
        <ele>178</ele>
        <time>2022-09-12T17:55:04Z</time>
      </trkpt>
      <trkpt lat="49.00245" lon="2.00968">
        <ele>178</ele>
        <time>2022-09-12T17:55:09Z</time>
      </trkpt>
      <trkpt lat="49.00241" lon="2.00979">
        <ele>178</ele>
        <time>2022-09-12T17:55:15Z</time>
      </trkpt>
      <trkpt lat="49.00237" lon="2.00988">
        <ele>178</ele>
        <time>2022-09-12T17:55:20Z</time>
      </trkpt>
      <trkpt lat="49.00235" lon="2.01002">
        <ele>178</ele>
        <time>2022-09-12T17:55:26Z</time>
      </trkpt>
      <trkpt lat="49.00232" lon="2.01014">
        <ele>178</ele>
        <time>2022-09-12T17:55:31Z</time>
      </trkpt>
      <trkpt lat="49.00229" lon="2.01023">
        <ele>178</ele>
        <time>2022-09-12T17:55:36Z</time>
      </trkpt>
      <trkpt lat="49.00227" lon="2.01035">
        <ele>178</ele>
        <time>2022-09-12T17:55:42Z</time>
      </trkpt>
      <trkpt lat="49.00223" lon="2.01047">
        <ele>178</ele>
        <time>2022-09-12T17:55:47Z</time>
      </trkpt>
      <trkpt lat="49.0022" lon="2.0106">
        <ele>177.9</ele>
        <time>2022-09-12T17:55:53Z</time>
      </trkpt>
      <trkpt lat="49.00217" lon="2.01069">
        <ele>177.8</ele>
        <time>2022-09-12T17:55:58Z</time>
      </trkpt>
      <trkpt lat="49.00214" lon="2.01079">
        <ele>177.7</ele>
        <time>2022-09-12T17:56:03Z</time>
      </trkpt>
      <trkpt lat="49.0021" lon="2.01092">
        <ele>177.6</ele>
        <time>2022-09-12T17:56:09Z</time>
      </trkpt>
      <trkpt lat="49.00208" lon="2.01101">
        <ele>177.5</ele>
        <time>2022-09-12T17:56:14Z</time>
      </trkpt>
      <trkpt lat="49.00206" lon="2.01112">
        <ele>177.4</ele>
        <time>2022-09-12T17:56:20Z</time>
      </trkpt>
      <trkpt lat="49.00203" lon="2.01122">
        <ele>177.2</ele>
        <time>2022-09-12T17:56:26Z</time>
      </trkpt>
      <trkpt lat="49.002" lon="2.01128">
        <ele>177.1</ele>
        <time>2022-09-12T17:56:31Z</time>
      </trkpt>
      <trkpt lat="49.00198" lon="2.01134">
        <ele>177</ele>
        <time>2022-09-12T17:56:37Z</time>
      </trkpt>
      <trkpt lat="49.00195" lon="2.0115">
        <ele>177</ele>
        <time>2022-09-12T17:56:43Z</time>
      </trkpt>
      <trkpt lat="49.00191" lon="2.01162">
        <ele>177</ele>
        <time>2022-09-12T17:56:48Z</time>
      </trkpt>
      <trkpt lat="49.00187" lon="2.01171">
        <ele>177</ele>
        <time>2022-09-12T17:56:53Z</time>
      </trkpt>
      <trkpt lat="49.00184" lon="2.01184">
        <ele>177</ele>
        <time>2022-09-12T17:56:59Z</time>
      </trkpt>
      <trkpt lat="49.00183" lon="2.01192">
        <ele>177</ele>
        <time>2022-09-12T17:57:04Z</time>
      </trkpt>
      <trkpt lat="49.00181" lon="2.01204">
        <ele>176.7</ele>
        <time>2022-09-12T17:57:10Z</time>
      </trkpt>
      <trkpt lat="49.00176" lon="2.01212">
        <ele>176.4</ele>
        <time>2022-09-12T17:57:15Z</time>
      </trkpt>
      <trkpt lat="49.00173" lon="2.01224">
        <ele>176</ele>
        <time>2022-09-12T17:57:21Z</time>
      </trkpt>
      <trkpt lat="49.00169" lon="2.01236">
        <ele>176</ele>
        <time>2022-09-12T17:57:27Z</time>
      </trkpt>
      <trkpt lat="49.00167" lon="2.01245">
        <ele>176</ele>
        <time>2022-09-12T17:57:32Z</time>
      </trkpt>
      <trkpt lat="49.00165" lon="2.01258">
        <ele>175.7</ele>
        <time>2022-09-12T17:57:38Z</time>
      </trkpt>
      <trkpt lat="49.00162" lon="2.01268">
        <ele>175.5</ele>
        <time>2022-09-12T17:57:44Z</time>
      </trkpt>
      <trkpt lat="49.00156" lon="2.01277">
        <ele>175.4</ele>
        <time>2022-09-12T17:57:49Z</time>
      </trkpt>
      <trkpt lat="49.0015" lon="2.01285">
        <ele>175.5</ele>
        <time>2022-09-12T17:57:54Z</time>
      </trkpt>
      <trkpt lat="49.00145" lon="2.01292">
        <ele>175.7</ele>
        <time>2022-09-12T17:58:00Z</time>
      </trkpt>
      <trkpt lat="49.0014" lon="2.01298">
        <ele>175.9</ele>
        <time>2022-09-12T17:58:06Z</time>
      </trkpt>
      <trkpt lat="49.00135" lon="2.01302">
        <ele>176</ele>
        <time>2022-09-12T17:58:11Z</time>
      </trkpt>
      <trkpt lat="49.00133" lon="2.0131">
        <ele>175.9</ele>
        <time>2022-09-12T17:58:16Z</time>
      </trkpt>
      <trkpt lat="49.00131" lon="2.01321">
        <ele>175.6</ele>
        <time>2022-09-12T17:58:21Z</time>
      </trkpt>
      <trkpt lat="49.00129" lon="2.01333">
        <ele>175.4</ele>
        <time>2022-09-12T17:58:27Z</time>
      </trkpt>
      <trkpt lat="49.00127" lon="2.01344">
        <ele>175.2</ele>
        <time>2022-09-12T17:58:32Z</time>
      </trkpt>
      <trkpt lat="49.00124" lon="2.01357">
        <ele>175.1</ele>
        <time>2022-09-12T17:58:38Z</time>
      </trkpt>
      <trkpt lat="49.00122" lon="2.01371">
        <ele>174.8</ele>
        <time>2022-09-12T17:58:44Z</time>
      </trkpt>
      <trkpt lat="49.0012" lon="2.01387">
        <ele>174.4</ele>
        <time>2022-09-12T17:58:50Z</time>
      </trkpt>
      <trkpt lat="49.00119" lon="2.014">
        <ele>174.3</ele>
        <time>2022-09-12T17:58:56Z</time>
      </trkpt>
      <trkpt lat="49.00117" lon="2.01413">
        <ele>174.3</ele>
        <time>2022-09-12T17:59:02Z</time>
      </trkpt>
      <trkpt lat="49.00117" lon="2.01424">
        <ele>174.3</ele>
        <time>2022-09-12T17:59:07Z</time>
      </trkpt>
      <trkpt lat="49.00115" lon="2.01433">
        <ele>174.4</ele>
        <time>2022-09-12T17:59:12Z</time>
      </trkpt>
      <trkpt lat="49.00113" lon="2.01442">
        <ele>174.6</ele>
        <time>2022-09-12T17:59:17Z</time>
      </trkpt>
      <trkpt lat="49.00111" lon="2.01452">
        <ele>174.7</ele>
        <time>2022-09-12T17:59:23Z</time>
      </trkpt>
      <trkpt lat="49.00109" lon="2.01464">
        <ele>174.4</ele>
        <time>2022-09-12T17:59:28Z</time>
      </trkpt>
      <trkpt lat="49.00105" lon="2.01476">
        <ele>174.1</ele>
        <time>2022-09-12T17:59:34Z</time>
      </trkpt>
      <trkpt lat="49.00103" lon="2.01487">
        <ele>173.9</ele>
        <time>2022-09-12T17:59:39Z</time>
      </trkpt>
      <trkpt lat="49.00098" lon="2.01501">
        <ele>173.9</ele>
        <time>2022-09-12T17:59:45Z</time>
      </trkpt>
      <trkpt lat="49.00095" lon="2.0151">
        <ele>173.8</ele>
        <time>2022-09-12T17:59:50Z</time>
      </trkpt>
      <trkpt lat="49.00091" lon="2.0152">
        <ele>173.8</ele>
        <time>2022-09-12T17:59:56Z</time>
      </trkpt>
      <trkpt lat="49.00087" lon="2.01532">
        <ele>173.6</ele>
        <time>2022-09-12T18:00:02Z</time>
      </trkpt>
      <trkpt lat="49.00083" lon="2.01542">
        <ele>173.5</ele>
        <time>2022-09-12T18:00:07Z</time>
      </trkpt>
      <trkpt lat="49.0008" lon="2.01555">
        <ele>173.1</ele>
        <time>2022-09-12T18:00:13Z</time>
      </trkpt>
      <trkpt lat="49.00077" lon="2.01564">
        <ele>173.2</ele>
        <time>2022-09-12T18:00:18Z</time>
      </trkpt>
      <trkpt lat="49.00072" lon="2.01576">
        <ele>173.4</ele>
        <time>2022-09-12T18:00:24Z</time>
      </trkpt>
      <trkpt lat="49.00069" lon="2.01586">
        <ele>173.4</ele>
        <time>2022-09-12T18:00:29Z</time>
      </trkpt>
      <trkpt lat="49.00066" lon="2.01594">
        <ele>173.2</ele>
        <time>2022-09-12T18:00:34Z</time>
      </trkpt>
      <trkpt lat="49.00062" lon="2.01604">
        <ele>173</ele>
        <time>2022-09-12T18:00:40Z</time>
      </trkpt>
      <trkpt lat="49.00059" lon="2.01613">
        <ele>172.9</ele>
        <time>2022-09-12T18:00:45Z</time>
      </trkpt>
      <trkpt lat="49.00056" lon="2.01622">
        <ele>173</ele>
        <time>2022-09-12T18:00:50Z</time>
      </trkpt>
      <trkpt lat="49.00052" lon="2.01635">
        <ele>173</ele>
        <time>2022-09-12T18:00:56Z</time>
      </trkpt>
      <trkpt lat="49.00048" lon="2.01647">
        <ele>172.8</ele>
        <time>2022-09-12T18:01:02Z</time>
      </trkpt>
      <trkpt lat="49.00046" lon="2.01657">
        <ele>172.6</ele>
        <time>2022-09-12T18:01:07Z</time>
      </trkpt>
      <trkpt lat="49.00043" lon="2.01667">
        <ele>172.4</ele>
        <time>2022-09-12T18:01:12Z</time>
      </trkpt>
      <trkpt lat="49.00039" lon="2.0168">
        <ele>172.1</ele>
        <time>2022-09-12T18:01:18Z</time>
      </trkpt>
      <trkpt lat="49.00037" lon="2.01689">
        <ele>171.9</ele>
        <time>2022-09-12T18:01:23Z</time>
      </trkpt>
      <trkpt lat="49.00034" lon="2.01695">
        <ele>171.8</ele>
        <time>2022-09-12T18:01:28Z</time>
      </trkpt>
      <trkpt lat="49.00029" lon="2.01704">
        <ele>171.6</ele>
        <time>2022-09-12T18:01:34Z</time>
      </trkpt>
      <trkpt lat="49.00026" lon="2.01716">
        <ele>171.3</ele>
        <time>2022-09-12T18:01:40Z</time>
      </trkpt>
      <trkpt lat="49.00024" lon="2.01729">
        <ele>170.9</ele>
        <time>2022-09-12T18:01:46Z</time>
      </trkpt>
      <trkpt lat="49.00024" lon="2.01737">
        <ele>170.7</ele>
        <time>2022-09-12T18:01:51Z</time>
      </trkpt>
      <trkpt lat="49.00021" lon="2.01745">
        <ele>170.6</ele>
        <time>2022-09-12T18:01:56Z</time>
      </trkpt>
      <trkpt lat="49.00019" lon="2.01757">
        <ele>170.6</ele>
        <time>2022-09-12T18:02:02Z</time>
      </trkpt>
      <trkpt lat="49.00016" lon="2.01767">
        <ele>170.6</ele>
        <time>2022-09-12T18:02:08Z</time>
      </trkpt>
      <trkpt lat="49.00013" lon="2.01778">
        <ele>170.5</ele>
        <time>2022-09-12T18:02:13Z</time>
      </trkpt>
      <trkpt lat="49.00008" lon="2.01787">
        <ele>170.6</ele>
        <time>2022-09-12T18:02:19Z</time>
      </trkpt>
      <trkpt lat="49.00004" lon="2.01796">
        <ele>170.7</ele>
        <time>2022-09-12T18:02:24Z</time>
      </trkpt>
      <trkpt lat="49.00001" lon="2.01805">
        <ele>170.9</ele>
        <time>2022-09-12T18:02:29Z</time>
      </trkpt>
      <trkpt lat="48.99996" lon="2.01818">
        <ele>170.7</ele>
        <time>2022-09-12T18:02:35Z</time>
      </trkpt>
      <trkpt lat="48.99994" lon="2.01827">
        <ele>170.5</ele>
        <time>2022-09-12T18:02:40Z</time>
      </trkpt>
      <trkpt lat="48.9999" lon="2.0184">
        <ele>170.4</ele>
        <time>2022-09-12T18:02:46Z</time>
      </trkpt>
      <trkpt lat="48.99988" lon="2.0185">
        <ele>170.4</ele>
        <time>2022-09-12T18:02:52Z</time>
      </trkpt>
      <trkpt lat="48.99986" lon="2.0186">
        <ele>170.5</ele>
        <time>2022-09-12T18:02:57Z</time>
      </trkpt>
      <trkpt lat="48.99982" lon="2.0187">
        <ele>170.7</ele>
        <time>2022-09-12T18:03:03Z</time>
      </trkpt>
      <trkpt lat="48.99978" lon="2.0188">
        <ele>170.8</ele>
        <time>2022-09-12T18:03:09Z</time>
      </trkpt>
      <trkpt lat="48.99974" lon="2.01891">
        <ele>170.9</ele>
        <time>2022-09-12T18:03:15Z</time>
      </trkpt>
      <trkpt lat="48.9997" lon="2.01901">
        <ele>170.6</ele>
        <time>2022-09-12T18:03:21Z</time>
      </trkpt>
      <trkpt lat="48.99966" lon="2.01914">
        <ele>170.3</ele>
        <time>2022-09-12T18:03:27Z</time>
      </trkpt>
      <trkpt lat="48.99963" lon="2.01925">
        <ele>170</ele>
        <time>2022-09-12T18:03:32Z</time>
      </trkpt>
      <trkpt lat="48.99961" lon="2.01939">
        <ele>169.6</ele>
        <time>2022-09-12T18:03:38Z</time>
      </trkpt>
      <trkpt lat="48.99958" lon="2.01951">
        <ele>169.4</ele>
        <time>2022-09-12T18:03:44Z</time>
      </trkpt>
      <trkpt lat="48.99956" lon="2.0196">
        <ele>169.3</ele>
        <time>2022-09-12T18:03:49Z</time>
      </trkpt>
      <trkpt lat="48.99954" lon="2.01971">
        <ele>169</ele>
        <time>2022-09-12T18:03:55Z</time>
      </trkpt>
      <trkpt lat="48.99953" lon="2.01982">
        <ele>168.8</ele>
        <time>2022-09-12T18:04:01Z</time>
      </trkpt>
      <trkpt lat="48.99951" lon="2.01991">
        <ele>168.7</ele>
        <time>2022-09-12T18:04:06Z</time>
      </trkpt>
      <trkpt lat="48.99945" lon="2.02003">
        <ele>168.8</ele>
        <time>2022-09-12T18:04:11Z</time>
      </trkpt>
      <trkpt lat="48.99938" lon="2.02017">
        <ele>168.6</ele>
        <time>2022-09-12T18:04:17Z</time>
      </trkpt>
      <trkpt lat="48.99936" lon="2.02027">
        <ele>168.4</ele>
        <time>2022-09-12T18:04:23Z</time>
      </trkpt>
      <trkpt lat="48.99932" lon="2.0204">
        <ele>168</ele>
        <time>2022-09-12T18:04:28Z</time>
      </trkpt>
      <trkpt lat="48.99925" lon="2.02055">
        <ele>167.7</ele>
        <time>2022-09-12T18:04:34Z</time>
      </trkpt>
      <trkpt lat="48.99921" lon="2.02065">
        <ele>167.4</ele>
        <time>2022-09-12T18:04:40Z</time>
      </trkpt>
      <trkpt lat="48.99919" lon="2.02073">
        <ele>167.2</ele>
        <time>2022-09-12T18:04:45Z</time>
      </trkpt>
      <trkpt lat="48.99916" lon="2.02084">
        <ele>167</ele>
        <time>2022-09-12T18:04:50Z</time>
      </trkpt>
      <trkpt lat="48.99916" lon="2.02086">
        <ele>167</ele>
        <time>2022-09-12T18:04:56Z</time>
      </trkpt>
      <trkpt lat="48.99919" lon="2.0208">
        <ele>166.9</ele>
        <time>2022-09-12T18:05:02Z</time>
      </trkpt>
      <trkpt lat="48.99921" lon="2.02079">
        <ele>166.7</ele>
        <time>2022-09-12T18:05:07Z</time>
      </trkpt>
      <trkpt lat="48.99926" lon="2.02076">
        <ele>166.4</ele>
        <time>2022-09-12T18:05:13Z</time>
      </trkpt>
      <trkpt lat="48.99931" lon="2.02078">
        <ele>165.9</ele>
        <time>2022-09-12T18:05:19Z</time>
      </trkpt>
      <trkpt lat="48.99934" lon="2.02085">
        <ele>165</ele>
        <time>2022-09-12T18:05:25Z</time>
      </trkpt>
      <trkpt lat="48.99937" lon="2.02091">
        <ele>164.3</ele>
        <time>2022-09-12T18:05:31Z</time>
      </trkpt>
      <trkpt lat="48.99942" lon="2.02095">
        <ele>163.4</ele>
        <time>2022-09-12T18:05:36Z</time>
      </trkpt>
      <trkpt lat="48.99947" lon="2.02101">
        <ele>162.4</ele>
        <time>2022-09-12T18:05:42Z</time>
      </trkpt>
      <trkpt lat="48.99948" lon="2.02106">
        <ele>161.7</ele>
        <time>2022-09-12T18:05:48Z</time>
      </trkpt>
      <trkpt lat="48.9995" lon="2.02111">
        <ele>161.1</ele>
        <time>2022-09-12T18:05:53Z</time>
      </trkpt>
      <trkpt lat="48.99954" lon="2.02115">
        <ele>160.2</ele>
        <time>2022-09-12T18:05:58Z</time>
      </trkpt>
      <trkpt lat="48.99958" lon="2.02118">
        <ele>159.2</ele>
        <time>2022-09-12T18:06:04Z</time>
      </trkpt>
      <trkpt lat="48.99963" lon="2.02121">
        <ele>158.2</ele>
        <time>2022-09-12T18:06:09Z</time>
      </trkpt>
      <trkpt lat="48.99967" lon="2.02124">
        <ele>157.2</ele>
        <time>2022-09-12T18:06:14Z</time>
      </trkpt>
      <trkpt lat="48.9997" lon="2.02128">
        <ele>156.2</ele>
        <time>2022-09-12T18:06:20Z</time>
      </trkpt>
      <trkpt lat="48.99975" lon="2.02131">
        <ele>155.1</ele>
        <time>2022-09-12T18:06:25Z</time>
      </trkpt>
      <trkpt lat="48.99981" lon="2.02132">
        <ele>154.2</ele>
        <time>2022-09-12T18:06:31Z</time>
      </trkpt>
      <trkpt lat="48.99986" lon="2.02134">
        <ele>153.3</ele>
        <time>2022-09-12T18:06:36Z</time>
      </trkpt>
      <trkpt lat="48.9999" lon="2.02137">
        <ele>152.6</ele>
        <time>2022-09-12T18:06:41Z</time>
      </trkpt>
      <trkpt lat="48.99997" lon="2.02136">
        <ele>151.5</ele>
        <time>2022-09-12T18:06:47Z</time>
      </trkpt>
      <trkpt lat="49.00002" lon="2.0214">
        <ele>150.6</ele>
        <time>2022-09-12T18:06:53Z</time>
      </trkpt>
      <trkpt lat="49.00005" lon="2.02143">
        <ele>150.1</ele>
        <time>2022-09-12T18:06:58Z</time>
      </trkpt>
      <trkpt lat="49.00014" lon="2.02151">
        <ele>148.2</ele>
        <time>2022-09-12T18:07:04Z</time>
      </trkpt>
      <trkpt lat="49.0002" lon="2.02153">
        <ele>147</ele>
        <time>2022-09-12T18:07:10Z</time>
      </trkpt>
      <trkpt lat="49.00024" lon="2.02147">
        <ele>146.5</ele>
        <time>2022-09-12T18:07:15Z</time>
      </trkpt>
      <trkpt lat="49.00029" lon="2.02142">
        <ele>145.7</ele>
        <time>2022-09-12T18:07:20Z</time>
      </trkpt>
      <trkpt lat="49.00032" lon="2.02136">
        <ele>145.5</ele>
        <time>2022-09-12T18:07:26Z</time>
      </trkpt>
      <trkpt lat="49.00035" lon="2.0213">
        <ele>145.4</ele>
        <time>2022-09-12T18:07:31Z</time>
      </trkpt>
      <trkpt lat="49.00038" lon="2.02129">
        <ele>145.1</ele>
        <time>2022-09-12T18:07:37Z</time>
      </trkpt>
      <trkpt lat="49.00045" lon="2.02132">
        <ele>144.1</ele>
        <time>2022-09-12T18:07:42Z</time>
      </trkpt>
      <trkpt lat="49.00053" lon="2.02136">
        <ele>142.6</ele>
        <time>2022-09-12T18:07:48Z</time>
      </trkpt>
      <trkpt lat="49.00059" lon="2.02136">
        <ele>142.2</ele>
        <time>2022-09-12T18:07:53Z</time>
      </trkpt>
      <trkpt lat="49.00065" lon="2.0214">
        <ele>141.6</ele>
        <time>2022-09-12T18:07:59Z</time>
      </trkpt>
      <trkpt lat="49.00068" lon="2.02144">
        <ele>141.1</ele>
        <time>2022-09-12T18:08:04Z</time>
      </trkpt>
      <trkpt lat="49.00073" lon="2.02148">
        <ele>140.5</ele>
        <time>2022-09-12T18:08:09Z</time>
      </trkpt>
      <trkpt lat="49.00081" lon="2.02154">
        <ele>139.5</ele>
        <time>2022-09-12T18:08:15Z</time>
      </trkpt>
      <trkpt lat="49.00087" lon="2.02161">
        <ele>138.6</ele>
        <time>2022-09-12T18:08:20Z</time>
      </trkpt>
      <trkpt lat="49.00095" lon="2.02168">
        <ele>137.9</ele>
        <time>2022-09-12T18:08:26Z</time>
      </trkpt>
      <trkpt lat="49.00099" lon="2.02168">
        <ele>137.9</ele>
        <time>2022-09-12T18:08:31Z</time>
      </trkpt>
      <trkpt lat="49.00102" lon="2.02166">
        <ele>138.1</ele>
        <time>2022-09-12T18:08:37Z</time>
      </trkpt>
      <trkpt lat="49.0011" lon="2.02165">
        <ele>138.3</ele>
        <time>2022-09-12T18:08:43Z</time>
      </trkpt>
      <trkpt lat="49.00113" lon="2.0217">
        <ele>137.7</ele>
        <time>2022-09-12T18:08:48Z</time>
      </trkpt>
      <trkpt lat="49.00121" lon="2.02175">
        <ele>137.5</ele>
        <time>2022-09-12T18:08:54Z</time>
      </trkpt>
      <trkpt lat="49.00129" lon="2.02176">
        <ele>137.7</ele>
        <time>2022-09-12T18:08:59Z</time>
      </trkpt>
      <trkpt lat="49.0014" lon="2.02176">
        <ele>138</ele>
        <time>2022-09-12T18:09:05Z</time>
      </trkpt>
      <trkpt lat="49.00148" lon="2.02177">
        <ele>137.7</ele>
        <time>2022-09-12T18:09:10Z</time>
      </trkpt>
      <trkpt lat="49.00157" lon="2.02175">
        <ele>137.7</ele>
        <time>2022-09-12T18:09:15Z</time>
      </trkpt>
      <trkpt lat="49.00167" lon="2.02175">
        <ele>137.4</ele>
        <time>2022-09-12T18:09:21Z</time>
      </trkpt>
      <trkpt lat="49.00173" lon="2.0218">
        <ele>136.4</ele>
        <time>2022-09-12T18:09:26Z</time>
      </trkpt>
      <trkpt lat="49.00179" lon="2.02187">
        <ele>135.5</ele>
        <time>2022-09-12T18:09:32Z</time>
      </trkpt>
      <trkpt lat="49.00187" lon="2.0219">
        <ele>134.7</ele>
        <time>2022-09-12T18:09:38Z</time>
      </trkpt>
      <trkpt lat="49.00194" lon="2.02192">
        <ele>134.1</ele>
        <time>2022-09-12T18:09:44Z</time>
      </trkpt>
      <trkpt lat="49.00202" lon="2.02197">
        <ele>133.4</ele>
        <time>2022-09-12T18:09:50Z</time>
      </trkpt>
      <trkpt lat="49.00208" lon="2.02196">
        <ele>133</ele>
        <time>2022-09-12T18:09:56Z</time>
      </trkpt>
      <trkpt lat="49.00216" lon="2.02193">
        <ele>132.5</ele>
        <time>2022-09-12T18:10:02Z</time>
      </trkpt>
      <trkpt lat="49.00222" lon="2.02188">
        <ele>132.3</ele>
        <time>2022-09-12T18:10:07Z</time>
      </trkpt>
      <trkpt lat="49.00226" lon="2.02183">
        <ele>132</ele>
        <time>2022-09-12T18:10:12Z</time>
      </trkpt>
      <trkpt lat="49.00233" lon="2.02179">
        <ele>131.4</ele>
        <time>2022-09-12T18:10:18Z</time>
      </trkpt>
      <trkpt lat="49.00243" lon="2.02173">
        <ele>130.5</ele>
        <time>2022-09-12T18:10:23Z</time>
      </trkpt>
      <trkpt lat="49.00252" lon="2.02171">
        <ele>129.6</ele>
        <time>2022-09-12T18:10:29Z</time>
      </trkpt>
      <trkpt lat="49.0026" lon="2.02171">
        <ele>128.7</ele>
        <time>2022-09-12T18:10:34Z</time>
      </trkpt>
      <trkpt lat="49.00266" lon="2.0217">
        <ele>128.2</ele>
        <time>2022-09-12T18:10:39Z</time>
      </trkpt>
      <trkpt lat="49.0027" lon="2.0216">
        <ele>127.8</ele>
        <time>2022-09-12T18:10:44Z</time>
      </trkpt>
      <trkpt lat="49.00275" lon="2.0215">
        <ele>127.3</ele>
        <time>2022-09-12T18:10:50Z</time>
      </trkpt>
      <trkpt lat="49.00282" lon="2.02149">
        <ele>126.7</ele>
        <time>2022-09-12T18:10:56Z</time>
      </trkpt>
      <trkpt lat="49.00288" lon="2.02153">
        <ele>126.3</ele>
        <time>2022-09-12T18:11:01Z</time>
      </trkpt>
      <trkpt lat="49.00296" lon="2.02158">
        <ele>125.7</ele>
        <time>2022-09-12T18:11:07Z</time>
      </trkpt>
      <trkpt lat="49.00301" lon="2.02159">
        <ele>125.3</ele>
        <time>2022-09-12T18:11:12Z</time>
      </trkpt>
      <trkpt lat="49.00306" lon="2.02153">
        <ele>125</ele>
        <time>2022-09-12T18:11:18Z</time>
      </trkpt>
      <trkpt lat="49.0031" lon="2.02149">
        <ele>124.6</ele>
        <time>2022-09-12T18:11:23Z</time>
      </trkpt>
      <trkpt lat="49.00313" lon="2.02147">
        <ele>124.4</ele>
        <time>2022-09-12T18:11:28Z</time>
      </trkpt>
      <trkpt lat="49.00318" lon="2.02136">
        <ele>124.1</ele>
        <time>2022-09-12T18:11:34Z</time>
      </trkpt>
      <trkpt lat="49.00325" lon="2.02126">
        <ele>123.6</ele>
        <time>2022-09-12T18:11:40Z</time>
      </trkpt>
      <trkpt lat="49.00335" lon="2.02127">
        <ele>122.9</ele>
        <time>2022-09-12T18:11:46Z</time>
      </trkpt>
      <trkpt lat="49.00341" lon="2.02123">
        <ele>122.4</ele>
        <time>2022-09-12T18:11:52Z</time>
      </trkpt>
      <trkpt lat="49.00347" lon="2.02114">
        <ele>122</ele>
        <time>2022-09-12T18:11:57Z</time>
      </trkpt>
      <trkpt lat="49.00356" lon="2.02103">
        <ele>121.6</ele>
        <time>2022-09-12T18:12:03Z</time>
      </trkpt>
      <trkpt lat="49.00363" lon="2.02094">
        <ele>121.5</ele>
        <time>2022-09-12T18:12:09Z</time>
      </trkpt>
      <trkpt lat="49.00367" lon="2.02087">
        <ele>121.5</ele>
        <time>2022-09-12T18:12:14Z</time>
      </trkpt>
      <trkpt lat="49.00371" lon="2.02081">
        <ele>121.3</ele>
        <time>2022-09-12T18:12:19Z</time>
      </trkpt>
      <trkpt lat="49.00377" lon="2.02074">
        <ele>120.9</ele>
        <time>2022-09-12T18:12:25Z</time>
      </trkpt>
      <trkpt lat="49.00383" lon="2.02063">
        <ele>120.5</ele>
        <time>2022-09-12T18:12:30Z</time>
      </trkpt>
      <trkpt lat="49.00389" lon="2.02054">
        <ele>120</ele>
        <time>2022-09-12T18:12:36Z</time>
      </trkpt>
      <trkpt lat="49.00394" lon="2.02045">
        <ele>119.6</ele>
        <time>2022-09-12T18:12:42Z</time>
      </trkpt>
      <trkpt lat="49.004" lon="2.02032">
        <ele>119.2</ele>
        <time>2022-09-12T18:12:48Z</time>
      </trkpt>
      <trkpt lat="49.00406" lon="2.02022">
        <ele>119</ele>
        <time>2022-09-12T18:12:53Z</time>
      </trkpt>
      <trkpt lat="49.00411" lon="2.02017">
        <ele>118.8</ele>
        <time>2022-09-12T18:12:59Z</time>
      </trkpt>
      <trkpt lat="49.00419" lon="2.02006">
        <ele>118.6</ele>
        <time>2022-09-12T18:13:05Z</time>
      </trkpt>
      <trkpt lat="49.00426" lon="2.01993">
        <ele>118.5</ele>
        <time>2022-09-12T18:13:10Z</time>
      </trkpt>
      <trkpt lat="49.00432" lon="2.01984">
        <ele>118.1</ele>
        <time>2022-09-12T18:13:15Z</time>
      </trkpt>
      <trkpt lat="49.00438" lon="2.01976">
        <ele>117.7</ele>
        <time>2022-09-12T18:13:21Z</time>
      </trkpt>
      <trkpt lat="49.00443" lon="2.01967">
        <ele>117.4</ele>
        <time>2022-09-12T18:13:27Z</time>
      </trkpt>
      <trkpt lat="49.00448" lon="2.01962">
        <ele>117.1</ele>
        <time>2022-09-12T18:13:32Z</time>
      </trkpt>
      <trkpt lat="49.00452" lon="2.01955">
        <ele>116.9</ele>
        <time>2022-09-12T18:13:37Z</time>
      </trkpt>
      <trkpt lat="49.00458" lon="2.01944">
        <ele>116.5</ele>
        <time>2022-09-12T18:13:43Z</time>
      </trkpt>
      <trkpt lat="49.00462" lon="2.01941">
        <ele>116.2</ele>
        <time>2022-09-12T18:13:49Z</time>
      </trkpt>
      <trkpt lat="49.00465" lon="2.01936">
        <ele>116</ele>
        <time>2022-09-12T18:13:55Z</time>
      </trkpt>
      <trkpt lat="49.0047" lon="2.01922">
        <ele>116</ele>
        <time>2022-09-12T18:14:01Z</time>
      </trkpt>
      <trkpt lat="49.00477" lon="2.0191">
        <ele>115.3</ele>
        <time>2022-09-12T18:14:07Z</time>
      </trkpt>
      <trkpt lat="49.00483" lon="2.01902">
        <ele>114.4</ele>
        <time>2022-09-12T18:14:12Z</time>
      </trkpt>
      <trkpt lat="49.00489" lon="2.01893">
        <ele>113.6</ele>
        <time>2022-09-12T18:14:18Z</time>
      </trkpt>
      <trkpt lat="49.00495" lon="2.01885">
        <ele>112.8</ele>
        <time>2022-09-12T18:14:23Z</time>
      </trkpt>
      <trkpt lat="49.00505" lon="2.01877">
        <ele>111.9</ele>
        <time>2022-09-12T18:14:29Z</time>
      </trkpt>
      <trkpt lat="49.00512" lon="2.01871">
        <ele>111.3</ele>
        <time>2022-09-12T18:14:34Z</time>
      </trkpt>
      <trkpt lat="49.00517" lon="2.01865">
        <ele>111</ele>
        <time>2022-09-12T18:14:39Z</time>
      </trkpt>
      <trkpt lat="49.00522" lon="2.0186">
        <ele>110.6</ele>
        <time>2022-09-12T18:14:45Z</time>
      </trkpt>
      <trkpt lat="49.00527" lon="2.01856">
        <ele>110.3</ele>
        <time>2022-09-12T18:14:50Z</time>
      </trkpt>
      <trkpt lat="49.00535" lon="2.01848">
        <ele>110.2</ele>
        <time>2022-09-12T18:14:56Z</time>
      </trkpt>
      <trkpt lat="49.00543" lon="2.01839">
        <ele>110.2</ele>
        <time>2022-09-12T18:15:02Z</time>
      </trkpt>
      <trkpt lat="49.00551" lon="2.01834">
        <ele>110.1</ele>
        <time>2022-09-12T18:15:07Z</time>
      </trkpt>
      <trkpt lat="49.00559" lon="2.01829">
        <ele>110.6</ele>
        <time>2022-09-12T18:15:12Z</time>
      </trkpt>
      <trkpt lat="49.00567" lon="2.01822">
        <ele>111.5</ele>
        <time>2022-09-12T18:15:18Z</time>
      </trkpt>
      <trkpt lat="49.00575" lon="2.01816">
        <ele>112.2</ele>
        <time>2022-09-12T18:15:24Z</time>
      </trkpt>
      <trkpt lat="49.00582" lon="2.01811">
        <ele>112.6</ele>
        <time>2022-09-12T18:15:30Z</time>
      </trkpt>
      <trkpt lat="49.00586" lon="2.01808">
        <ele>112.8</ele>
        <time>2022-09-12T18:15:35Z</time>
      </trkpt>
      <trkpt lat="49.00592" lon="2.01803">
        <ele>113.1</ele>
        <time>2022-09-12T18:15:41Z</time>
      </trkpt>
      <trkpt lat="49.00598" lon="2.01799">
        <ele>113.2</ele>
        <time>2022-09-12T18:15:46Z</time>
      </trkpt>
      <trkpt lat="49.00604" lon="2.01794">
        <ele>113.4</ele>
        <time>2022-09-12T18:15:52Z</time>
      </trkpt>
      <trkpt lat="49.00609" lon="2.0179">
        <ele>113.6</ele>
        <time>2022-09-12T18:15:57Z</time>
      </trkpt>
      <trkpt lat="49.00618" lon="2.01783">
        <ele>113.8</ele>
        <time>2022-09-12T18:16:03Z</time>
      </trkpt>
      <trkpt lat="49.00627" lon="2.01773">
        <ele>114.2</ele>
        <time>2022-09-12T18:16:09Z</time>
      </trkpt>
      <trkpt lat="49.00634" lon="2.01766">
        <ele>114.5</ele>
        <time>2022-09-12T18:16:14Z</time>
      </trkpt>
      <trkpt lat="49.0064" lon="2.01756">
        <ele>114.7</ele>
        <time>2022-09-12T18:16:20Z</time>
      </trkpt>
      <trkpt lat="49.00639" lon="2.01746">
        <ele>115.1</ele>
        <time>2022-09-12T18:16:25Z</time>
      </trkpt>
      <trkpt lat="49.0064" lon="2.01734">
        <ele>115.5</ele>
        <time>2022-09-12T18:16:31Z</time>
      </trkpt>
      <trkpt lat="49.00639" lon="2.01723">
        <ele>116</ele>
        <time>2022-09-12T18:16:36Z</time>
      </trkpt>
      <trkpt lat="49.00639" lon="2.0171">
        <ele>116.4</ele>
        <time>2022-09-12T18:16:42Z</time>
      </trkpt>
      <trkpt lat="49.0064" lon="2.01697">
        <ele>116.8</ele>
        <time>2022-09-12T18:16:48Z</time>
      </trkpt>
      <trkpt lat="49.0064" lon="2.01687">
        <ele>117.2</ele>
        <time>2022-09-12T18:16:53Z</time>
      </trkpt>
      <trkpt lat="49.00639" lon="2.01675">
        <ele>117.6</ele>
        <time>2022-09-12T18:16:59Z</time>
      </trkpt>
      <trkpt lat="49.00639" lon="2.01665">
        <ele>118.1</ele>
        <time>2022-09-12T18:17:05Z</time>
      </trkpt>
      <trkpt lat="49.00637" lon="2.01654">
        <ele>118.6</ele>
        <time>2022-09-12T18:17:11Z</time>
      </trkpt>
      <trkpt lat="49.00634" lon="2.01644">
        <ele>119.1</ele>
        <time>2022-09-12T18:17:17Z</time>
      </trkpt>
      <trkpt lat="49.00632" lon="2.01634">
        <ele>119.8</ele>
        <time>2022-09-12T18:17:23Z</time>
      </trkpt>
      <trkpt lat="49.00631" lon="2.01623">
        <ele>120.5</ele>
        <time>2022-09-12T18:17:29Z</time>
      </trkpt>
      <trkpt lat="49.00629" lon="2.01615">
        <ele>121.1</ele>
        <time>2022-09-12T18:17:34Z</time>
      </trkpt>
      <trkpt lat="49.0063" lon="2.01613">
        <ele>121.2</ele>
        <time>2022-09-12T18:17:39Z</time>
      </trkpt>
      <trkpt lat="49.00636" lon="2.01609">
        <ele>121.2</ele>
        <time>2022-09-12T18:17:45Z</time>
      </trkpt>
      <trkpt lat="49.00642" lon="2.01605">
        <ele>121.1</ele>
        <time>2022-09-12T18:17:50Z</time>
      </trkpt>
      <trkpt lat="49.00651" lon="2.01598">
        <ele>121</ele>
        <time>2022-09-12T18:17:56Z</time>
      </trkpt>
      <trkpt lat="49.00659" lon="2.01594">
        <ele>121</ele>
        <time>2022-09-12T18:18:02Z</time>
      </trkpt>
      <trkpt lat="49.00668" lon="2.01588">
        <ele>121.2</ele>
        <time>2022-09-12T18:18:08Z</time>
      </trkpt>
      <trkpt lat="49.00674" lon="2.01584">
        <ele>121.3</ele>
        <time>2022-09-12T18:18:13Z</time>
      </trkpt>
      <trkpt lat="49.00681" lon="2.01581">
        <ele>121.1</ele>
        <time>2022-09-12T18:18:19Z</time>
      </trkpt>
      <trkpt lat="49.00686" lon="2.0158">
        <ele>120.8</ele>
        <time>2022-09-12T18:18:24Z</time>
      </trkpt>
      <trkpt lat="49.00692" lon="2.01578">
        <ele>120.6</ele>
        <time>2022-09-12T18:18:30Z</time>
      </trkpt>
      <trkpt lat="49.00696" lon="2.01576">
        <ele>120.5</ele>
        <time>2022-09-12T18:18:35Z</time>
      </trkpt>
      <trkpt lat="49.007" lon="2.01573">
        <ele>120.6</ele>
        <time>2022-09-12T18:18:40Z</time>
      </trkpt>
      <trkpt lat="49.00707" lon="2.01569">
        <ele>120.6</ele>
        <time>2022-09-12T18:18:45Z</time>
      </trkpt>
      <trkpt lat="49.00712" lon="2.01565">
        <ele>120.6</ele>
        <time>2022-09-12T18:18:50Z</time>
      </trkpt>
      <trkpt lat="49.00718" lon="2.01562">
        <ele>120.7</ele>
        <time>2022-09-12T18:18:55Z</time>
      </trkpt>
      <trkpt lat="49.00726" lon="2.01557">
        <ele>120.6</ele>
        <time>2022-09-12T18:19:01Z</time>
      </trkpt>
      <trkpt lat="49.00732" lon="2.01555">
        <ele>120.3</ele>
        <time>2022-09-12T18:19:06Z</time>
      </trkpt>
      <trkpt lat="49.00736" lon="2.01555">
        <ele>120</ele>
        <time>2022-09-12T18:19:12Z</time>
      </trkpt>
      <trkpt lat="49.00738" lon="2.01555">
        <ele>119.9</ele>
        <time>2022-09-12T18:19:17Z</time>
      </trkpt>
      <trkpt lat="49.00738" lon="2.01554">
        <ele>120</ele>
        <time>2022-09-12T18:19:23Z</time>
      </trkpt>
      <trkpt lat="49.00737" lon="2.01554">
        <ele>120</ele>
        <time>2022-09-12T18:19:28Z</time>
      </trkpt>
      <trkpt lat="49.00735" lon="2.01554">
        <ele>120.2</ele>
        <time>2022-09-12T18:19:34Z</time>
      </trkpt>
      <trkpt lat="49.00734" lon="2.01554">
        <ele>120.2</ele>
        <time>2022-09-12T18:19:39Z</time>
      </trkpt>
      <trkpt lat="49.00733" lon="2.01554">
        <ele>120.3</ele>
        <time>2022-09-12T18:19:44Z</time>
      </trkpt>
    </trkseg>
  </trk>
</gpx>